Données brutes

Données brutes de la station

Données brutes (2000 dernières valeurs)

Date Temp Humidity Wind Gust Direction Pressure Rain
2020-04-03 03:32:00 4.3°C 76% 2.4 km/h 3.7 km/h 174° 1014.3 hPa 0.000 mm
2020-04-03 03:31:00 4.2°C 76% 2.7 km/h 4.8 km/h 252° 1014.3 hPa 0.000 mm
2020-04-03 03:30:00 4.1°C 76% 3.4 km/h 5.3 km/h 264° 1014.2 hPa 0.000 mm
2020-04-03 03:29:00 4.4°C 76% 1.5 km/h 2.6 km/h 176° 1014.3 hPa 0.000 mm
2020-04-03 03:28:00 4.3°C 76% 0.2 km/h 1.1 km/h 144° 1014.3 hPa 0.000 mm
2020-04-03 03:27:00 4.1°C 76% 0.0 km/h 0.0 km/h 63° 1014.3 hPa 0.000 mm
2020-04-03 03:26:00 4.1°C 76% 0.4 km/h 1.1 km/h 1014.3 hPa 0.000 mm
2020-04-03 03:25:00 4.1°C 76% 1.1 km/h 1.6 km/h 154° 1014.3 hPa 0.000 mm
2020-04-03 03:24:00 4.1°C 76% 1.1 km/h 2.1 km/h 240° 1014.3 hPa 0.000 mm
2020-04-03 03:23:00 4.1°C 76% 1.7 km/h 2.6 km/h 107° 1014.3 hPa 0.000 mm
2020-04-03 03:22:00 4.0°C 76% 1.5 km/h 3.7 km/h 219° 1014.3 hPa 0.000 mm
2020-04-03 03:21:00 4.0°C 76% 0.4 km/h 1.1 km/h 224° 1014.3 hPa 0.000 mm
2020-04-03 03:20:00 4.2°C 76% 0.8 km/h 1.6 km/h 153° 1014.3 hPa 0.000 mm
2020-04-03 03:19:00 4.1°C 76% 2.0 km/h 4.2 km/h 215° 1014.3 hPa 0.000 mm
2020-04-03 03:18:00 4.2°C 76% 1.1 km/h 1.6 km/h 167° 1014.3 hPa 0.000 mm
2020-04-03 03:17:00 4.2°C 76% 1.5 km/h 2.1 km/h 164° 1014.3 hPa 0.000 mm
2020-04-03 03:16:00 3.8°C 76% 1.5 km/h 2.1 km/h 99° 1014.3 hPa 0.000 mm
2020-04-03 03:15:00 4.0°C 76% 1.6 km/h 3.2 km/h 222° 1014.2 hPa 0.000 mm
2020-04-03 03:14:00 4.0°C 75% 2.3 km/h 5.3 km/h 216° 1014.2 hPa 0.000 mm
2020-04-03 03:13:00 3.9°C 75% 3.2 km/h 4.8 km/h 174° 1014.2 hPa 0.000 mm
2020-04-03 03:12:00 4.3°C 75% 0.6 km/h 2.1 km/h 221° 1014.2 hPa 0.000 mm
2020-04-03 03:11:00 4.3°C 75% 1.2 km/h 2.1 km/h 197° 1014.2 hPa 0.000 mm
2020-04-03 03:10:00 4.4°C 75% 2.2 km/h 3.7 km/h 209° 1014.2 hPa 0.000 mm
2020-04-03 03:09:00 4.4°C 75% 1.9 km/h 3.2 km/h 181° 1014.2 hPa 0.000 mm
2020-04-03 03:08:00 4.5°C 75% 1.6 km/h 2.6 km/h 186° 1014.1 hPa 0.000 mm
2020-04-03 03:07:00 4.5°C 75% 2.9 km/h 3.7 km/h 257° 1014.1 hPa 0.000 mm
2020-04-03 03:06:00 4.6°C 75% 2.2 km/h 4.2 km/h 178° 1014.1 hPa 0.000 mm
2020-04-03 03:05:00 4.4°C 75% 0.6 km/h 1.6 km/h 122° 1014.1 hPa 0.000 mm
2020-04-03 03:04:00 4.4°C 75% 0.8 km/h 2.1 km/h 147° 1014.1 hPa 0.000 mm
2020-04-03 03:03:00 4.6°C 75% 0.0 km/h 0.0 km/h 159° 1014.1 hPa 0.000 mm
2020-04-03 03:02:00 4.5°C 75% 0.6 km/h 1.1 km/h 177° 1014.0 hPa 0.000 mm
2020-04-03 03:01:00 4.2°C 75% 0.8 km/h 1.6 km/h 174° 1014.0 hPa 0.000 mm
2020-04-03 03:00:00 4.4°C 75% 1.2 km/h 2.6 km/h 102° 1014.0 hPa 0.000 mm
2020-04-03 02:59:00 4.5°C 75% 1.8 km/h 2.6 km/h 267° 1014.0 hPa 0.000 mm
2020-04-03 02:58:00 4.5°C 75% 2.6 km/h 3.7 km/h 259° 1014.0 hPa 0.000 mm
2020-04-03 02:57:00 4.6°C 75% 2.6 km/h 3.7 km/h 207° 1014.0 hPa 0.000 mm
2020-04-03 02:56:00 4.5°C 75% 2.6 km/h 4.8 km/h 231° 1014.0 hPa 0.000 mm
2020-04-03 02:55:00 4.8°C 75% 1.1 km/h 2.1 km/h 197° 1014.0 hPa 0.000 mm
2020-04-03 02:54:00 4.8°C 74% 1.3 km/h 2.1 km/h 209° 1014.0 hPa 0.000 mm
2020-04-03 02:53:00 5.0°C 74% 2.3 km/h 3.7 km/h 117° 1013.9 hPa 0.000 mm
2020-04-03 02:52:00 5.0°C 74% 1.9 km/h 2.6 km/h 43° 1013.9 hPa 0.000 mm
2020-04-03 02:51:00 5.1°C 74% 2.4 km/h 3.2 km/h 196° 1013.9 hPa 0.000 mm
2020-04-03 02:50:00 5.0°C 74% 1.7 km/h 3.2 km/h 78° 1013.9 hPa 0.000 mm
2020-04-03 02:49:00 4.9°C 74% 2.8 km/h 4.2 km/h 83° 1013.9 hPa 0.000 mm
2020-04-03 02:48:00 4.9°C 74% 2.4 km/h 5.8 km/h 98° 1013.9 hPa 0.000 mm
2020-04-03 02:47:00 4.9°C 74% 1.1 km/h 2.1 km/h 167° 1013.9 hPa 0.000 mm
2020-04-03 02:46:00 5.0°C 74% 0.9 km/h 1.6 km/h 30° 1013.9 hPa 0.000 mm
2020-04-03 02:45:00 5.0°C 74% 1.1 km/h 2.1 km/h 209° 1013.9 hPa 0.000 mm
2020-04-03 02:44:00 5.1°C 74% 2.7 km/h 4.8 km/h 162° 1013.8 hPa 0.000 mm
2020-04-03 02:43:00 5.0°C 74% 2.8 km/h 4.8 km/h 82° 1013.9 hPa 0.000 mm
2020-04-03 02:42:00 5.1°C 74% 2.7 km/h 3.7 km/h 52° 1013.9 hPa 0.000 mm
2020-04-03 02:41:00 5.3°C 74% 1.6 km/h 3.2 km/h 96° 1013.8 hPa 0.000 mm
2020-04-03 02:40:00 5.4°C 74% 2.5 km/h 4.2 km/h 190° 1013.9 hPa 0.000 mm
2020-04-03 02:39:00 5.3°C 73% 1.6 km/h 3.2 km/h 120° 1013.9 hPa 0.000 mm
2020-04-03 02:38:00 5.5°C 73% 2.2 km/h 3.2 km/h 162° 1013.8 hPa 0.000 mm
2020-04-03 02:37:00 5.5°C 73% 2.4 km/h 3.7 km/h 129° 1013.8 hPa 0.000 mm
2020-04-03 02:36:00 5.5°C 73% 4.3 km/h 6.3 km/h 163° 1013.8 hPa 0.000 mm
2020-04-03 02:35:00 5.5°C 73% 3.1 km/h 5.3 km/h 236° 1013.8 hPa 0.000 mm
2020-04-03 02:34:00 5.5°C 73% 4.1 km/h 5.8 km/h 206° 1013.8 hPa 0.000 mm
2020-04-03 02:33:00 5.7°C 73% 1.6 km/h 4.2 km/h 160° 1013.8 hPa 0.000 mm
2020-04-03 02:32:00 5.8°C 73% 0.6 km/h 1.6 km/h 117° 1013.8 hPa 0.000 mm
2020-04-03 02:31:00 5.9°C 73% 1.7 km/h 2.6 km/h 86° 1013.8 hPa 0.000 mm
2020-04-03 02:30:00 6.0°C 73% 3.6 km/h 5.3 km/h 145° 1013.8 hPa 0.000 mm
2020-04-03 02:29:00 6.2°C 73% 4.7 km/h 7.4 km/h 222° 1013.8 hPa 0.000 mm
2020-04-03 02:28:00 6.0°C 73% 5.8 km/h 9.5 km/h 146° 1013.8 hPa 0.000 mm
2020-04-03 02:27:00 6.1°C 73% 4.6 km/h 6.3 km/h 235° 1013.8 hPa 0.000 mm
2020-04-03 02:26:00 6.1°C 73% 6.1 km/h 9.5 km/h 300° 1013.8 hPa 0.000 mm
2020-04-03 02:25:00 6.1°C 73% 5.9 km/h 7.4 km/h 190° 1013.8 hPa 0.000 mm
2020-04-03 02:24:00 6.1°C 73% 4.9 km/h 7.4 km/h 236° 1013.8 hPa 0.000 mm
2020-04-03 02:23:00 6.1°C 73% 4.2 km/h 6.3 km/h 189° 1013.8 hPa 0.000 mm
2020-04-03 02:22:00 6.1°C 73% 5.7 km/h 8.4 km/h 236° 1013.8 hPa 0.000 mm
2020-04-03 02:21:00 6.0°C 73% 6.6 km/h 7.9 km/h 222° 1013.8 hPa 0.000 mm
2020-04-03 02:20:00 6.1°C 73% 4.1 km/h 6.3 km/h 248° 1013.7 hPa 0.000 mm
2020-04-03 02:19:00 6.1°C 72% 7.7 km/h 10.6 km/h 302° 1013.8 hPa 0.000 mm
2020-04-03 02:18:00 6.3°C 72% 5.2 km/h 7.4 km/h 189° 1013.8 hPa 0.000 mm
2020-04-03 02:17:00 6.4°C 72% 5.6 km/h 7.9 km/h 217° 1013.8 hPa 0.000 mm
2020-04-03 02:16:00 6.3°C 72% 7.6 km/h 10.0 km/h 192° 1013.7 hPa 0.000 mm
2020-04-03 02:15:00 6.4°C 72% 5.9 km/h 8.4 km/h 253° 1013.7 hPa 0.000 mm
2020-04-03 02:14:00 6.4°C 72% 7.7 km/h 9.5 km/h 257° 1013.7 hPa 0.000 mm
2020-04-03 02:13:00 6.4°C 72% 6.4 km/h 11.1 km/h 191° 1013.7 hPa 0.000 mm
2020-04-03 02:12:00 6.4°C 72% 6.8 km/h 8.4 km/h 189° 1013.7 hPa 0.000 mm
2020-04-03 02:11:00 6.4°C 72% 7.0 km/h 9.5 km/h 267° 1013.7 hPa 0.000 mm
2020-04-03 02:10:00 6.4°C 72% 7.5 km/h 9.5 km/h 221° 1013.7 hPa 0.000 mm
2020-04-03 02:09:00 6.5°C 72% 7.8 km/h 10.0 km/h 204° 1013.7 hPa 0.000 mm
2020-04-03 02:08:00 6.6°C 72% 7.9 km/h 11.6 km/h 243° 1013.7 hPa 0.000 mm
2020-04-03 02:07:00 6.4°C 72% 7.0 km/h 9.5 km/h 240° 1013.7 hPa 0.000 mm
2020-04-03 02:06:00 6.5°C 72% 6.4 km/h 8.4 km/h 224° 1013.7 hPa 0.000 mm
2020-04-03 02:05:00 6.6°C 72% 7.6 km/h 11.1 km/h 271° 1013.6 hPa 0.000 mm
2020-04-03 02:04:00 6.7°C 71% 5.8 km/h 7.4 km/h 204° 1013.6 hPa 0.000 mm
2020-04-03 02:03:00 6.7°C 71% 9.1 km/h 12.7 km/h 288° 1013.6 hPa 0.000 mm
2020-04-03 02:02:00 6.7°C 71% 7.9 km/h 10.6 km/h 206° 1013.7 hPa 0.000 mm
2020-04-03 02:01:00 6.7°C 71% 7.7 km/h 10.6 km/h 254° 1013.6 hPa 0.000 mm
2020-04-03 02:00:00 6.8°C 71% 7.6 km/h 10.0 km/h 240° 1013.7 hPa 0.000 mm
2020-04-03 01:59:00 7.0°C 71% 10.1 km/h 12.7 km/h 237° 1013.6 hPa 0.000 mm
2020-04-03 01:58:00 6.7°C 71% 8.6 km/h 12.7 km/h 252° 1013.6 hPa 0.000 mm
2020-04-03 01:57:00 6.9°C 71% 8.5 km/h 13.7 km/h 288° 1013.6 hPa 0.000 mm
2020-04-03 01:56:00 6.8°C 71% 9.2 km/h 11.1 km/h 205° 1013.6 hPa 0.000 mm
2020-04-03 01:55:00 6.8°C 71% 9.9 km/h 13.2 km/h 203° 1013.7 hPa 0.000 mm
2020-04-03 01:54:00 6.6°C 71% 8.3 km/h 11.6 km/h 255° 1013.7 hPa 0.000 mm
2020-04-03 01:53:00 6.8°C 71% 7.8 km/h 9.5 km/h 239° 1013.6 hPa 0.000 mm
2020-04-03 01:52:00 6.8°C 71% 8.9 km/h 13.7 km/h 284° 1013.7 hPa 0.000 mm
2020-04-03 01:51:00 6.9°C 71% 8.2 km/h 10.0 km/h 287° 1013.6 hPa 0.000 mm
2020-04-03 01:50:00 6.9°C 71% 7.7 km/h 11.1 km/h 222° 1013.7 hPa 0.000 mm
2020-04-03 01:49:00 6.9°C 70% 9.0 km/h 15.3 km/h 174° 1013.6 hPa 0.000 mm
2020-04-03 01:48:00 7.1°C 70% 8.3 km/h 12.1 km/h 222° 1013.6 hPa 0.000 mm
2020-04-03 01:47:00 7.1°C 70% 8.2 km/h 10.6 km/h 269° 1013.6 hPa 0.000 mm
2020-04-03 01:46:00 7.1°C 70% 9.4 km/h 13.7 km/h 287° 1013.6 hPa 0.000 mm
2020-04-03 01:45:00 7.0°C 70% 9.3 km/h 11.1 km/h 239° 1013.6 hPa 0.000 mm
2020-04-03 01:44:00 7.2°C 70% 10.6 km/h 13.2 km/h 222° 1013.7 hPa 0.000 mm
2020-04-03 01:43:00 7.0°C 70% 9.3 km/h 13.7 km/h 191° 1013.7 hPa 0.000 mm
2020-04-03 01:42:00 7.1°C 70% 9.2 km/h 11.6 km/h 270° 1013.7 hPa 0.000 mm
2020-04-03 01:41:00 7.1°C 70% 9.8 km/h 13.7 km/h 284° 1013.7 hPa 0.000 mm
2020-04-03 01:40:00 6.9°C 70% 10.1 km/h 11.6 km/h 224° 1013.7 hPa 0.000 mm
2020-04-03 01:39:00 6.8°C 70% 9.9 km/h 12.7 km/h 223° 1013.7 hPa 0.000 mm
2020-04-03 01:38:00 7.3°C 70% 11.0 km/h 13.7 km/h 208° 1013.7 hPa 0.000 mm
2020-04-03 01:37:00 6.9°C 70% 10.8 km/h 16.9 km/h 237° 1013.7 hPa 0.000 mm
2020-04-03 01:36:00 6.8°C 70% 8.3 km/h 12.1 km/h 203° 1013.6 hPa 0.000 mm
2020-04-03 01:35:00 7.0°C 70% 8.3 km/h 11.6 km/h 253° 1013.7 hPa 0.000 mm
2020-04-03 01:34:00 6.8°C 69% 9.1 km/h 11.6 km/h 204° 1013.7 hPa 0.000 mm
2020-04-03 01:33:00 7.1°C 69% 7.2 km/h 12.1 km/h 177° 1013.7 hPa 0.000 mm
2020-04-03 01:32:00 7.0°C 69% 10.2 km/h 12.7 km/h 222° 1013.6 hPa 0.000 mm
2020-04-03 01:31:00 7.1°C 69% 8.6 km/h 11.6 km/h 252° 1013.6 hPa 0.000 mm
2020-04-03 01:30:00 7.0°C 69% 9.7 km/h 14.8 km/h 240° 1013.7 hPa 0.000 mm
2020-04-03 01:29:00 7.2°C 69% 10.0 km/h 12.7 km/h 205° 1013.6 hPa 0.000 mm
2020-04-03 01:28:00 7.0°C 69% 9.6 km/h 12.7 km/h 257° 1013.6 hPa 0.000 mm
2020-04-03 01:27:00 7.0°C 69% 10.1 km/h 13.2 km/h 223° 1013.6 hPa 0.000 mm
2020-04-03 01:26:00 7.0°C 69% 8.1 km/h 12.7 km/h 269° 1013.6 hPa 0.000 mm
2020-04-03 01:25:00 7.1°C 69% 8.8 km/h 10.6 km/h 253° 1013.6 hPa 0.000 mm
2020-04-03 01:24:00 7.2°C 69% 10.8 km/h 13.7 km/h 252° 1013.6 hPa 0.000 mm
2020-04-03 01:23:00 7.0°C 69% 11.1 km/h 13.7 km/h 237° 1013.6 hPa 0.000 mm
2020-04-03 01:22:00 6.7°C 69% 8.2 km/h 12.1 km/h 236° 1013.6 hPa 0.000 mm
2020-04-03 01:21:00 6.7°C 69% 8.5 km/h 10.6 km/h 205° 1013.6 hPa 0.000 mm
2020-04-03 01:20:00 6.5°C 69% 8.8 km/h 10.6 km/h 221° 1013.6 hPa 0.000 mm
2020-04-03 01:19:00 6.4°C 68% 9.3 km/h 12.7 km/h 284° 1013.6 hPa 0.000 mm
2020-04-03 01:18:00 6.0°C 68% 9.0 km/h 11.6 km/h 235° 1013.6 hPa 0.000 mm
2020-04-03 01:17:00 5.0°C 68% 8.3 km/h 10.6 km/h 251° 1013.6 hPa 0.000 mm
2020-04-03 01:16:00 5.1°C 68% 6.7 km/h 8.4 km/h 248° 1013.6 hPa 0.000 mm
2020-04-03 01:15:00 4.6°C 68% 6.8 km/h 9.5 km/h 235° 1013.6 hPa 0.000 mm
2020-04-03 01:14:00 4.4°C 68% 6.5 km/h 9.0 km/h 245° 1013.6 hPa 0.000 mm
2020-04-03 01:13:00 4.3°C 68% 4.7 km/h 6.3 km/h 260° 1013.6 hPa 0.000 mm
2020-04-03 01:12:00 4.4°C 68% 5.3 km/h 7.9 km/h 230° 1013.6 hPa 0.000 mm
2020-04-03 01:11:00 4.2°C 68% 4.9 km/h 8.4 km/h 250° 1013.6 hPa 0.000 mm
2020-04-03 01:10:00 4.1°C 68% 5.6 km/h 8.4 km/h 269° 1013.6 hPa 0.000 mm
2020-04-03 01:09:00 3.9°C 68% 3.8 km/h 6.3 km/h 217° 1013.6 hPa 0.000 mm
2020-04-03 01:08:00 3.9°C 68% 4.5 km/h 6.9 km/h 228° 1013.6 hPa 0.000 mm
2020-04-03 01:07:00 3.8°C 68% 5.8 km/h 8.4 km/h 263° 1013.5 hPa 0.000 mm
2020-04-03 01:06:00 3.7°C 68% 3.6 km/h 5.3 km/h 242° 1013.5 hPa 0.000 mm
2020-04-03 01:05:00 3.4°C 68% 3.8 km/h 4.8 km/h 225° 1013.5 hPa 0.000 mm
2020-04-03 01:04:00 3.2°C 68% 3.2 km/h 3.7 km/h 203° 1013.6 hPa 0.000 mm
2020-04-03 01:03:00 2.7°C 68% 3.1 km/h 3.7 km/h 186° 1013.6 hPa 0.000 mm
2020-04-03 01:02:00 2.4°C 68% 3.1 km/h 3.7 km/h 171° 1013.6 hPa 0.000 mm
2020-04-03 01:01:00 2.2°C 68% 3.0 km/h 3.7 km/h 213° 1013.6 hPa 0.000 mm
2020-04-03 01:00:00 2.2°C 68% 2.9 km/h 3.7 km/h 230° 1013.6 hPa 0.000 mm
2020-04-03 00:59:00 2.4°C 67% 3.3 km/h 4.8 km/h 233° 1013.6 hPa 0.000 mm
2020-04-03 00:58:00 2.8°C 67% 3.4 km/h 4.2 km/h 255° 1013.5 hPa 0.000 mm
2020-04-03 00:57:00 2.9°C 67% 2.9 km/h 3.7 km/h 243° 1013.6 hPa 0.000 mm
2020-04-03 00:56:00 2.6°C 67% 3.6 km/h 4.2 km/h 203° 1013.6 hPa 0.000 mm
2020-04-03 00:55:00 2.6°C 67% 3.9 km/h 4.8 km/h 205° 1013.5 hPa 0.000 mm
2020-04-03 00:54:00 2.4°C 67% 3.7 km/h 4.2 km/h 169° 1013.5 hPa 0.000 mm
2020-04-03 00:53:00 2.3°C 67% 3.9 km/h 4.2 km/h 178° 1013.5 hPa 0.000 mm
2020-04-03 00:52:00 2.3°C 67% 3.8 km/h 4.2 km/h 155° 1013.5 hPa 0.000 mm
2020-04-03 00:51:00 2.4°C 67% 3.0 km/h 3.7 km/h 182° 1013.5 hPa 0.000 mm
2020-04-03 00:50:00 2.4°C 67% 3.3 km/h 4.2 km/h 191° 1013.5 hPa 0.000 mm
2020-04-03 00:49:00 2.3°C 67% 3.1 km/h 3.2 km/h 169° 1013.5 hPa 0.000 mm
2020-04-03 00:48:00 2.0°C 67% 3.1 km/h 3.7 km/h 169° 1013.5 hPa 0.000 mm
2020-04-03 00:47:00 2.1°C 67% 3.1 km/h 3.7 km/h 191° 1013.5 hPa 0.000 mm
2020-04-03 00:46:00 2.2°C 67% 3.3 km/h 4.2 km/h 183° 1013.5 hPa 0.000 mm
2020-04-03 00:45:00 2.3°C 67% 2.9 km/h 3.7 km/h 209° 1013.5 hPa 0.000 mm
2020-04-03 00:44:00 2.5°C 66% 3.2 km/h 3.7 km/h 186° 1013.5 hPa 0.000 mm
2020-04-03 00:43:00 2.7°C 66% 3.0 km/h 3.2 km/h 192° 1013.5 hPa 0.000 mm
2020-04-03 00:42:00 2.4°C 66% 3.6 km/h 4.8 km/h 194° 1013.5 hPa 0.000 mm
2020-04-03 00:41:00 2.1°C 66% 3.1 km/h 3.7 km/h 191° 1013.5 hPa 0.000 mm
2020-04-03 00:40:00 1.8°C 66% 3.0 km/h 3.2 km/h 158° 1013.4 hPa 0.000 mm
2020-04-03 00:39:00 1.9°C 66% 3.1 km/h 3.7 km/h 190° 1013.4 hPa 0.000 mm
2020-04-03 00:38:00 1.7°C 66% 3.0 km/h 3.7 km/h 189° 1013.4 hPa 0.000 mm
2020-04-03 00:37:00 1.7°C 66% 3.0 km/h 3.7 km/h 213° 1013.5 hPa 0.000 mm
2020-04-03 00:36:00 1.8°C 66% 2.8 km/h 3.2 km/h 185° 1013.4 hPa 0.000 mm
2020-04-03 00:35:00 2.0°C 66% 2.8 km/h 3.7 km/h 212° 1013.5 hPa 0.000 mm
2020-04-03 00:34:00 2.1°C 65% 2.5 km/h 3.2 km/h 124° 1013.5 hPa 0.000 mm
2020-04-03 00:33:00 2.3°C 65% 2.3 km/h 3.2 km/h 159° 1013.5 hPa 0.000 mm
2020-04-03 00:32:00 2.2°C 65% 1.8 km/h 2.1 km/h 163° 1013.4 hPa 0.000 mm
2020-04-03 00:31:00 2.2°C 65% 1.0 km/h 1.6 km/h 142° 1013.4 hPa 0.000 mm
2020-04-03 00:30:00 2.2°C 65% 1.4 km/h 1.6 km/h 169° 1013.4 hPa 0.000 mm
2020-04-03 00:29:00 2.2°C 65% 1.5 km/h 1.6 km/h 142° 1013.4 hPa 0.000 mm
2020-04-03 00:28:00 2.2°C 65% 1.1 km/h 1.6 km/h 144° 1013.4 hPa 0.000 mm
2020-04-03 00:27:00 2.3°C 65% 0.9 km/h 1.6 km/h 135° 1013.4 hPa 0.000 mm
2020-04-03 00:26:00 2.4°C 65% 1.1 km/h 1.6 km/h 162° 1013.4 hPa 0.000 mm
2020-04-03 00:25:00 2.4°C 65% 1.6 km/h 2.1 km/h 169° 1013.4 hPa 0.000 mm
2020-04-03 00:24:00 2.6°C 65% 1.1 km/h 2.1 km/h 171° 1013.4 hPa 0.000 mm
2020-04-03 00:23:00 2.8°C 65% 0.0 km/h 0.0 km/h 169° 1013.4 hPa 0.000 mm
2020-04-03 00:22:00 3.1°C 65% 1.0 km/h 1.6 km/h 135° 1013.4 hPa 0.000 mm
2020-04-03 00:21:00 3.3°C 65% 1.7 km/h 2.1 km/h 144° 1013.4 hPa 0.000 mm
2020-04-03 00:20:00 3.2°C 65% 1.4 km/h 2.1 km/h 135° 1013.4 hPa 0.000 mm
2020-04-03 00:19:00 3.1°C 64% 1.0 km/h 1.6 km/h 117° 1013.4 hPa 0.000 mm
2020-04-03 00:18:00 3.0°C 64% 1.0 km/h 1.6 km/h 162° 1013.4 hPa 0.000 mm
2020-04-03 00:17:00 3.1°C 64% 0.9 km/h 1.6 km/h 162° 1013.4 hPa 0.000 mm
2020-04-03 00:16:00 2.9°C 64% 1.2 km/h 1.6 km/h 171° 1013.4 hPa 0.000 mm
2020-04-03 00:15:00 3.1°C 64% 0.9 km/h 1.6 km/h 162° 1013.3 hPa 0.000 mm
2020-04-03 00:14:00 3.0°C 64% 0.7 km/h 1.1 km/h 117° 1013.3 hPa 0.000 mm
2020-04-03 00:13:00 2.9°C 64% 1.5 km/h 2.1 km/h 126° 1013.3 hPa 0.000 mm
2020-04-03 00:12:00 2.7°C 64% 1.7 km/h 2.1 km/h 164° 1013.3 hPa 0.000 mm
2020-04-03 00:11:00 2.8°C 64% 2.0 km/h 2.6 km/h 126° 1013.3 hPa 0.000 mm
2020-04-03 00:10:00 2.9°C 64% 2.2 km/h 2.6 km/h 152° 1013.3 hPa 0.000 mm
2020-04-03 00:09:00 2.8°C 64% 2.3 km/h 2.6 km/h 197° 1013.3 hPa 0.000 mm
2020-04-03 00:08:00 2.9°C 64% 2.0 km/h 2.1 km/h 156° 1013.3 hPa 0.000 mm
2020-04-03 00:07:00 2.9°C 64% 1.9 km/h 2.6 km/h 160° 1013.3 hPa 0.000 mm
2020-04-03 00:06:00 3.0°C 64% 1.2 km/h 1.6 km/h 133° 1013.3 hPa 0.000 mm
2020-04-03 00:05:00 3.0°C 64% 1.0 km/h 1.6 km/h 144° 1013.3 hPa 0.000 mm
2020-04-03 00:04:00 2.9°C 64% 1.6 km/h 2.6 km/h 159° 1013.2 hPa 0.000 mm
2020-04-03 00:03:00 2.8°C 64% 1.5 km/h 2.1 km/h 146° 1013.3 hPa 0.000 mm
2020-04-03 00:02:00 2.8°C 64% 1.8 km/h 2.6 km/h 169° 1013.2 hPa 0.000 mm
2020-04-03 00:01:00 2.8°C 64% 1.2 km/h 2.1 km/h 126° 1013.3 hPa 0.000 mm
2020-04-03 00:00:00 3.0°C 64% 1.5 km/h 2.1 km/h 156° 1013.3 hPa 0.000 mm
2020-04-02 23:59:00 2.9°C 63% 1.8 km/h 2.1 km/h 169° 1013.3 hPa 0.000 mm
2020-04-02 23:58:00 3.0°C 63% 1.8 km/h 2.1 km/h 164° 1013.3 hPa 0.000 mm
2020-04-02 23:57:00 3.3°C 63% 1.8 km/h 2.1 km/h 155° 1013.3 hPa 0.000 mm
2020-04-02 23:56:00 3.7°C 63% 1.7 km/h 2.1 km/h 162° 1013.3 hPa 0.000 mm
2020-04-02 23:55:00 3.9°C 63% 1.3 km/h 2.1 km/h 158° 1013.2 hPa 0.000 mm
2020-04-02 23:54:00 3.9°C 63% 1.2 km/h 1.6 km/h 161° 1013.2 hPa 0.000 mm
2020-04-02 23:53:00 3.8°C 63% 1.6 km/h 2.1 km/h 167° 1013.2 hPa 0.000 mm
2020-04-02 23:52:00 3.8°C 63% 1.4 km/h 1.6 km/h 154° 1013.2 hPa 0.000 mm
2020-04-02 23:51:00 3.9°C 63% 1.2 km/h 1.6 km/h 182° 1013.2 hPa 0.000 mm
2020-04-02 23:50:00 4.0°C 63% 1.6 km/h 2.1 km/h 165° 1013.2 hPa 0.000 mm
2020-04-02 23:49:00 3.9°C 62% 1.7 km/h 2.1 km/h 201° 1013.2 hPa 0.000 mm
2020-04-02 23:48:00 4.0°C 62% 1.6 km/h 2.1 km/h 168° 1013.2 hPa 0.000 mm
2020-04-02 23:47:00 4.0°C 62% 1.4 km/h 1.6 km/h 167° 1013.2 hPa 0.000 mm
2020-04-02 23:46:00 3.8°C 62% 1.6 km/h 2.1 km/h 133° 1013.1 hPa 0.000 mm
2020-04-02 23:45:00 3.6°C 62% 2.0 km/h 2.6 km/h 153° 1013.1 hPa 0.000 mm
2020-04-02 23:44:00 3.4°C 62% 1.9 km/h 2.6 km/h 196° 1013.1 hPa 0.000 mm
2020-04-02 23:43:00 3.6°C 62% 1.5 km/h 2.1 km/h 158° 1013.2 hPa 0.000 mm
2020-04-02 23:42:00 4.0°C 62% 1.3 km/h 1.6 km/h 142° 1013.1 hPa 0.000 mm
2020-04-02 23:41:00 3.9°C 62% 1.6 km/h 2.1 km/h 180° 1013.2 hPa 0.000 mm
2020-04-02 23:40:00 4.2°C 62% 1.2 km/h 1.6 km/h 174° 1013.2 hPa 0.000 mm
2020-04-02 23:39:00 4.2°C 62% 1.2 km/h 1.6 km/h 146° 1013.2 hPa 0.000 mm
2020-04-02 23:38:00 4.0°C 62% 1.3 km/h 1.6 km/h 125° 1013.2 hPa 0.000 mm
2020-04-02 23:37:00 4.1°C 62% 1.2 km/h 1.6 km/h 185° 1013.2 hPa 0.000 mm
2020-04-02 23:36:00 4.2°C 62% 1.6 km/h 2.1 km/h 150° 1013.2 hPa 0.000 mm
2020-04-02 23:35:00 4.3°C 62% 1.5 km/h 2.1 km/h 153° 1013.2 hPa 0.000 mm
2020-04-02 23:34:00 4.4°C 61% 1.4 km/h 2.1 km/h 153° 1013.2 hPa 0.000 mm
2020-04-02 23:33:00 4.3°C 61% 1.5 km/h 2.1 km/h 154° 1013.2 hPa 0.000 mm
2020-04-02 23:32:00 4.0°C 61% 1.2 km/h 1.6 km/h 137° 1013.2 hPa 0.000 mm
2020-04-02 23:31:00 3.9°C 61% 1.5 km/h 2.1 km/h 197° 1013.1 hPa 0.000 mm
2020-04-02 23:30:00 4.0°C 61% 1.4 km/h 1.6 km/h 190° 1013.1 hPa 0.000 mm
2020-04-02 23:29:00 4.2°C 61% 0.7 km/h 1.6 km/h 108° 1013.1 hPa 0.000 mm
2020-04-02 23:28:00 4.6°C 61% 1.0 km/h 1.6 km/h 153° 1013.1 hPa 0.000 mm
2020-04-02 23:27:00 4.7°C 61% 1.0 km/h 2.1 km/h 196° 1013.1 hPa 0.000 mm
2020-04-02 23:26:00 4.7°C 61% 0.6 km/h 1.1 km/h 126° 1013.1 hPa 0.000 mm
2020-04-02 23:25:00 4.8°C 61% 0.8 km/h 1.1 km/h 144° 1013.1 hPa 0.000 mm
2020-04-02 23:24:00 5.1°C 60% 1.4 km/h 1.6 km/h 144° 1013.1 hPa 0.000 mm
2020-04-02 23:23:00 5.5°C 60% 1.3 km/h 1.6 km/h 173° 1013.0 hPa 0.000 mm
2020-04-02 23:22:00 5.6°C 60% 1.6 km/h 2.6 km/h 162° 1013.0 hPa 0.000 mm
2020-04-02 23:21:00 5.6°C 60% 2.3 km/h 2.6 km/h 191° 1013.0 hPa 0.000 mm
2020-04-02 23:20:00 5.5°C 60% 2.0 km/h 2.6 km/h 180° 1013.0 hPa 0.000 mm
2020-04-02 23:19:00 5.3°C 60% 2.0 km/h 2.1 km/h 225° 1013.1 hPa 0.000 mm
2020-04-02 23:18:00 5.2°C 60% 1.6 km/h 2.1 km/h 191° 1013.1 hPa 0.000 mm
2020-04-02 23:17:00 5.4°C 60% 1.6 km/h 2.1 km/h 180° 1013.1 hPa 0.000 mm
2020-04-02 23:16:00 5.2°C 60% 1.7 km/h 2.1 km/h 169° 1013.1 hPa 0.000 mm
2020-04-02 23:15:00 5.1°C 60% 1.8 km/h 2.1 km/h 223° 1013.1 hPa 0.000 mm
2020-04-02 23:14:00 5.2°C 59% 1.6 km/h 2.1 km/h 173° 1013.1 hPa 0.000 mm
2020-04-02 23:13:00 5.5°C 59% 1.9 km/h 2.6 km/h 206° 1013.1 hPa 0.000 mm
2020-04-02 23:12:00 5.6°C 59% 2.3 km/h 3.2 km/h 204° 1013.1 hPa 0.000 mm
2020-04-02 23:11:00 5.7°C 59% 2.0 km/h 2.6 km/h 153° 1013.0 hPa 0.000 mm
2020-04-02 23:10:00 5.8°C 59% 1.6 km/h 2.1 km/h 205° 1013.0 hPa 0.000 mm
2020-04-02 23:09:00 5.7°C 59% 1.6 km/h 2.1 km/h 177° 1013.0 hPa 0.000 mm
2020-04-02 23:08:00 5.8°C 59% 1.7 km/h 2.1 km/h 141° 1013.0 hPa 0.000 mm
2020-04-02 23:07:00 5.7°C 59% 1.6 km/h 2.1 km/h 190° 1013.0 hPa 0.000 mm
2020-04-02 23:06:00 6.0°C 59% 1.5 km/h 2.1 km/h 187° 1012.9 hPa 0.000 mm
2020-04-02 23:05:00 6.1°C 59% 1.6 km/h 2.1 km/h 137° 1012.9 hPa 0.000 mm
2020-04-02 23:04:00 6.0°C 59% 1.3 km/h 2.6 km/h 173° 1012.9 hPa 0.000 mm
2020-04-02 23:03:00 6.3°C 59% 1.2 km/h 2.1 km/h 205° 1012.8 hPa 0.000 mm
2020-04-02 23:02:00 6.4°C 59% 1.4 km/h 2.6 km/h 182° 1012.8 hPa 0.000 mm
2020-04-02 23:01:00 6.4°C 59% 1.4 km/h 1.6 km/h 161° 1012.8 hPa 0.000 mm
2020-04-02 23:00:00 6.5°C 59% 1.0 km/h 1.1 km/h 129° 1012.8 hPa 0.000 mm
2020-04-02 22:59:00 6.5°C 58% 1.6 km/h 2.1 km/h 174° 1012.8 hPa 0.000 mm
2020-04-02 22:58:00 6.6°C 58% 1.1 km/h 1.6 km/h 162° 1012.8 hPa 0.000 mm
2020-04-02 22:57:00 6.7°C 58% 0.8 km/h 1.1 km/h 162° 1012.8 hPa 0.000 mm
2020-04-02 22:56:00 6.7°C 58% 1.2 km/h 1.6 km/h 155° 1012.8 hPa 0.000 mm
2020-04-02 22:55:00 6.6°C 58% 1.6 km/h 2.1 km/h 163° 1012.8 hPa 0.000 mm
2020-04-02 22:54:00 6.4°C 58% 1.4 km/h 1.6 km/h 201° 1012.8 hPa 0.000 mm
2020-04-02 22:53:00 6.3°C 58% 1.1 km/h 1.6 km/h 198° 1012.8 hPa 0.000 mm
2020-04-02 22:52:00 6.4°C 58% 1.2 km/h 1.6 km/h 127° 1012.7 hPa 0.000 mm
2020-04-02 22:51:00 6.1°C 58% 0.6 km/h 1.1 km/h 155° 1012.7 hPa 0.000 mm
2020-04-02 22:50:00 6.0°C 58% 0.7 km/h 1.6 km/h 228° 1012.8 hPa 0.000 mm
2020-04-02 22:49:00 5.7°C 57% 1.7 km/h 2.6 km/h 178° 1012.8 hPa 0.000 mm
2020-04-02 22:48:00 5.5°C 57% 0.6 km/h 2.1 km/h 137° 1012.8 hPa 0.000 mm
2020-04-02 22:47:00 5.4°C 57% 1.1 km/h 1.6 km/h 128° 1012.8 hPa 0.000 mm
2020-04-02 22:46:00 5.4°C 57% 1.6 km/h 2.1 km/h 189° 1012.8 hPa 0.000 mm
2020-04-02 22:45:00 5.3°C 57% 1.3 km/h 2.1 km/h 212° 1012.8 hPa 0.000 mm
2020-04-02 22:44:00 5.2°C 57% 1.7 km/h 2.1 km/h 180° 1012.8 hPa 0.000 mm
2020-04-02 22:43:00 5.0°C 57% 2.0 km/h 2.6 km/h 180° 1012.8 hPa 0.000 mm
2020-04-02 22:42:00 4.7°C 57% 1.6 km/h 2.1 km/h 218° 1012.8 hPa 0.000 mm
2020-04-02 22:41:00 4.6°C 57% 1.6 km/h 2.1 km/h 203° 1012.8 hPa 0.000 mm
2020-04-02 22:40:00 4.3°C 57% 1.6 km/h 2.1 km/h 173° 1012.8 hPa 0.000 mm
2020-04-02 22:39:00 4.3°C 57% 1.4 km/h 1.6 km/h 155° 1012.8 hPa 0.000 mm
2020-04-02 22:38:00 4.4°C 57% 1.5 km/h 2.1 km/h 192° 1012.7 hPa 0.000 mm
2020-04-02 22:37:00 4.5°C 57% 1.8 km/h 2.6 km/h 186° 1012.7 hPa 0.000 mm
2020-04-02 22:36:00 4.5°C 57% 2.2 km/h 3.2 km/h 149° 1012.7 hPa 0.000 mm
2020-04-02 22:35:00 4.5°C 57% 1.8 km/h 2.1 km/h 146° 1012.7 hPa 0.000 mm
2020-04-02 22:34:00 4.4°C 56% 2.0 km/h 2.1 km/h 158° 1012.8 hPa 0.000 mm
2020-04-02 22:33:00 4.3°C 56% 1.5 km/h 2.1 km/h 170° 1012.7 hPa 0.000 mm
2020-04-02 22:32:00 4.1°C 56% 1.2 km/h 2.1 km/h 171° 1012.7 hPa 0.000 mm
2020-04-02 22:31:00 4.1°C 56% 0.6 km/h 1.1 km/h 153° 1012.8 hPa 0.000 mm
2020-04-02 22:30:00 3.8°C 56% 1.1 km/h 1.6 km/h 117° 1012.8 hPa 0.000 mm
2020-04-02 22:29:00 4.2°C 56% 1.0 km/h 1.6 km/h 147° 1012.8 hPa 0.000 mm
2020-04-02 22:28:00 4.3°C 56% 0.7 km/h 1.1 km/h 162° 1012.8 hPa 0.000 mm
2020-04-02 22:27:00 4.4°C 56% 1.1 km/h 1.6 km/h 117° 1012.8 hPa 0.000 mm
2020-04-02 22:26:00 4.4°C 56% 1.1 km/h 1.6 km/h 162° 1012.8 hPa 0.000 mm
2020-04-02 22:25:00 4.4°C 56% 1.4 km/h 1.6 km/h 153° 1012.8 hPa 0.000 mm
2020-04-02 22:24:00 4.5°C 56% 1.3 km/h 1.6 km/h 144° 1012.8 hPa 0.000 mm
2020-04-02 22:23:00 4.4°C 56% 1.6 km/h 2.1 km/h 135° 1012.8 hPa 0.000 mm
2020-04-02 22:22:00 4.4°C 56% 1.7 km/h 2.1 km/h 153° 1012.8 hPa 0.000 mm
2020-04-02 22:21:00 4.5°C 56% 1.8 km/h 2.1 km/h 164° 1012.8 hPa 0.000 mm
2020-04-02 22:20:00 4.7°C 56% 1.7 km/h 2.1 km/h 144° 1012.8 hPa 0.000 mm
2020-04-02 22:19:00 4.8°C 55% 1.7 km/h 2.1 km/h 159° 1012.8 hPa 0.000 mm
2020-04-02 22:18:00 4.7°C 55% 1.5 km/h 2.1 km/h 149° 1012.8 hPa 0.000 mm
2020-04-02 22:17:00 4.8°C 55% 1.9 km/h 2.1 km/h 153° 1012.8 hPa 0.000 mm
2020-04-02 22:16:00 5.0°C 55% 1.3 km/h 2.1 km/h 117° 1012.8 hPa 0.000 mm
2020-04-02 22:15:00 5.3°C 55% 1.4 km/h 1.6 km/h 153° 1012.7 hPa 0.000 mm
2020-04-02 22:14:00 5.4°C 55% 1.6 km/h 2.1 km/h 162° 1012.7 hPa 0.000 mm
2020-04-02 22:13:00 5.5°C 55% 0.8 km/h 1.1 km/h 162° 1012.7 hPa 0.000 mm
2020-04-02 22:12:00 5.4°C 55% 1.1 km/h 1.6 km/h 135° 1012.7 hPa 0.000 mm
2020-04-02 22:11:00 5.0°C 55% 1.1 km/h 1.6 km/h 171° 1012.6 hPa 0.000 mm
2020-04-02 22:10:00 4.6°C 55% 1.0 km/h 1.6 km/h 131° 1012.7 hPa 0.000 mm
2020-04-02 22:09:00 4.7°C 55% 0.5 km/h 0.5 km/h 160° 1012.7 hPa 0.000 mm
2020-04-02 22:08:00 5.3°C 55% 0.9 km/h 1.1 km/h 171° 1012.7 hPa 0.000 mm
2020-04-02 22:07:00 5.5°C 55% 1.3 km/h 1.6 km/h 153° 1012.6 hPa 0.000 mm
2020-04-02 22:06:00 5.6°C 55% 1.4 km/h 2.1 km/h 144° 1012.6 hPa 0.000 mm
2020-04-02 22:05:00 5.7°C 55% 0.3 km/h 1.1 km/h 135° 1012.6 hPa 0.000 mm
2020-04-02 22:04:00 5.8°C 54% 0.3 km/h 1.1 km/h 153° 1012.6 hPa 0.000 mm
2020-04-02 22:03:00 5.5°C 54% 0.5 km/h 1.1 km/h 162° 1012.6 hPa 0.000 mm
2020-04-02 22:02:00 5.3°C 54% 0.1 km/h 1.1 km/h 162° 1012.7 hPa 0.000 mm
2020-04-02 22:01:00 5.5°C 54% 0.0 km/h 0.0 km/h 153° 1012.7 hPa 0.000 mm
2020-04-02 22:00:00 5.7°C 54% 0.0 km/h 0.5 km/h 144° 1012.7 hPa 0.000 mm
2020-04-02 21:59:00 5.5°C 54% 0.0 km/h 0.0 km/h 153° 1012.7 hPa 0.000 mm
2020-04-02 21:58:00 5.5°C 54% 0.0 km/h 0.5 km/h 171° 1012.7 hPa 0.000 mm
2020-04-02 21:57:00 5.4°C 54% 0.7 km/h 1.1 km/h 144° 1012.6 hPa 0.000 mm
2020-04-02 21:56:00 5.3°C 54% 0.0 km/h 0.5 km/h 126° 1012.6 hPa 0.000 mm
2020-04-02 21:55:00 5.1°C 54% 0.0 km/h 0.0 km/h 144° 1012.7 hPa 0.000 mm
2020-04-02 21:54:00 5.1°C 54% 0.5 km/h 1.1 km/h 144° 1012.7 hPa 0.000 mm
2020-04-02 21:53:00 5.3°C 54% 0.6 km/h 1.1 km/h 118° 1012.6 hPa 0.000 mm
2020-04-02 21:52:00 5.2°C 54% 0.0 km/h 0.0 km/h 135° 1012.7 hPa 0.000 mm
2020-04-02 21:51:00 5.4°C 54% 0.0 km/h 0.0 km/h 128° 1012.6 hPa 0.000 mm
2020-04-02 21:50:00 5.3°C 54% 0.0 km/h 0.0 km/h 135° 1012.6 hPa 0.000 mm
2020-04-02 21:49:00 5.4°C 53% 0.0 km/h 0.5 km/h 122° 1012.6 hPa 0.000 mm
2020-04-02 21:48:00 5.6°C 53% 0.1 km/h 0.5 km/h 126° 1012.6 hPa 0.000 mm
2020-04-02 21:47:00 5.8°C 53% 0.0 km/h 0.0 km/h 135° 1012.6 hPa 0.000 mm
2020-04-02 21:46:00 5.6°C 53% 0.0 km/h 0.0 km/h 135° 1012.6 hPa 0.000 mm
2020-04-02 21:45:00 5.2°C 53% 0.5 km/h 1.1 km/h 89° 1012.6 hPa 0.000 mm
2020-04-02 21:44:00 5.5°C 53% 0.7 km/h 1.6 km/h 42° 1012.6 hPa 0.000 mm
2020-04-02 21:43:00 5.5°C 53% 0.7 km/h 1.1 km/h 41° 1012.5 hPa 0.000 mm
2020-04-02 21:42:00 5.5°C 53% 0.6 km/h 2.1 km/h 71° 1012.5 hPa 0.000 mm
2020-04-02 21:41:00 5.6°C 53% 0.0 km/h 0.0 km/h 124° 1012.5 hPa 0.000 mm
2020-04-02 21:40:00 5.9°C 53% 0.0 km/h 0.0 km/h 126° 1012.5 hPa 0.000 mm
2020-04-02 21:39:00 5.7°C 53% 0.0 km/h 0.0 km/h 162° 1012.5 hPa 0.000 mm
2020-04-02 21:38:00 6.1°C 53% 0.0 km/h 0.0 km/h 162° 1012.5 hPa 0.000 mm
2020-04-02 21:37:00 6.3°C 53% 0.2 km/h 0.5 km/h 153° 1012.5 hPa 0.000 mm
2020-04-02 21:36:00 6.2°C 53% 0.8 km/h 1.6 km/h 176° 1012.5 hPa 0.000 mm
2020-04-02 21:35:00 6.3°C 53% 0.3 km/h 1.1 km/h 155° 1012.5 hPa 0.000 mm
2020-04-02 21:34:00 6.4°C 52% 0.0 km/h 0.0 km/h 168° 1012.4 hPa 0.000 mm
2020-04-02 21:33:00 6.4°C 52% 0.0 km/h 0.5 km/h 153° 1012.4 hPa 0.000 mm
2020-04-02 21:32:00 6.4°C 52% 0.0 km/h 0.0 km/h 180° 1012.4 hPa 0.000 mm
2020-04-02 21:31:00 6.4°C 52% 0.0 km/h 0.0 km/h 153° 1012.4 hPa 0.000 mm
2020-04-02 21:30:00 6.4°C 52% 0.0 km/h 0.0 km/h 162° 1012.4 hPa 0.000 mm
2020-04-02 21:29:00 6.5°C 52% 0.1 km/h 0.5 km/h 153° 1012.4 hPa 0.000 mm
2020-04-02 21:28:00 6.3°C 52% 0.5 km/h 1.1 km/h 126° 1012.4 hPa 0.000 mm
2020-04-02 21:27:00 6.4°C 52% 0.8 km/h 1.1 km/h 144° 1012.3 hPa 0.000 mm
2020-04-02 21:26:00 6.4°C 52% 0.8 km/h 1.6 km/h 153° 1012.3 hPa 0.000 mm
2020-04-02 21:25:00 6.9°C 52% 1.2 km/h 1.6 km/h 144° 1012.3 hPa 0.000 mm
2020-04-02 21:24:00 6.9°C 52% 0.9 km/h 1.6 km/h 144° 1012.4 hPa 0.000 mm
2020-04-02 21:23:00 6.8°C 52% 0.3 km/h 1.1 km/h 162° 1012.3 hPa 0.000 mm
2020-04-02 21:22:00 6.6°C 52% 0.9 km/h 1.1 km/h 153° 1012.3 hPa 0.000 mm
2020-04-02 21:21:00 7.0°C 52% 1.0 km/h 1.1 km/h 135° 1012.3 hPa 0.000 mm
2020-04-02 21:20:00 6.9°C 52% 1.1 km/h 1.6 km/h 171° 1012.3 hPa 0.000 mm
2020-04-02 21:19:00 6.7°C 51% 0.8 km/h 1.6 km/h 153° 1012.3 hPa 0.000 mm
2020-04-02 21:18:00 6.9°C 51% 0.9 km/h 1.1 km/h 135° 1012.3 hPa 0.000 mm
2020-04-02 21:17:00 6.9°C 51% 0.7 km/h 1.1 km/h 135° 1012.2 hPa 0.000 mm
2020-04-02 21:16:00 6.8°C 51% 0.6 km/h 1.1 km/h 126° 1012.2 hPa 0.000 mm
2020-04-02 21:15:00 6.7°C 51% 0.6 km/h 1.1 km/h 126° 1012.2 hPa 0.000 mm
2020-04-02 21:14:00 6.7°C 51% 0.7 km/h 1.1 km/h 108° 1012.2 hPa 0.000 mm
2020-04-02 21:13:00 6.7°C 51% 0.6 km/h 1.1 km/h 128° 1012.3 hPa 0.000 mm
2020-04-02 21:12:00 6.7°C 51% 0.5 km/h 1.1 km/h 122° 1012.2 hPa 0.000 mm
2020-04-02 21:11:00 7.0°C 51% 0.6 km/h 1.1 km/h 144° 1012.2 hPa 0.000 mm
2020-04-02 21:10:00 7.1°C 51% 0.5 km/h 1.1 km/h 162° 1012.2 hPa 0.000 mm
2020-04-02 21:09:00 7.3°C 51% 0.0 km/h 0.0 km/h 171° 1012.2 hPa 0.000 mm
2020-04-02 21:08:00 7.3°C 51% 0.0 km/h 0.0 km/h 158° 1012.2 hPa 0.000 mm
2020-04-02 21:07:00 7.4°C 51% 0.0 km/h 0.0 km/h 128° 1012.1 hPa 0.000 mm
2020-04-02 21:06:00 7.5°C 51% 0.0 km/h 0.0 km/h 122° 1012.1 hPa 0.000 mm
2020-04-02 21:05:00 7.6°C 51% 0.0 km/h 0.0 km/h 122° 1012.1 hPa 0.000 mm
2020-04-02 21:04:00 7.6°C 50% 0.0 km/h 0.0 km/h 122° 1012.0 hPa 0.000 mm
2020-04-02 21:03:00 7.9°C 50% 0.0 km/h 0.0 km/h 117° 1012.0 hPa 0.000 mm
2020-04-02 21:02:00 7.8°C 50% 0.0 km/h 0.0 km/h 81° 1012.0 hPa 0.000 mm
2020-04-02 21:01:00 7.9°C 50% 0.0 km/h 0.0 km/h 90° 1012.0 hPa 0.000 mm
2020-04-02 21:00:00 8.1°C 50% 0.0 km/h 0.0 km/h 86° 1012.0 hPa 0.000 mm
2020-04-02 20:59:00 8.3°C 50% 0.0 km/h 0.0 km/h 90° 1012.0 hPa 0.000 mm
2020-04-02 20:58:00 8.5°C 50% 0.0 km/h 0.0 km/h 81° 1012.0 hPa 0.000 mm
2020-04-02 20:57:00 8.5°C 50% 0.0 km/h 0.0 km/h 81° 1011.9 hPa 0.000 mm
2020-04-02 20:56:00 8.6°C 50% 0.0 km/h 0.0 km/h 81° 1011.9 hPa 0.000 mm
2020-04-02 20:55:00 8.6°C 50% 0.0 km/h 0.0 km/h 86° 1011.9 hPa 0.000 mm
2020-04-02 20:54:00 8.8°C 49% 0.0 km/h 0.0 km/h 86° 1011.9 hPa 0.000 mm
2020-04-02 20:53:00 8.8°C 49% 0.0 km/h 0.0 km/h 86° 1011.9 hPa 0.000 mm
2020-04-02 20:52:00 8.8°C 49% 0.9 km/h 1.6 km/h 60° 1011.8 hPa 0.000 mm
2020-04-02 20:51:00 8.9°C 49% 0.2 km/h 1.1 km/h 84° 1011.9 hPa 0.000 mm
2020-04-02 20:50:00 9.1°C 49% 0.1 km/h 0.5 km/h 77° 1011.9 hPa 0.000 mm
2020-04-02 20:49:00 9.1°C 49% 0.7 km/h 1.1 km/h 68° 1011.9 hPa 0.000 mm
2020-04-02 20:48:00 8.9°C 49% 0.7 km/h 1.6 km/h 44° 1011.9 hPa 0.000 mm
2020-04-02 20:47:00 9.3°C 49% 0.6 km/h 1.6 km/h 38° 1011.8 hPa 0.000 mm
2020-04-02 20:46:00 9.4°C 49% 0.5 km/h 1.6 km/h 72° 1011.8 hPa 0.000 mm
2020-04-02 20:45:00 9.6°C 49% 0.7 km/h 1.1 km/h 52° 1011.8 hPa 0.000 mm
2020-04-02 20:44:00 9.6°C 48% 1.1 km/h 2.1 km/h 41° 1011.8 hPa 0.000 mm
2020-04-02 20:43:00 9.6°C 48% 0.9 km/h 1.6 km/h 56° 1011.8 hPa 0.000 mm
2020-04-02 20:42:00 9.6°C 48% 1.3 km/h 2.1 km/h 45° 1011.8 hPa 0.000 mm
2020-04-02 20:41:00 9.6°C 48% 1.2 km/h 2.1 km/h 70° 1011.8 hPa 0.000 mm
2020-04-02 20:40:00 9.7°C 48% 1.3 km/h 2.1 km/h 43° 1011.8 hPa 0.000 mm
2020-04-02 20:39:00 9.8°C 48% 0.6 km/h 1.1 km/h 62° 1011.7 hPa 0.000 mm
2020-04-02 20:38:00 9.8°C 48% 0.7 km/h 1.6 km/h 52° 1011.7 hPa 0.000 mm
2020-04-02 20:37:00 9.9°C 48% 1.3 km/h 2.6 km/h 79° 1011.7 hPa 0.000 mm
2020-04-02 20:36:00 10.0°C 48% 1.9 km/h 2.6 km/h 43° 1011.6 hPa 0.000 mm
2020-04-02 20:35:00 10.2°C 48% 0.9 km/h 1.6 km/h 80° 1011.6 hPa 0.000 mm
2020-04-02 20:34:00 10.2°C 48% 1.3 km/h 2.1 km/h 66° 1011.6 hPa 0.000 mm
2020-04-02 20:33:00 10.3°C 48% 1.8 km/h 2.6 km/h 59° 1011.6 hPa 0.000 mm
2020-04-02 20:32:00 10.3°C 48% 2.5 km/h 3.2 km/h 44° 1011.7 hPa 0.000 mm
2020-04-02 20:31:00 10.3°C 48% 2.4 km/h 3.2 km/h 43° 1011.7 hPa 0.000 mm
2020-04-02 20:30:00 10.4°C 48% 2.7 km/h 4.2 km/h 35° 1011.7 hPa 0.000 mm
2020-04-02 20:29:00 10.4°C 47% 2.2 km/h 3.2 km/h 34° 1011.7 hPa 0.000 mm
2020-04-02 20:28:00 10.5°C 47% 2.2 km/h 3.2 km/h 41° 1011.7 hPa 0.000 mm
2020-04-02 20:27:00 10.5°C 47% 2.0 km/h 3.2 km/h 42° 1011.7 hPa 0.000 mm
2020-04-02 20:26:00 10.6°C 47% 2.6 km/h 4.2 km/h 53° 1011.7 hPa 0.000 mm
2020-04-02 20:25:00 10.7°C 47% 1.6 km/h 2.1 km/h 52° 1011.7 hPa 0.000 mm
2020-04-02 20:24:00 10.7°C 47% 1.9 km/h 3.7 km/h 32° 1011.7 hPa 0.000 mm
2020-04-02 20:23:00 10.8°C 47% 1.9 km/h 2.1 km/h 50° 1011.6 hPa 0.000 mm
2020-04-02 20:22:00 10.8°C 47% 2.6 km/h 4.2 km/h 37° 1011.6 hPa 0.000 mm
2020-04-02 20:21:00 10.9°C 47% 3.4 km/h 5.8 km/h 44° 1011.6 hPa 0.000 mm
2020-04-02 20:20:00 10.9°C 47% 3.6 km/h 4.8 km/h 30° 1011.6 hPa 0.000 mm
2020-04-02 20:19:00 11.0°C 46% 2.1 km/h 4.2 km/h 44° 1011.6 hPa 0.000 mm
2020-04-02 20:18:00 11.1°C 46% 2.8 km/h 4.2 km/h 38° 1011.6 hPa 0.000 mm
2020-04-02 20:17:00 11.1°C 46% 3.2 km/h 4.8 km/h 33° 1011.6 hPa 0.000 mm
2020-04-02 20:16:00 11.2°C 46% 2.8 km/h 4.2 km/h 30° 1011.6 hPa 0.000 mm
2020-04-02 20:15:00 11.1°C 46% 3.3 km/h 6.3 km/h 34° 1011.6 hPa 0.000 mm
2020-04-02 20:14:00 11.2°C 46% 2.8 km/h 5.8 km/h 42° 1011.6 hPa 0.000 mm
2020-04-02 20:13:00 11.2°C 46% 4.1 km/h 5.3 km/h 30° 1011.5 hPa 0.000 mm
2020-04-02 20:12:00 11.3°C 46% 3.7 km/h 4.8 km/h 37° 1011.5 hPa 0.000 mm
2020-04-02 20:11:00 11.2°C 46% 2.8 km/h 3.7 km/h 39° 1011.5 hPa 0.000 mm
2020-04-02 20:10:00 11.2°C 46% 3.9 km/h 5.8 km/h 44° 1011.5 hPa 0.000 mm
2020-04-02 20:09:00 11.2°C 45% 3.1 km/h 4.8 km/h 36° 1011.5 hPa 0.000 mm
2020-04-02 20:08:00 11.3°C 45% 2.6 km/h 4.8 km/h 34° 1011.5 hPa 0.000 mm
2020-04-02 20:07:00 11.3°C 45% 3.1 km/h 4.8 km/h 45° 1011.5 hPa 0.000 mm
2020-04-02 20:06:00 11.4°C 45% 2.3 km/h 3.7 km/h 36° 1011.5 hPa 0.000 mm
2020-04-02 20:05:00 11.4°C 45% 2.7 km/h 4.2 km/h 47° 1011.4 hPa 0.000 mm
2020-04-02 20:04:00 11.5°C 45% 3.5 km/h 5.3 km/h 46° 1011.4 hPa 0.000 mm
2020-04-02 20:03:00 11.5°C 45% 2.7 km/h 4.2 km/h 32° 1011.4 hPa 0.000 mm
2020-04-02 20:02:00 11.6°C 45% 3.6 km/h 6.3 km/h 34° 1011.4 hPa 0.000 mm
2020-04-02 20:01:00 11.6°C 45% 2.9 km/h 4.2 km/h 37° 1011.4 hPa 0.000 mm
2020-04-02 20:00:00 11.6°C 45% 3.9 km/h 5.3 km/h 38° 1011.4 hPa 0.000 mm
2020-04-02 19:59:00 11.8°C 44% 4.7 km/h 6.3 km/h 30° 1011.4 hPa 0.000 mm
2020-04-02 19:58:00 11.8°C 44% 3.4 km/h 5.8 km/h 51° 1011.4 hPa 0.000 mm
2020-04-02 19:57:00 11.9°C 44% 4.3 km/h 7.9 km/h 38° 1011.4 hPa 0.000 mm
2020-04-02 19:56:00 11.8°C 44% 5.5 km/h 8.4 km/h 35° 1011.4 hPa 0.000 mm
2020-04-02 19:55:00 11.9°C 44% 5.1 km/h 7.9 km/h 38° 1011.4 hPa 0.000 mm
2020-04-02 19:54:00 11.9°C 44% 4.9 km/h 8.4 km/h 38° 1011.4 hPa 0.000 mm
2020-04-02 19:53:00 12.1°C 44% 4.9 km/h 6.3 km/h 26° 1011.4 hPa 0.000 mm
2020-04-02 19:52:00 12.1°C 44% 3.0 km/h 5.3 km/h 32° 1011.4 hPa 0.000 mm
2020-04-02 19:51:00 12.2°C 44% 3.5 km/h 4.8 km/h 21° 1011.4 hPa 0.000 mm
2020-04-02 19:50:00 12.2°C 44% 3.9 km/h 6.3 km/h 32° 1011.4 hPa 0.000 mm
2020-04-02 19:49:00 12.3°C 44% 2.4 km/h 4.8 km/h 39° 1011.4 hPa 0.000 mm
2020-04-02 19:48:00 12.3°C 44% 2.5 km/h 4.2 km/h 33° 1011.4 hPa 0.000 mm
2020-04-02 19:47:00 12.3°C 44% 1.9 km/h 2.6 km/h 32° 1011.3 hPa 0.000 mm
2020-04-02 19:46:00 12.4°C 44% 2.3 km/h 2.6 km/h 38° 1011.3 hPa 0.000 mm
2020-04-02 19:45:00 12.3°C 44% 2.5 km/h 3.7 km/h 35° 1011.3 hPa 0.000 mm
2020-04-02 19:44:00 12.4°C 44% 2.5 km/h 3.7 km/h 33° 1011.3 hPa 0.000 mm
2020-04-02 19:43:00 12.4°C 44% 3.0 km/h 5.3 km/h 34° 1011.3 hPa 0.000 mm
2020-04-02 19:42:00 12.4°C 44% 2.5 km/h 4.2 km/h 43° 1011.3 hPa 0.000 mm
2020-04-02 19:41:00 12.4°C 44% 3.8 km/h 4.8 km/h 36° 1011.2 hPa 0.000 mm
2020-04-02 19:40:00 12.4°C 44% 2.8 km/h 4.2 km/h 44° 1011.3 hPa 0.000 mm
2020-04-02 19:39:00 12.4°C 44% 2.3 km/h 3.2 km/h 41° 1011.3 hPa 0.000 mm
2020-04-02 19:38:00 12.4°C 44% 3.6 km/h 5.3 km/h 36° 1011.2 hPa 0.000 mm
2020-04-02 19:37:00 12.5°C 44% 4.3 km/h 6.3 km/h 20° 1011.2 hPa 0.000 mm
2020-04-02 19:36:00 12.5°C 44% 3.9 km/h 6.9 km/h 39° 1011.3 hPa 0.000 mm
2020-04-02 19:35:00 12.5°C 44% 5.1 km/h 7.4 km/h 41° 1011.3 hPa 0.000 mm
2020-04-02 19:34:00 12.5°C 43% 4.5 km/h 6.9 km/h 39° 1011.3 hPa 0.000 mm
2020-04-02 19:33:00 12.5°C 43% 3.1 km/h 6.3 km/h 38° 1011.3 hPa 0.000 mm
2020-04-02 19:32:00 12.6°C 43% 2.5 km/h 3.2 km/h 59° 1011.3 hPa 0.000 mm
2020-04-02 19:31:00 12.6°C 43% 2.5 km/h 3.7 km/h 43° 1011.3 hPa 0.000 mm
2020-04-02 19:30:00 12.8°C 43% 3.0 km/h 4.2 km/h 44° 1011.3 hPa 0.000 mm
2020-04-02 19:29:00 12.6°C 43% 4.1 km/h 4.8 km/h 38° 1011.3 hPa 0.000 mm
2020-04-02 19:28:00 12.6°C 43% 3.7 km/h 6.3 km/h 33° 1011.2 hPa 0.000 mm
2020-04-02 19:27:00 12.6°C 43% 4.2 km/h 5.8 km/h 36° 1011.2 hPa 0.000 mm
2020-04-02 19:26:00 12.7°C 43% 3.5 km/h 5.3 km/h 33° 1011.2 hPa 0.000 mm
2020-04-02 19:25:00 12.8°C 43% 3.1 km/h 5.3 km/h 36° 1011.2 hPa 0.000 mm
2020-04-02 19:24:00 12.8°C 43% 1.4 km/h 1.6 km/h 36° 1011.2 hPa 0.000 mm
2020-04-02 19:23:00 12.8°C 43% 2.0 km/h 2.6 km/h 39° 1011.2 hPa 0.000 mm
2020-04-02 19:22:00 12.8°C 43% 3.2 km/h 4.2 km/h 30° 1011.2 hPa 0.000 mm
2020-04-02 19:21:00 12.9°C 43% 4.8 km/h 6.3 km/h 19° 1011.1 hPa 0.000 mm
2020-04-02 19:20:00 12.9°C 43% 3.9 km/h 5.3 km/h 39° 1011.1 hPa 0.000 mm
2020-04-02 19:19:00 12.9°C 42% 4.5 km/h 7.4 km/h 27° 1011.1 hPa 0.000 mm
2020-04-02 19:18:00 13.0°C 42% 3.5 km/h 4.8 km/h 24° 1011.1 hPa 0.000 mm
2020-04-02 19:17:00 13.0°C 42% 3.1 km/h 4.8 km/h 38° 1011.1 hPa 0.000 mm
2020-04-02 19:16:00 13.1°C 42% 2.2 km/h 3.7 km/h 34° 1011.2 hPa 0.000 mm
2020-04-02 19:15:00 13.1°C 42% 3.4 km/h 6.9 km/h 63° 1011.1 hPa 0.000 mm
2020-04-02 19:14:00 13.1°C 42% 2.8 km/h 4.2 km/h 23° 1011.1 hPa 0.000 mm
2020-04-02 19:13:00 13.2°C 42% 6.2 km/h 9.0 km/h 28° 1011.1 hPa 0.000 mm
2020-04-02 19:12:00 13.0°C 42% 5.3 km/h 8.4 km/h 29° 1011.1 hPa 0.000 mm
2020-04-02 19:11:00 13.2°C 42% 2.9 km/h 4.8 km/h 36° 1011.1 hPa 0.000 mm
2020-04-02 19:10:00 13.2°C 42% 2.3 km/h 3.7 km/h 55° 1011.1 hPa 0.000 mm
2020-04-02 19:09:00 13.2°C 42% 2.5 km/h 3.7 km/h 25° 1011.1 hPa 0.000 mm
2020-04-02 19:08:00 13.2°C 42% 3.8 km/h 5.8 km/h 50° 1011.1 hPa 0.000 mm
2020-04-02 19:07:00 13.2°C 42% 2.6 km/h 4.2 km/h 37° 1011.2 hPa 0.000 mm
2020-04-02 19:06:00 13.2°C 42% 3.3 km/h 5.3 km/h 55° 1011.2 hPa 0.000 mm
2020-04-02 19:05:00 13.2°C 42% 3.2 km/h 4.2 km/h 56° 1011.2 hPa 0.000 mm
2020-04-02 19:04:00 13.2°C 42% 2.5 km/h 4.8 km/h 36° 1011.2 hPa 0.000 mm
2020-04-02 19:03:00 13.3°C 42% 2.1 km/h 4.2 km/h 39° 1011.2 hPa 0.000 mm
2020-04-02 19:02:00 13.3°C 42% 4.1 km/h 5.8 km/h 34° 1011.2 hPa 0.000 mm
2020-04-02 19:01:00 13.3°C 42% 3.9 km/h 6.3 km/h 24° 1011.2 hPa 0.000 mm
2020-04-02 19:00:00 13.2°C 42% 4.8 km/h 6.3 km/h 27° 1011.2 hPa 0.000 mm
2020-04-02 18:59:00 13.3°C 41% 4.1 km/h 5.8 km/h 28° 1011.2 hPa 0.000 mm
2020-04-02 18:58:00 13.3°C 41% 4.9 km/h 8.4 km/h 42° 1011.2 hPa 0.000 mm
2020-04-02 18:57:00 13.3°C 41% 4.2 km/h 7.9 km/h 32° 1011.2 hPa 0.000 mm
2020-04-02 18:56:00 13.4°C 41% 5.4 km/h 7.9 km/h 23° 1011.2 hPa 0.000 mm
2020-04-02 18:55:00 13.4°C 41% 5.0 km/h 8.4 km/h 38° 1011.2 hPa 0.000 mm
2020-04-02 18:54:00 13.4°C 41% 4.8 km/h 7.4 km/h 18° 1011.2 hPa 0.000 mm
2020-04-02 18:53:00 13.3°C 41% 3.6 km/h 4.8 km/h 60° 1011.2 hPa 0.000 mm
2020-04-02 18:52:00 13.5°C 41% 4.6 km/h 6.9 km/h 28° 1011.2 hPa 0.000 mm
2020-04-02 18:51:00 13.5°C 41% 4.9 km/h 6.3 km/h 17° 1011.2 hPa 0.000 mm
2020-04-02 18:50:00 13.5°C 41% 2.9 km/h 4.8 km/h 37° 1011.2 hPa 0.000 mm
2020-04-02 18:49:00 13.6°C 41% 3.0 km/h 4.2 km/h 34° 1011.2 hPa 0.000 mm
2020-04-02 18:48:00 13.5°C 41% 6.3 km/h 9.0 km/h 21° 1011.2 hPa 0.000 mm
2020-04-02 18:47:00 13.6°C 41% 3.6 km/h 5.8 km/h 33° 1011.2 hPa 0.000 mm
2020-04-02 18:46:00 13.6°C 41% 5.5 km/h 7.4 km/h 51° 1011.2 hPa 0.000 mm
2020-04-02 18:45:00 13.6°C 41% 5.0 km/h 7.4 km/h 26° 1011.2 hPa 0.000 mm
2020-04-02 18:44:00 13.6°C 41% 5.2 km/h 6.9 km/h 18° 1011.2 hPa 0.000 mm
2020-04-02 18:43:00 13.5°C 41% 5.4 km/h 6.9 km/h 21° 1011.2 hPa 0.000 mm
2020-04-02 18:42:00 13.7°C 41% 5.0 km/h 6.3 km/h 29° 1011.1 hPa 0.000 mm
2020-04-02 18:41:00 13.6°C 41% 2.2 km/h 3.7 km/h 177° 1011.1 hPa 0.000 mm
2020-04-02 18:40:00 13.7°C 41% 2.1 km/h 3.7 km/h 34° 1011.1 hPa 0.000 mm
2020-04-02 18:39:00 13.6°C 41% 2.0 km/h 3.7 km/h 44° 1011.1 hPa 0.000 mm
2020-04-02 18:38:00 13.6°C 41% 1.9 km/h 4.2 km/h 47° 1011.1 hPa 0.000 mm
2020-04-02 18:37:00 13.6°C 41% 1.2 km/h 2.1 km/h 110° 1011.1 hPa 0.000 mm
2020-04-02 18:36:00 13.5°C 41% 1.9 km/h 2.6 km/h 62° 1011.1 hPa 0.000 mm
2020-04-02 18:35:00 13.5°C 41% 2.0 km/h 2.6 km/h 37° 1011.1 hPa 0.000 mm
2020-04-02 18:34:00 13.6°C 41% 3.1 km/h 4.2 km/h 35° 1011.2 hPa 0.000 mm
2020-04-02 18:33:00 13.7°C 41% 2.7 km/h 4.2 km/h 44° 1011.2 hPa 0.000 mm
2020-04-02 18:32:00 13.3°C 41% 2.6 km/h 3.7 km/h 39° 1011.2 hPa 0.000 mm
2020-04-02 18:31:00 13.6°C 41% 4.1 km/h 6.9 km/h 20° 1011.1 hPa 0.000 mm
2020-04-02 18:30:00 13.6°C 41% 3.8 km/h 5.8 km/h 25° 1011.2 hPa 0.000 mm
2020-04-02 18:29:00 13.6°C 40% 3.9 km/h 6.3 km/h 27° 1011.2 hPa 0.000 mm
2020-04-02 18:28:00 13.6°C 40% 3.3 km/h 5.3 km/h 42° 1011.2 hPa 0.000 mm
2020-04-02 18:27:00 13.6°C 40% 5.2 km/h 7.9 km/h 39° 1011.2 hPa 0.000 mm
2020-04-02 18:26:00 13.7°C 40% 6.8 km/h 9.0 km/h 14° 1011.2 hPa 0.000 mm
2020-04-02 18:25:00 13.7°C 40% 6.5 km/h 9.5 km/h 19° 1011.2 hPa 0.000 mm
2020-04-02 18:24:00 13.8°C 40% 5.2 km/h 7.9 km/h 36° 1011.1 hPa 0.000 mm
2020-04-02 18:23:00 13.9°C 40% 6.4 km/h 9.5 km/h 26° 1011.1 hPa 0.000 mm
2020-04-02 18:22:00 13.9°C 40% 4.8 km/h 6.3 km/h 24° 1011.1 hPa 0.000 mm
2020-04-02 18:21:00 13.9°C 40% 3.6 km/h 6.9 km/h 51° 1011.1 hPa 0.000 mm
2020-04-02 18:20:00 13.8°C 40% 4.2 km/h 5.8 km/h 24° 1011.2 hPa 0.000 mm
2020-04-02 18:19:00 13.7°C 40% 3.2 km/h 4.8 km/h 72° 1011.2 hPa 0.000 mm
2020-04-02 18:18:00 13.9°C 40% 3.7 km/h 6.3 km/h 54° 1011.2 hPa 0.000 mm
2020-04-02 18:17:00 14.0°C 40% 4.5 km/h 6.9 km/h 34° 1011.2 hPa 0.000 mm
2020-04-02 18:16:00 14.0°C 40% 3.6 km/h 4.8 km/h 47° 1011.2 hPa 0.000 mm
2020-04-02 18:15:00 13.8°C 40% 4.5 km/h 6.3 km/h 127° 1011.2 hPa 0.000 mm
2020-04-02 18:14:00 13.8°C 40% 3.9 km/h 5.8 km/h 161° 1011.2 hPa 0.000 mm
2020-04-02 18:13:00 13.7°C 40% 3.6 km/h 5.3 km/h 116° 1011.2 hPa 0.000 mm
2020-04-02 18:12:00 13.7°C 40% 5.5 km/h 7.4 km/h 30° 1011.2 hPa 0.000 mm
2020-04-02 18:11:00 13.7°C 40% 5.5 km/h 8.4 km/h 17° 1011.2 hPa 0.000 mm
2020-04-02 18:10:00 13.7°C 40% 5.5 km/h 8.4 km/h 23° 1011.2 hPa 0.000 mm
2020-04-02 18:09:00 13.8°C 40% 6.6 km/h 10.6 km/h 45° 1011.2 hPa 0.000 mm
2020-04-02 18:08:00 14.0°C 40% 6.4 km/h 8.4 km/h 96° 1011.1 hPa 0.000 mm
2020-04-02 18:07:00 14.1°C 40% 6.6 km/h 8.4 km/h 83° 1011.1 hPa 0.000 mm
2020-04-02 18:06:00 14.0°C 40% 4.2 km/h 5.8 km/h 127° 1011.1 hPa 0.000 mm
2020-04-02 18:05:00 14.1°C 40% 4.5 km/h 5.3 km/h 275° 1011.2 hPa 0.000 mm
2020-04-02 18:04:00 13.8°C 40% 4.5 km/h 6.9 km/h 110° 1011.2 hPa 0.000 mm
2020-04-02 18:03:00 13.8°C 40% 3.6 km/h 5.8 km/h 116° 1011.2 hPa 0.000 mm
2020-04-02 18:02:00 13.8°C 40% 3.7 km/h 5.8 km/h 20° 1011.2 hPa 0.000 mm
2020-04-02 18:01:00 13.7°C 40% 3.0 km/h 4.2 km/h 44° 1011.2 hPa 0.000 mm
2020-04-02 18:00:00 14.0°C 40% 4.0 km/h 5.8 km/h 43° 1011.2 hPa 0.000 mm
2020-04-02 17:59:00 13.9°C 40% 2.6 km/h 3.7 km/h 21° 1011.2 hPa 0.000 mm
2020-04-02 17:58:00 14.0°C 40% 2.1 km/h 3.7 km/h 170° 1011.2 hPa 0.000 mm
2020-04-02 17:57:00 14.0°C 40% 2.9 km/h 5.3 km/h 159° 1011.2 hPa 0.000 mm
2020-04-02 17:56:00 13.9°C 40% 4.4 km/h 5.8 km/h 100° 1011.2 hPa 0.000 mm
2020-04-02 17:55:00 13.8°C 40% 3.8 km/h 6.3 km/h 64° 1011.2 hPa 0.000 mm
2020-04-02 17:54:00 13.9°C 40% 5.8 km/h 7.9 km/h 83° 1011.2 hPa 0.000 mm
2020-04-02 17:53:00 13.8°C 40% 6.4 km/h 9.0 km/h 43° 1011.2 hPa 0.000 mm
2020-04-02 17:52:00 13.8°C 40% 6.0 km/h 9.5 km/h 17° 1011.1 hPa 0.000 mm
2020-04-02 17:51:00 13.8°C 40% 5.7 km/h 8.4 km/h 21° 1011.2 hPa 0.000 mm
2020-04-02 17:50:00 13.9°C 40% 7.7 km/h 9.5 km/h 17° 1011.2 hPa 0.000 mm
2020-04-02 17:49:00 14.3°C 40% 6.8 km/h 9.0 km/h 16° 1011.2 hPa 0.000 mm
2020-04-02 17:48:00 14.2°C 40% 4.3 km/h 6.3 km/h 101° 1011.2 hPa 0.000 mm
2020-04-02 17:47:00 14.2°C 40% 4.7 km/h 6.3 km/h 114° 1011.2 hPa 0.000 mm
2020-04-02 17:46:00 14.4°C 40% 5.6 km/h 6.9 km/h 50° 1011.1 hPa 0.000 mm
2020-04-02 17:45:00 14.1°C 40% 5.2 km/h 6.9 km/h 226° 1011.1 hPa 0.000 mm
2020-04-02 17:44:00 14.2°C 40% 4.8 km/h 6.3 km/h 178° 1011.2 hPa 0.000 mm
2020-04-02 17:43:00 14.3°C 40% 4.6 km/h 6.9 km/h 115° 1011.1 hPa 0.000 mm
2020-04-02 17:42:00 14.4°C 40% 6.0 km/h 8.4 km/h 162° 1011.2 hPa 0.000 mm
2020-04-02 17:41:00 14.5°C 40% 9.4 km/h 13.2 km/h 241° 1011.1 hPa 0.000 mm
2020-04-02 17:40:00 14.5°C 40% 5.3 km/h 7.9 km/h 190° 1011.2 hPa 0.000 mm
2020-04-02 17:39:00 14.6°C 36% 4.2 km/h 5.3 km/h 239° 1011.2 hPa 0.000 mm
2020-04-02 17:38:00 14.4°C 36% 4.8 km/h 5.8 km/h 206° 1011.2 hPa 0.000 mm
2020-04-02 17:37:00 14.2°C 36% 5.5 km/h 7.4 km/h 177° 1011.2 hPa 0.000 mm
2020-04-02 17:36:00 14.3°C 36% 4.8 km/h 5.8 km/h 192° 1011.2 hPa 0.000 mm
2020-04-02 17:35:00 14.2°C 36% 5.1 km/h 6.3 km/h 234° 1011.2 hPa 0.000 mm
2020-04-02 17:34:00 14.3°C 36% 5.4 km/h 7.4 km/h 286° 1011.2 hPa 0.000 mm
2020-04-02 17:33:00 14.5°C 36% 5.3 km/h 7.4 km/h 208° 1011.2 hPa 0.000 mm
2020-04-02 17:32:00 14.6°C 36% 5.7 km/h 6.9 km/h 230° 1011.2 hPa 0.000 mm
2020-04-02 17:31:00 14.4°C 36% 5.2 km/h 8.4 km/h 217° 1011.1 hPa 0.000 mm
2020-04-02 17:30:00 14.5°C 36% 6.4 km/h 7.4 km/h 272° 1011.1 hPa 0.000 mm
2020-04-02 17:29:00 14.5°C 36% 6.7 km/h 8.4 km/h 243° 1011.2 hPa 0.000 mm
2020-04-02 17:28:00 14.5°C 36% 3.4 km/h 4.8 km/h 111° 1011.2 hPa 0.000 mm
2020-04-02 17:27:00 14.2°C 36% 5.0 km/h 7.9 km/h 215° 1011.2 hPa 0.000 mm
2020-04-02 17:26:00 14.2°C 36% 3.9 km/h 6.9 km/h 189° 1011.2 hPa 0.000 mm
2020-04-02 17:25:00 14.1°C 36% 4.6 km/h 7.9 km/h 214° 1011.2 hPa 0.000 mm
2020-04-02 17:24:00 14.1°C 36% 7.1 km/h 8.4 km/h 192° 1011.2 hPa 0.000 mm
2020-04-02 17:23:00 14.1°C 36% 4.6 km/h 6.9 km/h 65° 1011.2 hPa 0.000 mm
2020-04-02 17:22:00 14.2°C 36% 4.1 km/h 5.8 km/h 209° 1011.2 hPa 0.000 mm
2020-04-02 17:21:00 14.3°C 36% 5.9 km/h 7.4 km/h 146° 1011.2 hPa 0.000 mm
2020-04-02 17:20:00 14.2°C 36% 5.2 km/h 7.4 km/h 100° 1011.2 hPa 0.000 mm
2020-04-02 17:19:00 13.9°C 36% 6.0 km/h 7.9 km/h 196° 1011.2 hPa 0.000 mm
2020-04-02 17:18:00 14.0°C 36% 6.8 km/h 10.6 km/h 64° 1011.3 hPa 0.000 mm
2020-04-02 17:17:00 14.0°C 36% 4.2 km/h 6.3 km/h 18° 1011.3 hPa 0.000 mm
2020-04-02 17:16:00 14.0°C 36% 3.5 km/h 6.9 km/h 104° 1011.3 hPa 0.000 mm
2020-04-02 17:15:00 14.1°C 36% 7.5 km/h 10.6 km/h 37° 1011.3 hPa 0.000 mm
2020-04-02 17:14:00 14.2°C 36% 6.9 km/h 10.0 km/h 147° 1011.3 hPa 0.000 mm
2020-04-02 17:13:00 14.3°C 36% 6.7 km/h 9.0 km/h 86° 1011.3 hPa 0.000 mm
2020-04-02 17:12:00 14.2°C 36% 8.8 km/h 10.6 km/h 225° 1011.3 hPa 0.000 mm
2020-04-02 17:11:00 14.2°C 36% 5.7 km/h 6.9 km/h 255° 1011.3 hPa 0.000 mm
2020-04-02 17:10:00 14.2°C 36% 4.3 km/h 6.3 km/h 87° 1011.3 hPa 0.000 mm
2020-04-02 17:09:00 14.0°C 36% 2.2 km/h 3.7 km/h 17° 1011.3 hPa 0.000 mm
2020-04-02 17:08:00 14.0°C 36% 1.6 km/h 2.1 km/h 119° 1011.3 hPa 0.000 mm
2020-04-02 17:07:00 14.4°C 36% 2.5 km/h 3.7 km/h 37° 1011.3 hPa 0.000 mm
2020-04-02 17:06:00 13.8°C 36% 1.2 km/h 2.1 km/h 91° 1011.3 hPa 0.000 mm
2020-04-02 17:05:00 13.8°C 36% 3.3 km/h 5.3 km/h 102° 1011.4 hPa 0.000 mm
2020-04-02 17:04:00 13.7°C 36% 7.0 km/h 10.0 km/h 42° 1011.4 hPa 0.000 mm
2020-04-02 17:03:00 13.8°C 36% 8.4 km/h 12.7 km/h 45° 1011.4 hPa 0.000 mm
2020-04-02 17:02:00 13.7°C 36% 6.5 km/h 11.6 km/h 43° 1011.4 hPa 0.000 mm
2020-04-02 17:01:00 13.6°C 36% 4.2 km/h 7.4 km/h 43° 1011.4 hPa 0.000 mm
2020-04-02 17:00:00 13.5°C 36% 3.2 km/h 3.7 km/h 43° 1011.4 hPa 0.000 mm
2020-04-02 16:59:00 13.4°C 36% 3.6 km/h 4.8 km/h 35° 1011.4 hPa 0.000 mm
2020-04-02 16:58:00 13.4°C 36% 3.3 km/h 5.3 km/h 36° 1011.5 hPa 0.000 mm
2020-04-02 16:57:00 13.3°C 36% 4.2 km/h 5.8 km/h 42° 1011.5 hPa 0.000 mm
2020-04-02 16:56:00 13.3°C 36% 5.7 km/h 7.9 km/h 41° 1011.5 hPa 0.000 mm
2020-04-02 16:55:00 13.4°C 36% 4.6 km/h 7.4 km/h 41° 1011.4 hPa 0.000 mm
2020-04-02 16:54:00 13.5°C 36% 3.9 km/h 6.9 km/h 37° 1011.4 hPa 0.000 mm
2020-04-02 16:53:00 13.7°C 36% 4.6 km/h 6.9 km/h 1011.5 hPa 0.000 mm
2020-04-02 16:52:00 13.5°C 36% 5.3 km/h 9.0 km/h 27° 1011.4 hPa 0.000 mm
2020-04-02 16:51:00 13.5°C 36% 3.4 km/h 5.3 km/h 93° 1011.4 hPa 0.000 mm
2020-04-02 16:50:00 13.5°C 36% 3.2 km/h 5.3 km/h 20° 1011.4 hPa 0.000 mm
2020-04-02 16:49:00 13.9°C 36% 4.6 km/h 6.3 km/h 52° 1011.4 hPa 0.000 mm
2020-04-02 16:48:00 14.2°C 36% 6.0 km/h 8.4 km/h 50° 1011.4 hPa 0.000 mm
2020-04-02 16:47:00 14.0°C 36% 5.2 km/h 7.4 km/h 252° 1011.4 hPa 0.000 mm
2020-04-02 16:46:00 14.1°C 36% 6.9 km/h 10.0 km/h 207° 1011.4 hPa 0.000 mm
2020-04-02 16:45:00 14.3°C 36% 7.7 km/h 11.1 km/h 114° 1011.4 hPa 0.000 mm
2020-04-02 16:44:00 13.9°C 36% 6.6 km/h 9.5 km/h 234° 1011.4 hPa 0.000 mm
2020-04-02 16:43:00 13.9°C 36% 9.0 km/h 13.2 km/h 100° 1011.4 hPa 0.000 mm
2020-04-02 16:42:00 14.2°C 36% 4.9 km/h 10.0 km/h 86° 1011.4 hPa 0.000 mm
2020-04-02 16:41:00 14.3°C 36% 5.3 km/h 8.4 km/h 149° 1011.4 hPa 0.000 mm
2020-04-02 16:40:00 14.1°C 36% 5.5 km/h 8.4 km/h 36° 1011.4 hPa 0.000 mm
2020-04-02 16:39:00 14.3°C 37% 4.8 km/h 7.9 km/h 82° 1011.4 hPa 0.000 mm
2020-04-02 16:38:00 14.6°C 37% 7.6 km/h 9.5 km/h 165° 1011.4 hPa 0.000 mm
2020-04-02 16:37:00 14.5°C 37% 3.2 km/h 4.8 km/h 177° 1011.4 hPa 0.000 mm
2020-04-02 16:36:00 14.2°C 37% 4.8 km/h 6.9 km/h 189° 1011.4 hPa 0.000 mm
2020-04-02 16:35:00 14.1°C 37% 6.7 km/h 9.0 km/h 128° 1011.5 hPa 0.000 mm
2020-04-02 16:34:00 13.7°C 37% 6.2 km/h 7.9 km/h 70° 1011.5 hPa 0.000 mm
2020-04-02 16:33:00 13.8°C 37% 6.1 km/h 8.4 km/h 71° 1011.5 hPa 0.000 mm
2020-04-02 16:32:00 14.1°C 37% 6.8 km/h 9.5 km/h 17° 1011.5 hPa 0.000 mm
2020-04-02 16:31:00 14.4°C 37% 5.9 km/h 9.0 km/h 30° 1011.5 hPa 0.000 mm
2020-04-02 16:30:00 14.5°C 37% 4.6 km/h 6.9 km/h 24° 1011.5 hPa 0.000 mm
2020-04-02 16:29:00 14.5°C 37% 6.4 km/h 11.1 km/h 190° 1011.5 hPa 0.000 mm
2020-04-02 16:28:00 14.3°C 37% 5.9 km/h 7.9 km/h 147° 1011.5 hPa 0.000 mm
2020-04-02 16:27:00 14.0°C 37% 5.4 km/h 7.4 km/h 20° 1011.5 hPa 0.000 mm
2020-04-02 16:26:00 14.3°C 37% 6.2 km/h 9.5 km/h 10° 1011.5 hPa 0.000 mm
2020-04-02 16:25:00 14.2°C 37% 7.7 km/h 11.1 km/h 107° 1011.5 hPa 0.000 mm
2020-04-02 16:24:00 14.2°C 37% 6.3 km/h 10.6 km/h 179° 1011.5 hPa 0.000 mm
2020-04-02 16:23:00 14.1°C 37% 8.1 km/h 11.1 km/h 128° 1011.5 hPa 0.000 mm
2020-04-02 16:22:00 14.0°C 37% 6.9 km/h 11.6 km/h 147° 1011.5 hPa 0.000 mm
2020-04-02 16:21:00 13.7°C 37% 7.3 km/h 10.0 km/h 147° 1011.5 hPa 0.000 mm
2020-04-02 16:20:00 13.6°C 37% 4.4 km/h 7.4 km/h 87° 1011.5 hPa 0.000 mm
2020-04-02 16:19:00 13.9°C 37% 3.4 km/h 4.8 km/h 77° 1011.5 hPa 0.000 mm
2020-04-02 16:18:00 14.3°C 37% 5.8 km/h 9.0 km/h 26° 1011.5 hPa 0.000 mm
2020-04-02 16:17:00 14.0°C 37% 4.0 km/h 6.3 km/h 88° 1011.5 hPa 0.000 mm
2020-04-02 16:16:00 13.8°C 37% 3.8 km/h 6.3 km/h 225° 1011.5 hPa 0.000 mm
2020-04-02 16:15:00 14.2°C 37% 6.3 km/h 7.4 km/h 217° 1011.5 hPa 0.000 mm
2020-04-02 16:14:00 13.9°C 37% 5.3 km/h 6.9 km/h 239° 1011.5 hPa 0.000 mm
2020-04-02 16:13:00 13.9°C 37% 4.8 km/h 7.4 km/h 233° 1011.6 hPa 0.000 mm
2020-04-02 16:12:00 14.1°C 37% 7.2 km/h 8.4 km/h 243° 1011.5 hPa 0.000 mm
2020-04-02 16:11:00 14.1°C 37% 6.5 km/h 9.0 km/h 230° 1011.6 hPa 0.000 mm
2020-04-02 16:10:00 14.2°C 37% 6.0 km/h 6.9 km/h 260° 1011.6 hPa 0.000 mm
2020-04-02 16:09:00 13.7°C 38% 6.2 km/h 7.9 km/h 233° 1011.6 hPa 0.000 mm
2020-04-02 16:08:00 13.5°C 38% 1.8 km/h 4.8 km/h 176° 1011.6 hPa 0.000 mm
2020-04-02 16:07:00 13.4°C 38% 2.9 km/h 3.7 km/h 56° 1011.6 hPa 0.000 mm
2020-04-02 16:06:00 13.6°C 38% 5.4 km/h 6.9 km/h 55° 1011.6 hPa 0.000 mm
2020-04-02 16:05:00 13.7°C 38% 5.1 km/h 7.9 km/h 131° 1011.6 hPa 0.000 mm
2020-04-02 16:04:00 13.5°C 38% 4.0 km/h 5.8 km/h 172° 1011.6 hPa 0.000 mm
2020-04-02 16:03:00 13.4°C 38% 3.8 km/h 4.8 km/h 266° 1011.6 hPa 0.000 mm
2020-04-02 16:02:00 13.5°C 38% 5.7 km/h 7.9 km/h 258° 1011.6 hPa 0.000 mm
2020-04-02 16:01:00 13.9°C 38% 5.8 km/h 7.9 km/h 181° 1011.6 hPa 0.000 mm
2020-04-02 16:00:00 14.0°C 38% 4.2 km/h 6.3 km/h 243° 1011.6 hPa 0.000 mm
2020-04-02 15:59:00 14.1°C 38% 5.8 km/h 8.4 km/h 260° 1011.6 hPa 0.000 mm
2020-04-02 15:58:00 13.7°C 38% 6.1 km/h 9.0 km/h 172° 1011.6 hPa 0.000 mm
2020-04-02 15:57:00 13.6°C 38% 7.0 km/h 9.0 km/h 113° 1011.7 hPa 0.000 mm
2020-04-02 15:56:00 13.4°C 38% 7.3 km/h 9.5 km/h 237° 1011.6 hPa 0.000 mm
2020-04-02 15:55:00 13.4°C 38% 6.3 km/h 9.0 km/h 149° 1011.6 hPa 0.000 mm
2020-04-02 15:54:00 13.3°C 39% 7.4 km/h 9.5 km/h 145° 1011.7 hPa 0.000 mm
2020-04-02 15:53:00 13.3°C 39% 5.2 km/h 6.9 km/h 208° 1011.7 hPa 0.000 mm
2020-04-02 15:52:00 13.3°C 39% 6.2 km/h 7.9 km/h 111° 1011.7 hPa 0.000 mm
2020-04-02 15:51:00 13.2°C 39% 3.9 km/h 5.3 km/h 37° 1011.7 hPa 0.000 mm
2020-04-02 15:50:00 13.2°C 39% 5.5 km/h 7.4 km/h 27° 1011.7 hPa 0.000 mm
2020-04-02 15:49:00 13.6°C 39% 5.4 km/h 7.9 km/h 16° 1011.7 hPa 0.000 mm
2020-04-02 15:48:00 13.7°C 39% 4.0 km/h 7.9 km/h 34° 1011.7 hPa 0.000 mm
2020-04-02 15:47:00 13.7°C 39% 4.6 km/h 6.3 km/h 47° 1011.7 hPa 0.000 mm
2020-04-02 15:46:00 13.7°C 39% 4.0 km/h 6.3 km/h 45° 1011.6 hPa 0.000 mm
2020-04-02 15:45:00 14.0°C 39% 3.1 km/h 4.8 km/h 34° 1011.6 hPa 0.000 mm
2020-04-02 15:44:00 14.1°C 39% 2.0 km/h 4.2 km/h 65° 1011.6 hPa 0.000 mm
2020-04-02 15:43:00 14.2°C 39% 0.7 km/h 1.6 km/h 90° 1011.6 hPa 0.000 mm
2020-04-02 15:42:00 14.2°C 39% 0.3 km/h 1.1 km/h 79° 1011.6 hPa 0.000 mm
2020-04-02 15:41:00 14.7°C 39% 1.0 km/h 2.1 km/h 78° 1011.6 hPa 0.000 mm
2020-04-02 15:40:00 14.4°C 39% 2.9 km/h 3.7 km/h 208° 1011.7 hPa 0.000 mm
2020-04-02 15:39:00 14.3°C 40% 4.7 km/h 6.3 km/h 190° 1011.7 hPa 0.000 mm
2020-04-02 15:38:00 13.9°C 40% 6.1 km/h 7.4 km/h 159° 1011.7 hPa 0.000 mm
2020-04-02 15:37:00 13.7°C 40% 5.8 km/h 7.9 km/h 177° 1011.7 hPa 0.000 mm
2020-04-02 15:36:00 13.3°C 40% 8.6 km/h 12.7 km/h 222° 1011.7 hPa 0.000 mm
2020-04-02 15:35:00 12.9°C 40% 3.7 km/h 5.3 km/h 176° 1011.7 hPa 0.000 mm
2020-04-02 15:34:00 13.0°C 40% 2.2 km/h 3.7 km/h 163° 1011.7 hPa 0.000 mm
2020-04-02 15:33:00 13.0°C 40% 1.7 km/h 2.6 km/h 34° 1011.7 hPa 0.000 mm
2020-04-02 15:32:00 12.9°C 40% 3.1 km/h 4.2 km/h 66° 1011.8 hPa 0.000 mm
2020-04-02 15:31:00 13.2°C 40% 2.4 km/h 3.7 km/h 100° 1011.7 hPa 0.000 mm
2020-04-02 15:30:00 13.0°C 40% 2.2 km/h 3.2 km/h 33° 1011.8 hPa 0.000 mm
2020-04-02 15:29:00 12.8°C 40% 2.2 km/h 3.7 km/h 80° 1011.8 hPa 0.000 mm
2020-04-02 15:28:00 13.4°C 40% 3.4 km/h 4.8 km/h 54° 1011.8 hPa 0.000 mm
2020-04-02 15:27:00 13.5°C 40% 4.1 km/h 5.3 km/h 39° 1011.8 hPa 0.000 mm
2020-04-02 15:26:00 13.6°C 40% 2.0 km/h 3.7 km/h 251° 1011.8 hPa 0.000 mm
2020-04-02 15:25:00 13.7°C 40% 2.6 km/h 4.2 km/h 266° 1011.8 hPa 0.000 mm
2020-04-02 15:24:00 13.9°C 41% 5.7 km/h 7.4 km/h 236° 1011.8 hPa 0.000 mm
2020-04-02 15:23:00 14.0°C 41% 6.6 km/h 10.6 km/h 209° 1011.8 hPa 0.000 mm
2020-04-02 15:22:00 13.7°C 41% 4.9 km/h 6.3 km/h 128° 1011.8 hPa 0.000 mm
2020-04-02 15:21:00 13.9°C 41% 6.7 km/h 11.1 km/h 147° 1011.8 hPa 0.000 mm
2020-04-02 15:20:00 13.8°C 41% 6.5 km/h 12.7 km/h 129° 1011.8 hPa 0.000 mm
2020-04-02 15:19:00 14.0°C 41% 6.3 km/h 8.4 km/h 187° 1011.8 hPa 0.000 mm
2020-04-02 15:18:00 13.6°C 41% 4.3 km/h 6.9 km/h 92° 1011.8 hPa 0.000 mm
2020-04-02 15:17:00 13.8°C 41% 5.1 km/h 6.9 km/h 114° 1011.8 hPa 0.000 mm
2020-04-02 15:16:00 13.7°C 41% 7.3 km/h 12.1 km/h 100° 1011.8 hPa 0.000 mm
2020-04-02 15:15:00 14.1°C 41% 9.7 km/h 11.6 km/h 114° 1011.7 hPa 0.000 mm
2020-04-02 15:14:00 14.0°C 42% 9.3 km/h 13.2 km/h 186° 1011.7 hPa 0.000 mm
2020-04-02 15:13:00 13.7°C 42% 8.2 km/h 11.1 km/h 100° 1011.7 hPa 0.000 mm
2020-04-02 15:12:00 13.4°C 42% 4.4 km/h 5.8 km/h 113° 1011.7 hPa 0.000 mm
2020-04-02 15:11:00 13.5°C 42% 5.7 km/h 7.9 km/h 24° 1011.8 hPa 0.000 mm
2020-04-02 15:10:00 13.5°C 42% 5.3 km/h 9.0 km/h 27° 1011.8 hPa 0.000 mm
2020-04-02 15:09:00 13.9°C 42% 7.9 km/h 11.1 km/h 54° 1011.7 hPa 0.000 mm
2020-04-02 15:08:00 14.4°C 42% 5.5 km/h 9.0 km/h 39° 1011.7 hPa 0.000 mm
2020-04-02 15:07:00 14.5°C 42% 7.0 km/h 10.6 km/h 251° 1011.7 hPa 0.000 mm
2020-04-02 15:06:00 14.1°C 42% 5.9 km/h 6.9 km/h 173° 1011.7 hPa 0.000 mm
2020-04-02 15:05:00 14.0°C 42% 6.1 km/h 8.4 km/h 253° 1011.7 hPa 0.000 mm
2020-04-02 15:04:00 13.7°C 43% 7.6 km/h 10.6 km/h 173° 1011.8 hPa 0.000 mm
2020-04-02 15:03:00 13.7°C 43% 4.0 km/h 10.6 km/h 161° 1011.8 hPa 0.000 mm
2020-04-02 15:02:00 13.3°C 43% 1.6 km/h 3.7 km/h 53° 1011.8 hPa 0.000 mm
2020-04-02 15:01:00 13.6°C 43% 2.1 km/h 3.2 km/h 62° 1011.8 hPa 0.000 mm
2020-04-02 15:00:00 13.8°C 43% 4.2 km/h 6.3 km/h 48° 1011.8 hPa 0.000 mm
2020-04-02 14:59:00 13.9°C 43% 3.1 km/h 4.8 km/h 169° 1011.8 hPa 0.000 mm
2020-04-02 14:58:00 14.0°C 43% 3.6 km/h 4.8 km/h 216° 1011.9 hPa 0.000 mm
2020-04-02 14:57:00 13.9°C 43% 4.7 km/h 6.3 km/h 132° 1011.9 hPa 0.000 mm
2020-04-02 14:56:00 14.3°C 43% 7.7 km/h 9.5 km/h 206° 1011.9 hPa 0.000 mm
2020-04-02 14:55:00 14.3°C 43% 6.9 km/h 9.5 km/h 222° 1011.9 hPa 0.000 mm
2020-04-02 14:54:00 14.3°C 44% 3.6 km/h 6.9 km/h 78° 1011.9 hPa 0.000 mm
2020-04-02 14:53:00 14.3°C 44% 3.0 km/h 4.8 km/h 43° 1011.9 hPa 0.000 mm
2020-04-02 14:52:00 14.0°C 44% 1.2 km/h 3.2 km/h 29° 1011.9 hPa 0.000 mm
2020-04-02 14:51:00 13.7°C 44% 0.5 km/h 1.6 km/h 1011.9 hPa 0.000 mm
2020-04-02 14:50:00 13.8°C 44% 2.1 km/h 5.3 km/h 205° 1011.9 hPa 0.000 mm
2020-04-02 14:49:00 13.8°C 44% 4.7 km/h 5.8 km/h 227° 1011.9 hPa 0.000 mm
2020-04-02 14:48:00 14.0°C 44% 5.9 km/h 9.0 km/h 116° 1011.9 hPa 0.000 mm
2020-04-02 14:47:00 14.0°C 44% 7.8 km/h 10.6 km/h 286° 1011.9 hPa 0.000 mm
2020-04-02 14:46:00 14.6°C 44% 7.6 km/h 10.6 km/h 230° 1011.9 hPa 0.000 mm
2020-04-02 14:45:00 14.2°C 44% 3.7 km/h 6.9 km/h 224° 1011.9 hPa 0.000 mm
2020-04-02 14:44:00 14.1°C 45% 1.5 km/h 2.6 km/h 155° 1011.9 hPa 0.000 mm
2020-04-02 14:43:00 13.6°C 45% 1.2 km/h 1.6 km/h 230° 1011.9 hPa 0.000 mm
2020-04-02 14:42:00 13.5°C 45% 1.5 km/h 2.6 km/h 159° 1011.9 hPa 0.000 mm
2020-04-02 14:41:00 13.4°C 45% 1.8 km/h 4.8 km/h 215° 1011.9 hPa 0.000 mm
2020-04-02 14:40:00 13.5°C 45% 3.4 km/h 5.3 km/h 217° 1011.9 hPa 0.000 mm
2020-04-02 14:39:00 13.2°C 45% 3.8 km/h 5.3 km/h 218° 1011.9 hPa 0.000 mm
2020-04-02 14:38:00 12.8°C 45% 3.6 km/h 6.3 km/h 263° 1011.9 hPa 0.000 mm
2020-04-02 14:37:00 12.6°C 45% 4.8 km/h 6.3 km/h 288° 1011.9 hPa 0.000 mm
2020-04-02 14:36:00 12.6°C 45% 6.7 km/h 10.6 km/h 235° 1011.9 hPa 0.000 mm
2020-04-02 14:35:00 12.7°C 45% 6.4 km/h 9.5 km/h 298° 1011.9 hPa 0.000 mm
2020-04-02 14:34:00 12.7°C 45% 2.7 km/h 4.8 km/h 253° 1011.9 hPa 0.000 mm
2020-04-02 14:33:00 12.9°C 45% 4.9 km/h 6.3 km/h 262° 1011.9 hPa 0.000 mm
2020-04-02 14:32:00 13.0°C 45% 4.1 km/h 4.8 km/h 233° 1011.9 hPa 0.000 mm
2020-04-02 14:31:00 13.2°C 45% 4.7 km/h 6.3 km/h 177° 1011.9 hPa 0.000 mm
2020-04-02 14:30:00 13.2°C 45% 5.4 km/h 6.9 km/h 223° 1011.9 hPa 0.000 mm
2020-04-02 14:29:00 13.6°C 46% 7.8 km/h 9.5 km/h 231° 1011.9 hPa 0.000 mm
2020-04-02 14:28:00 13.7°C 46% 9.0 km/h 12.1 km/h 128° 1011.9 hPa 0.000 mm
2020-04-02 14:27:00 13.6°C 46% 8.1 km/h 11.1 km/h 239° 1011.9 hPa 0.000 mm
2020-04-02 14:26:00 13.5°C 46% 6.7 km/h 10.0 km/h 195° 1011.9 hPa 0.000 mm
2020-04-02 14:25:00 13.9°C 46% 7.9 km/h 11.6 km/h 164° 1011.9 hPa 0.000 mm
2020-04-02 14:24:00 13.7°C 46% 6.2 km/h 7.9 km/h 161° 1011.9 hPa 0.000 mm
2020-04-02 14:23:00 13.6°C 46% 6.8 km/h 8.4 km/h 146° 1012.0 hPa 0.000 mm
2020-04-02 14:22:00 13.8°C 46% 8.1 km/h 10.6 km/h 205° 1012.0 hPa 0.000 mm
2020-04-02 14:21:00 14.0°C 46% 8.1 km/h 12.1 km/h 244° 1012.0 hPa 0.000 mm
2020-04-02 14:20:00 14.6°C 46% 6.4 km/h 7.9 km/h 280° 1012.0 hPa 0.000 mm
2020-04-02 14:19:00 14.4°C 47% 5.9 km/h 9.0 km/h 113° 1012.0 hPa 0.000 mm
2020-04-02 14:18:00 14.1°C 47% 5.1 km/h 8.4 km/h 191° 1012.0 hPa 0.000 mm
2020-04-02 14:17:00 14.0°C 47% 3.8 km/h 11.6 km/h 218° 1012.1 hPa 0.000 mm
2020-04-02 14:16:00 14.0°C 47% 5.0 km/h 6.9 km/h 226° 1012.1 hPa 0.000 mm
2020-04-02 14:15:00 14.3°C 47% 7.4 km/h 9.0 km/h 277° 1012.1 hPa 0.000 mm
2020-04-02 14:14:00 14.0°C 47% 5.6 km/h 9.5 km/h 200° 1012.1 hPa 0.000 mm
2020-04-02 14:13:00 13.9°C 47% 1.9 km/h 4.8 km/h 63° 1012.1 hPa 0.000 mm
2020-04-02 14:12:00 13.5°C 47% 0.3 km/h 1.1 km/h 101° 1012.1 hPa 0.000 mm
2020-04-02 14:11:00 13.2°C 47% 2.1 km/h 3.7 km/h 84° 1012.1 hPa 0.000 mm
2020-04-02 14:10:00 13.6°C 47% 3.2 km/h 4.8 km/h 50° 1012.2 hPa 0.000 mm
2020-04-02 14:09:00 13.4°C 48% 2.6 km/h 4.8 km/h 64° 1012.2 hPa 0.000 mm
2020-04-02 14:08:00 13.2°C 48% 2.1 km/h 3.2 km/h 66° 1012.2 hPa 0.000 mm
2020-04-02 14:07:00 13.0°C 48% 2.2 km/h 3.7 km/h 215° 1012.2 hPa 0.000 mm
2020-04-02 14:06:00 12.7°C 48% 3.4 km/h 4.2 km/h 223° 1012.2 hPa 0.000 mm
2020-04-02 14:05:00 12.8°C 48% 1.6 km/h 2.1 km/h 50° 1012.2 hPa 0.000 mm
2020-04-02 14:04:00 12.8°C 48% 4.0 km/h 5.3 km/h 36° 1012.3 hPa 0.000 mm
2020-04-02 14:03:00 13.1°C 48% 4.9 km/h 6.3 km/h 1012.2 hPa 0.000 mm
2020-04-02 14:02:00 13.2°C 48% 3.0 km/h 6.3 km/h 41° 1012.2 hPa 0.000 mm
2020-04-02 14:01:00 13.5°C 48% 1.8 km/h 3.7 km/h 51° 1012.2 hPa 0.000 mm
2020-04-02 14:00:00 13.5°C 48% 3.0 km/h 4.8 km/h 32° 1012.2 hPa 0.000 mm
2020-04-02 13:59:00 13.1°C 48% 2.1 km/h 4.8 km/h 212° 1012.2 hPa 0.000 mm
2020-04-02 13:58:00 12.8°C 48% 1.4 km/h 2.6 km/h 241° 1012.2 hPa 0.000 mm
2020-04-02 13:57:00 13.2°C 48% 2.8 km/h 5.8 km/h 269° 1012.3 hPa 0.000 mm
2020-04-02 13:56:00 12.9°C 48% 5.4 km/h 6.3 km/h 282° 1012.3 hPa 0.000 mm
2020-04-02 13:55:00 13.0°C 48% 5.0 km/h 6.9 km/h 232° 1012.3 hPa 0.000 mm
2020-04-02 13:54:00 13.2°C 49% 5.3 km/h 6.3 km/h 231° 1012.3 hPa 0.000 mm
2020-04-02 13:53:00 12.8°C 49% 4.7 km/h 6.9 km/h 234° 1012.3 hPa 0.000 mm
2020-04-02 13:52:00 12.7°C 49% 5.3 km/h 6.9 km/h 190° 1012.3 hPa 0.000 mm
2020-04-02 13:51:00 13.2°C 49% 6.1 km/h 9.0 km/h 145° 1012.3 hPa 0.000 mm
2020-04-02 13:50:00 12.9°C 49% 5.4 km/h 9.5 km/h 128° 1012.3 hPa 0.000 mm
2020-04-02 13:49:00 13.4°C 49% 5.8 km/h 6.9 km/h 80° 1012.3 hPa 0.000 mm
2020-04-02 13:48:00 13.5°C 49% 6.8 km/h 10.0 km/h 195° 1012.4 hPa 0.000 mm
2020-04-02 13:47:00 13.4°C 49% 4.3 km/h 7.4 km/h 47° 1012.4 hPa 0.000 mm
2020-04-02 13:46:00 13.5°C 49% 5.4 km/h 8.4 km/h 20° 1012.4 hPa 0.000 mm
2020-04-02 13:45:00 13.9°C 49% 7.0 km/h 9.5 km/h 33° 1012.4 hPa 0.000 mm
2020-04-02 13:44:00 13.9°C 50% 6.9 km/h 9.0 km/h 270° 1012.4 hPa 0.000 mm
2020-04-02 13:43:00 13.6°C 50% 8.0 km/h 10.6 km/h 113° 1012.4 hPa 0.000 mm
2020-04-02 13:42:00 13.3°C 50% 6.3 km/h 11.6 km/h 24° 1012.4 hPa 0.000 mm
2020-04-02 13:41:00 13.0°C 50% 1.8 km/h 4.2 km/h 153° 1012.5 hPa 0.000 mm
2020-04-02 13:40:00 13.0°C 50% 2.0 km/h 3.2 km/h 44° 1012.4 hPa 0.000 mm
2020-04-02 13:39:00 12.9°C 50% 2.8 km/h 4.8 km/h 43° 1012.4 hPa 0.000 mm
2020-04-02 13:38:00 12.6°C 50% 1.5 km/h 2.1 km/h 16° 1012.4 hPa 0.000 mm
2020-04-02 13:37:00 12.5°C 50% 1.2 km/h 2.1 km/h 50° 1012.5 hPa 0.000 mm
2020-04-02 13:36:00 12.7°C 50% 1.8 km/h 2.6 km/h 91° 1012.4 hPa 0.000 mm
2020-04-02 13:35:00 13.1°C 50% 4.3 km/h 5.8 km/h 128° 1012.4 hPa 0.000 mm
2020-04-02 13:34:00 13.4°C 51% 4.9 km/h 6.3 km/h 158° 1012.4 hPa 0.000 mm
2020-04-02 13:33:00 13.2°C 51% 3.8 km/h 4.8 km/h 248° 1012.4 hPa 0.000 mm
2020-04-02 13:32:00 13.2°C 51% 4.8 km/h 6.3 km/h 258° 1012.5 hPa 0.000 mm
2020-04-02 13:31:00 13.0°C 51% 6.4 km/h 7.9 km/h 269° 1012.5 hPa 0.000 mm
2020-04-02 13:30:00 13.2°C 51% 5.2 km/h 7.4 km/h 149° 1012.5 hPa 0.000 mm
2020-04-02 13:29:00 13.8°C 51% 6.7 km/h 9.0 km/h 114° 1012.5 hPa 0.000 mm
2020-04-02 13:28:00 13.2°C 51% 6.2 km/h 8.4 km/h 206° 1012.5 hPa 0.000 mm
2020-04-02 13:27:00 12.9°C 51% 5.6 km/h 9.0 km/h 156° 1012.5 hPa 0.000 mm
2020-04-02 13:26:00 12.8°C 51% 5.1 km/h 6.9 km/h 234° 1012.5 hPa 0.000 mm
2020-04-02 13:25:00 12.4°C 51% 5.0 km/h 6.3 km/h 269° 1012.5 hPa 0.000 mm
2020-04-02 13:24:00 12.4°C 52% 3.0 km/h 5.8 km/h 141° 1012.6 hPa 0.000 mm
2020-04-02 13:23:00 12.1°C 52% 3.4 km/h 5.3 km/h 26° 1012.5 hPa 0.000 mm
2020-04-02 13:22:00 12.2°C 52% 4.5 km/h 6.3 km/h 19° 1012.6 hPa 0.000 mm
2020-04-02 13:21:00 12.4°C 52% 5.0 km/h 6.3 km/h 57° 1012.6 hPa 0.000 mm
2020-04-02 13:20:00 13.4°C 52% 4.8 km/h 7.4 km/h 70° 1012.7 hPa 0.000 mm
2020-04-02 13:19:00 13.2°C 52% 4.5 km/h 7.4 km/h 164° 1012.6 hPa 0.000 mm
2020-04-02 13:18:00 13.2°C 52% 4.5 km/h 5.8 km/h 97° 1012.7 hPa 0.000 mm
2020-04-02 13:17:00 12.9°C 52% 4.1 km/h 6.3 km/h 84° 1012.7 hPa 0.000 mm
2020-04-02 13:16:00 12.7°C 52% 4.1 km/h 4.8 km/h 237° 1012.7 hPa 0.000 mm
2020-04-02 13:15:00 12.5°C 52% 2.8 km/h 4.2 km/h 243° 1012.7 hPa 0.000 mm
2020-04-02 13:14:00 12.5°C 53% 2.5 km/h 4.2 km/h 176° 1012.7 hPa 0.000 mm
2020-04-02 13:13:00 12.9°C 53% 4.0 km/h 5.3 km/h 209° 1012.7 hPa 0.000 mm
2020-04-02 13:12:00 12.7°C 53% 4.2 km/h 6.9 km/h 197° 1012.7 hPa 0.000 mm
2020-04-02 13:11:00 12.9°C 53% 5.4 km/h 6.9 km/h 240° 1012.7 hPa 0.000 mm
2020-04-02 13:10:00 12.6°C 53% 4.6 km/h 6.3 km/h 272° 1012.7 hPa 0.000 mm
2020-04-02 13:09:00 12.3°C 53% 3.5 km/h 5.8 km/h 248° 1012.7 hPa 0.000 mm
2020-04-02 13:08:00 12.3°C 53% 5.1 km/h 6.3 km/h 182° 1012.7 hPa 0.000 mm
2020-04-02 13:07:00 12.3°C 53% 6.3 km/h 9.5 km/h 197° 1012.8 hPa 0.000 mm
2020-04-02 13:06:00 12.5°C 53% 4.8 km/h 7.9 km/h 187° 1012.8 hPa 0.000 mm
2020-04-02 13:05:00 12.5°C 53% 3.5 km/h 5.3 km/h 189° 1012.8 hPa 0.000 mm
2020-04-02 13:04:00 12.3°C 54% 2.2 km/h 3.2 km/h 236° 1012.8 hPa 0.000 mm
2020-04-02 13:03:00 12.2°C 54% 3.1 km/h 4.8 km/h 145° 1012.8 hPa 0.000 mm
2020-04-02 13:02:00 12.3°C 54% 5.3 km/h 7.4 km/h 162° 1012.8 hPa 0.000 mm
2020-04-02 13:01:00 12.3°C 54% 5.0 km/h 6.3 km/h 167° 1012.8 hPa 0.000 mm
2020-04-02 13:00:00 12.8°C 54% 6.9 km/h 10.0 km/h 203° 1012.9 hPa 0.000 mm
2020-04-02 12:59:00 12.7°C 54% 5.9 km/h 7.9 km/h 188° 1012.9 hPa 0.000 mm
2020-04-02 12:58:00 12.8°C 54% 6.4 km/h 8.4 km/h 216° 1012.8 hPa 0.000 mm
2020-04-02 12:57:00 13.0°C 54% 5.7 km/h 6.9 km/h 224° 1012.9 hPa 0.000 mm
2020-04-02 12:56:00 12.8°C 54% 2.4 km/h 5.3 km/h 226° 1012.9 hPa 0.000 mm
2020-04-02 12:55:00 12.5°C 54% 1.6 km/h 3.2 km/h 173° 1012.9 hPa 0.000 mm
2020-04-02 12:54:00 12.4°C 55% 1.9 km/h 2.6 km/h 127° 1012.9 hPa 0.000 mm
2020-04-02 12:53:00 12.4°C 55% 2.7 km/h 4.2 km/h 127° 1012.9 hPa 0.000 mm
2020-04-02 12:52:00 12.4°C 55% 2.7 km/h 4.2 km/h 122° 1012.9 hPa 0.000 mm
2020-04-02 12:51:00 12.5°C 55% 4.6 km/h 7.9 km/h 170° 1012.8 hPa 0.000 mm
2020-04-02 12:50:00 12.5°C 55% 2.1 km/h 3.2 km/h 142° 1012.8 hPa 0.000 mm
2020-04-02 12:49:00 12.4°C 55% 2.0 km/h 3.7 km/h 127° 1012.8 hPa 0.000 mm
2020-04-02 12:48:00 12.4°C 55% 1.7 km/h 3.7 km/h 174° 1012.9 hPa 0.000 mm
2020-04-02 12:47:00 12.3°C 55% 3.8 km/h 6.3 km/h 152° 1012.9 hPa 0.000 mm
2020-04-02 12:46:00 12.2°C 55% 4.2 km/h 7.4 km/h 178° 1013.0 hPa 0.000 mm
2020-04-02 12:45:00 12.1°C 55% 4.8 km/h 7.4 km/h 188° 1013.0 hPa 0.000 mm
2020-04-02 12:44:00 12.3°C 55% 5.5 km/h 7.4 km/h 168° 1013.0 hPa 0.000 mm
2020-04-02 12:43:00 12.5°C 55% 1.7 km/h 2.6 km/h 180° 1013.0 hPa 0.000 mm
2020-04-02 12:42:00 11.8°C 55% 2.5 km/h 3.7 km/h 174° 1013.0 hPa 0.000 mm
2020-04-02 12:41:00 11.7°C 55% 3.1 km/h 6.3 km/h 189° 1013.0 hPa 0.000 mm
2020-04-02 12:40:00 11.4°C 55% 4.4 km/h 6.9 km/h 182° 1013.0 hPa 0.000 mm
2020-04-02 12:39:00 11.8°C 56% 5.6 km/h 7.4 km/h 191° 1013.0 hPa 0.000 mm
2020-04-02 12:38:00 11.9°C 56% 5.8 km/h 7.9 km/h 191° 1013.0 hPa 0.000 mm
2020-04-02 12:37:00 12.6°C 56% 5.0 km/h 8.4 km/h 205° 1013.1 hPa 0.000 mm
2020-04-02 12:36:00 12.5°C 56% 3.8 km/h 6.3 km/h 262° 1013.0 hPa 0.000 mm
2020-04-02 12:35:00 12.2°C 56% 1.7 km/h 2.6 km/h 232° 1013.0 hPa 0.000 mm
2020-04-02 12:34:00 11.9°C 56% 2.1 km/h 3.7 km/h 141° 1013.0 hPa 0.000 mm
2020-04-02 12:33:00 12.0°C 56% 3.5 km/h 5.8 km/h 80° 1013.0 hPa 0.000 mm
2020-04-02 12:32:00 12.1°C 56% 5.0 km/h 6.3 km/h 237° 1013.1 hPa 0.000 mm
2020-04-02 12:31:00 12.2°C 56% 5.5 km/h 6.9 km/h 191° 1013.1 hPa 0.000 mm
2020-04-02 12:30:00 12.0°C 56% 6.9 km/h 8.4 km/h 258° 1013.0 hPa 0.000 mm
2020-04-02 12:29:00 11.6°C 56% 3.0 km/h 4.8 km/h 197° 1013.1 hPa 0.000 mm
2020-04-02 12:28:00 11.6°C 56% 3.2 km/h 5.8 km/h 171° 1013.1 hPa 0.000 mm
2020-04-02 12:27:00 11.1°C 56% 1.3 km/h 2.6 km/h 158° 1013.1 hPa 0.000 mm
2020-04-02 12:26:00 11.4°C 56% 2.9 km/h 5.8 km/h 221° 1013.1 hPa 0.000 mm
2020-04-02 12:25:00 11.4°C 56% 6.8 km/h 9.0 km/h 159° 1013.1 hPa 0.000 mm
2020-04-02 12:24:00 11.3°C 57% 3.6 km/h 5.8 km/h 178° 1013.1 hPa 0.000 mm
2020-04-02 12:23:00 11.1°C 57% 2.2 km/h 3.7 km/h 165° 1013.1 hPa 0.000 mm
2020-04-02 12:22:00 11.4°C 57% 6.5 km/h 9.5 km/h 161° 1013.1 hPa 0.000 mm
2020-04-02 12:21:00 11.4°C 57% 4.1 km/h 9.5 km/h 183° 1013.1 hPa 0.000 mm
2020-04-02 12:20:00 11.6°C 57% 7.1 km/h 8.4 km/h 150° 1013.1 hPa 0.000 mm
2020-04-02 12:19:00 11.4°C 57% 5.2 km/h 9.0 km/h 187° 1013.1 hPa 0.000 mm
2020-04-02 12:18:00 11.4°C 57% 5.3 km/h 7.4 km/h 250° 1013.1 hPa 0.000 mm
2020-04-02 12:17:00 11.0°C 57% 4.7 km/h 5.8 km/h 234° 1013.1 hPa 0.000 mm
2020-04-02 12:16:00 11.1°C 57% 6.8 km/h 7.9 km/h 213° 1013.1 hPa 0.000 mm
2020-04-02 12:15:00 11.3°C 57% 2.1 km/h 3.7 km/h 185° 1013.1 hPa 0.000 mm
2020-04-02 12:14:00 11.2°C 58% 4.9 km/h 6.3 km/h 240° 1013.1 hPa 0.000 mm
2020-04-02 12:13:00 10.8°C 58% 6.0 km/h 8.4 km/h 219° 1013.1 hPa 0.000 mm
2020-04-02 12:12:00 10.7°C 58% 5.3 km/h 6.9 km/h 223° 1013.2 hPa 0.000 mm
2020-04-02 12:11:00 10.4°C 58% 5.9 km/h 7.9 km/h 234° 1013.2 hPa 0.000 mm
2020-04-02 12:10:00 10.9°C 58% 6.3 km/h 7.4 km/h 192° 1013.2 hPa 0.000 mm
2020-04-02 12:09:00 11.6°C 58% 7.0 km/h 9.5 km/h 225° 1013.2 hPa 0.000 mm
2020-04-02 12:08:00 11.4°C 58% 5.9 km/h 8.4 km/h 249° 1013.2 hPa 0.000 mm
2020-04-02 12:07:00 11.3°C 58% 5.1 km/h 6.9 km/h 315° 1013.2 hPa 0.000 mm
2020-04-02 12:06:00 11.0°C 58% 4.2 km/h 6.3 km/h 226° 1013.2 hPa 0.000 mm
2020-04-02 12:05:00 10.8°C 58% 6.8 km/h 9.5 km/h 230° 1013.2 hPa 0.000 mm
2020-04-02 12:04:00 10.7°C 58% 5.2 km/h 8.4 km/h 242° 1013.2 hPa 0.000 mm
2020-04-02 12:03:00 11.3°C 58% 7.5 km/h 9.0 km/h 259° 1013.2 hPa 0.000 mm
2020-04-02 12:02:00 11.3°C 58% 7.0 km/h 9.0 km/h 231° 1013.2 hPa 0.000 mm
2020-04-02 12:01:00 11.2°C 58% 5.7 km/h 7.9 km/h 260° 1013.2 hPa 0.000 mm
2020-04-02 12:00:00 11.4°C 58% 6.2 km/h 8.4 km/h 250° 1013.2 hPa 0.000 mm
2020-04-02 11:59:00 11.7°C 59% 7.4 km/h 9.0 km/h 260° 1013.2 hPa 0.000 mm
2020-04-02 11:58:00 11.4°C 59% 5.4 km/h 7.4 km/h 271° 1013.2 hPa 0.000 mm
2020-04-02 11:57:00 11.1°C 59% 4.6 km/h 6.3 km/h 245° 1013.3 hPa 0.000 mm
2020-04-02 11:56:00 10.9°C 59% 6.4 km/h 9.5 km/h 190° 1013.3 hPa 0.000 mm
2020-04-02 11:55:00 10.9°C 59% 7.3 km/h 9.0 km/h 260° 1013.2 hPa 0.000 mm
2020-04-02 11:54:00 11.0°C 59% 6.5 km/h 9.5 km/h 262° 1013.3 hPa 0.000 mm
2020-04-02 11:53:00 10.8°C 59% 5.8 km/h 9.5 km/h 224° 1013.3 hPa 0.000 mm
2020-04-02 11:52:00 11.0°C 59% 7.4 km/h 9.5 km/h 250° 1013.2 hPa 0.000 mm
2020-04-02 11:51:00 10.8°C 59% 5.8 km/h 9.0 km/h 237° 1013.3 hPa 0.000 mm
2020-04-02 11:50:00 10.9°C 59% 7.4 km/h 10.0 km/h 204° 1013.3 hPa 0.000 mm
2020-04-02 11:49:00 11.1°C 60% 5.2 km/h 7.4 km/h 179° 1013.3 hPa 0.000 mm
2020-04-02 11:48:00 11.3°C 60% 3.9 km/h 5.3 km/h 255° 1013.2 hPa 0.000 mm
2020-04-02 11:47:00 10.9°C 60% 3.6 km/h 4.8 km/h 187° 1013.2 hPa 0.000 mm
2020-04-02 11:46:00 10.6°C 60% 5.0 km/h 6.3 km/h 250° 1013.2 hPa 0.000 mm
2020-04-02 11:45:00 10.4°C 60% 3.3 km/h 4.8 km/h 249° 1013.2 hPa 0.000 mm
2020-04-02 11:44:00 10.1°C 60% 1.7 km/h 2.6 km/h 241° 1013.2 hPa 0.000 mm
2020-04-02 11:43:00 10.1°C 60% 5.9 km/h 7.9 km/h 223° 1013.3 hPa 0.000 mm
2020-04-02 11:42:00 10.0°C 60% 7.2 km/h 9.5 km/h 207° 1013.2 hPa 0.000 mm
2020-04-02 11:41:00 10.1°C 60% 5.9 km/h 7.9 km/h 225° 1013.3 hPa 0.000 mm
2020-04-02 11:40:00 10.4°C 60% 6.3 km/h 9.5 km/h 232° 1013.2 hPa 0.000 mm
2020-04-02 11:39:00 10.5°C 60% 7.7 km/h 11.1 km/h 262° 1013.2 hPa 0.000 mm
2020-04-02 11:38:00 10.7°C 60% 9.6 km/h 11.1 km/h 221° 1013.2 hPa 0.000 mm
2020-04-02 11:37:00 10.6°C 60% 6.5 km/h 8.4 km/h 209° 1013.2 hPa 0.000 mm
2020-04-02 11:36:00 10.9°C 60% 8.7 km/h 14.2 km/h 208° 1013.2 hPa 0.000 mm
2020-04-02 11:35:00 10.9°C 60% 3.6 km/h 7.9 km/h 236° 1013.3 hPa 0.000 mm
2020-04-02 11:34:00 10.3°C 61% 3.8 km/h 6.3 km/h 204° 1013.3 hPa 0.000 mm
2020-04-02 11:33:00 10.4°C 61% 4.9 km/h 6.9 km/h 207° 1013.2 hPa 0.000 mm
2020-04-02 11:32:00 10.8°C 61% 4.4 km/h 7.9 km/h 225° 1013.2 hPa 0.000 mm
2020-04-02 11:31:00 10.8°C 61% 4.8 km/h 6.9 km/h 223° 1013.2 hPa 0.000 mm
2020-04-02 11:30:00 10.9°C 61% 3.9 km/h 5.8 km/h 215° 1013.3 hPa 0.000 mm
2020-04-02 11:29:00 11.1°C 61% 5.3 km/h 9.0 km/h 206° 1013.2 hPa 0.000 mm
2020-04-02 11:28:00 10.9°C 61% 5.1 km/h 6.9 km/h 248° 1013.2 hPa 0.000 mm
2020-04-02 11:27:00 10.8°C 61% 4.6 km/h 5.3 km/h 252° 1013.3 hPa 0.000 mm
2020-04-02 11:26:00 10.7°C 61% 3.8 km/h 6.3 km/h 207° 1013.3 hPa 0.000 mm
2020-04-02 11:25:00 10.7°C 61% 4.5 km/h 7.9 km/h 197° 1013.3 hPa 0.000 mm
2020-04-02 11:24:00 10.5°C 62% 3.2 km/h 4.8 km/h 213° 1013.3 hPa 0.000 mm
2020-04-02 11:23:00 10.4°C 62% 4.6 km/h 5.8 km/h 145° 1013.3 hPa 0.000 mm
2020-04-02 11:22:00 10.2°C 62% 4.6 km/h 5.3 km/h 206° 1013.3 hPa 0.000 mm
2020-04-02 11:21:00 10.1°C 62% 4.1 km/h 6.3 km/h 209° 1013.4 hPa 0.000 mm
2020-04-02 11:20:00 10.0°C 62% 5.9 km/h 7.4 km/h 227° 1013.4 hPa 0.000 mm
2020-04-02 11:19:00 10.0°C 62% 7.0 km/h 8.4 km/h 200° 1013.4 hPa 0.000 mm
2020-04-02 11:18:00 10.1°C 62% 3.2 km/h 4.8 km/h 169° 1013.4 hPa 0.000 mm
2020-04-02 11:17:00 10.0°C 62% 4.0 km/h 5.8 km/h 246° 1013.4 hPa 0.000 mm
2020-04-02 11:16:00 9.9°C 62% 5.1 km/h 6.9 km/h 242° 1013.4 hPa 0.000 mm
2020-04-02 11:15:00 9.9°C 62% 6.6 km/h 8.4 km/h 242° 1013.4 hPa 0.000 mm
2020-04-02 11:14:00 9.9°C 63% 3.1 km/h 7.9 km/h 234° 1013.4 hPa 0.000 mm
2020-04-02 11:13:00 9.6°C 63% 2.1 km/h 3.2 km/h 216° 1013.4 hPa 0.000 mm
2020-04-02 11:12:00 9.6°C 63% 3.8 km/h 4.8 km/h 234° 1013.4 hPa 0.000 mm
2020-04-02 11:11:00 9.7°C 63% 5.4 km/h 6.3 km/h 240° 1013.4 hPa 0.000 mm
2020-04-02 11:10:00 10.1°C 63% 6.4 km/h 8.4 km/h 213° 1013.5 hPa 0.000 mm
2020-04-02 11:09:00 9.7°C 63% 6.1 km/h 9.0 km/h 204° 1013.5 hPa 0.000 mm
2020-04-02 11:08:00 9.9°C 63% 5.1 km/h 6.3 km/h 216° 1013.5 hPa 0.000 mm
2020-04-02 11:07:00 9.9°C 63% 5.2 km/h 7.9 km/h 171° 1013.5 hPa 0.000 mm
2020-04-02 11:06:00 10.5°C 63% 8.2 km/h 9.5 km/h 171° 1013.5 hPa 0.000 mm
2020-04-02 11:05:00 10.5°C 63% 3.9 km/h 5.8 km/h 248° 1013.5 hPa 0.000 mm
2020-04-02 11:04:00 10.5°C 64% 2.8 km/h 3.7 km/h 186° 1013.5 hPa 0.000 mm
2020-04-02 11:03:00 10.0°C 64% 5.9 km/h 6.9 km/h 257° 1013.5 hPa 0.000 mm
2020-04-02 11:02:00 9.7°C 64% 4.3 km/h 5.8 km/h 214° 1013.5 hPa 0.000 mm
2020-04-02 11:01:00 9.4°C 64% 6.0 km/h 8.4 km/h 257° 1013.6 hPa 0.000 mm
2020-04-02 11:00:00 8.9°C 64% 6.7 km/h 7.9 km/h 233° 1013.6 hPa 0.000 mm
2020-04-02 10:59:00 8.9°C 65% 6.8 km/h 9.0 km/h 213° 1013.5 hPa 0.000 mm
2020-04-02 10:58:00 9.1°C 65% 6.7 km/h 8.4 km/h 201° 1013.5 hPa 0.000 mm
2020-04-02 10:57:00 9.4°C 65% 5.5 km/h 6.3 km/h 187° 1013.5 hPa 0.000 mm
2020-04-02 10:56:00 9.4°C 65% 4.6 km/h 5.8 km/h 206° 1013.6 hPa 0.000 mm
2020-04-02 10:55:00 9.5°C 65% 4.8 km/h 6.3 km/h 230° 1013.5 hPa 0.000 mm
2020-04-02 10:54:00 9.8°C 65% 7.7 km/h 9.0 km/h 215° 1013.5 hPa 0.000 mm
2020-04-02 10:53:00 9.8°C 65% 7.9 km/h 10.0 km/h 199° 1013.5 hPa 0.000 mm
2020-04-02 10:52:00 9.9°C 65% 5.4 km/h 10.0 km/h 230° 1013.5 hPa 0.000 mm
2020-04-02 10:51:00 9.8°C 65% 3.8 km/h 5.8 km/h 225° 1013.5 hPa 0.000 mm
2020-04-02 10:50:00 9.5°C 65% 4.8 km/h 6.9 km/h 261° 1013.5 hPa 0.000 mm
2020-04-02 10:49:00 9.4°C 66% 5.7 km/h 7.4 km/h 189° 1013.5 hPa 0.000 mm
2020-04-02 10:48:00 9.4°C 66% 5.0 km/h 7.4 km/h 204° 1013.5 hPa 0.000 mm
2020-04-02 10:47:00 9.5°C 66% 6.0 km/h 7.4 km/h 209° 1013.5 hPa 0.000 mm
2020-04-02 10:46:00 9.6°C 66% 5.3 km/h 7.9 km/h 248° 1013.5 hPa 0.000 mm
2020-04-02 10:45:00 9.5°C 66% 5.4 km/h 7.4 km/h 234° 1013.6 hPa 0.000 mm
2020-04-02 10:44:00 9.9°C 67% 6.9 km/h 8.4 km/h 212° 1013.5 hPa 0.000 mm
2020-04-02 10:43:00 10.0°C 67% 6.1 km/h 7.9 km/h 205° 1013.5 hPa 0.000 mm
2020-04-02 10:42:00 9.7°C 67% 3.5 km/h 5.3 km/h 188° 1013.5 hPa 0.000 mm
2020-04-02 10:41:00 9.6°C 67% 4.0 km/h 5.3 km/h 182° 1013.5 hPa 0.000 mm
2020-04-02 10:40:00 9.8°C 67% 4.0 km/h 5.3 km/h 219° 1013.5 hPa 0.000 mm
2020-04-02 10:39:00 9.8°C 67% 4.6 km/h 5.8 km/h 241° 1013.5 hPa 0.000 mm
2020-04-02 10:38:00 9.7°C 67% 5.0 km/h 6.3 km/h 280° 1013.5 hPa 0.000 mm
2020-04-02 10:37:00 9.6°C 67% 5.2 km/h 6.9 km/h 176° 1013.5 hPa 0.000 mm
2020-04-02 10:36:00 9.6°C 67% 4.2 km/h 7.4 km/h 208° 1013.5 hPa 0.000 mm
2020-04-02 10:35:00 10.0°C 67% 4.4 km/h 5.8 km/h 154° 1013.4 hPa 0.000 mm
2020-04-02 10:34:00 9.8°C 68% 0.5 km/h 2.6 km/h 80° 1013.4 hPa 0.000 mm
2020-04-02 10:33:00 9.9°C 68% 0.4 km/h 1.1 km/h 1013.5 hPa 0.000 mm
2020-04-02 10:32:00 10.0°C 68% 2.9 km/h 5.3 km/h 84° 1013.4 hPa 0.000 mm
2020-04-02 10:31:00 10.3°C 68% 4.0 km/h 5.8 km/h 218° 1013.5 hPa 0.000 mm
2020-04-02 10:30:00 10.2°C 68% 4.5 km/h 5.8 km/h 268° 1013.5 hPa 0.000 mm
2020-04-02 10:29:00 9.8°C 69% 2.7 km/h 6.3 km/h 209° 1013.5 hPa 0.000 mm
2020-04-02 10:28:00 9.5°C 69% 1.9 km/h 2.6 km/h 162° 1013.5 hPa 0.000 mm
2020-04-02 10:27:00 9.4°C 69% 3.4 km/h 5.3 km/h 188° 1013.5 hPa 0.000 mm
2020-04-02 10:26:00 9.0°C 69% 5.9 km/h 6.3 km/h 185° 1013.5 hPa 0.000 mm
2020-04-02 10:25:00 9.2°C 69% 4.1 km/h 5.8 km/h 174° 1013.5 hPa 0.000 mm
2020-04-02 10:24:00 9.3°C 70% 4.5 km/h 5.3 km/h 153° 1013.5 hPa 0.000 mm
2020-04-02 10:23:00 9.1°C 70% 4.9 km/h 7.4 km/h 215° 1013.5 hPa 0.000 mm
2020-04-02 10:22:00 9.1°C 70% 7.3 km/h 10.0 km/h 196° 1013.5 hPa 0.000 mm
2020-04-02 10:21:00 9.1°C 70% 6.3 km/h 7.9 km/h 179° 1013.5 hPa 0.000 mm
2020-04-02 10:20:00 9.2°C 70% 6.2 km/h 7.4 km/h 196° 1013.5 hPa 0.000 mm
2020-04-02 10:19:00 9.2°C 71% 4.9 km/h 7.9 km/h 186° 1013.5 hPa 0.000 mm
2020-04-02 10:18:00 9.2°C 71% 4.3 km/h 7.4 km/h 200° 1013.5 hPa 0.000 mm
2020-04-02 10:17:00 9.0°C 71% 5.6 km/h 8.4 km/h 231° 1013.5 hPa 0.000 mm
2020-04-02 10:16:00 8.9°C 71% 6.3 km/h 7.4 km/h 219° 1013.5 hPa 0.000 mm
2020-04-02 10:15:00 8.8°C 71% 8.0 km/h 9.5 km/h 194° 1013.5 hPa 0.000 mm
2020-04-02 10:14:00 8.6°C 72% 6.2 km/h 8.4 km/h 199° 1013.4 hPa 0.000 mm
2020-04-02 10:13:00 8.7°C 72% 6.7 km/h 9.5 km/h 191° 1013.4 hPa 0.000 mm
2020-04-02 10:12:00 8.4°C 72% 9.6 km/h 12.1 km/h 224° 1013.4 hPa 0.000 mm
2020-04-02 10:11:00 8.7°C 72% 8.7 km/h 11.6 km/h 204° 1013.4 hPa 0.000 mm
2020-04-02 10:10:00 8.7°C 72% 8.0 km/h 11.1 km/h 212° 1013.4 hPa 0.000 mm
2020-04-02 10:09:00 8.4°C 72% 5.5 km/h 7.4 km/h 196° 1013.4 hPa 0.000 mm
2020-04-02 10:08:00 8.6°C 72% 9.2 km/h 13.7 km/h 233° 1013.4 hPa 0.000 mm
2020-04-02 10:07:00 8.7°C 72% 8.8 km/h 11.1 km/h 227° 1013.3 hPa 0.000 mm
2020-04-02 10:06:00 8.6°C 72% 6.3 km/h 9.5 km/h 205° 1013.3 hPa 0.000 mm
2020-04-02 10:05:00 8.6°C 72% 7.3 km/h 10.6 km/h 242° 1013.4 hPa 0.000 mm
2020-04-02 10:04:00 8.5°C 73% 6.0 km/h 7.4 km/h 201° 1013.4 hPa 0.000 mm
2020-04-02 10:03:00 8.6°C 73% 7.2 km/h 9.5 km/h 239° 1013.4 hPa 0.000 mm
2020-04-02 10:02:00 8.4°C 73% 6.4 km/h 8.4 km/h 225° 1013.4 hPa 0.000 mm
2020-04-02 10:01:00 8.7°C 73% 5.9 km/h 7.9 km/h 221° 1013.5 hPa 0.000 mm
2020-04-02 10:00:00 8.5°C 73% 5.3 km/h 6.9 km/h 239° 1013.5 hPa 0.000 mm
2020-04-02 09:59:00 8.6°C 74% 6.8 km/h 7.9 km/h 223° 1013.5 hPa 0.000 mm
2020-04-02 09:58:00 8.7°C 74% 5.0 km/h 6.9 km/h 212° 1013.5 hPa 0.000 mm
2020-04-02 09:57:00 8.6°C 74% 5.8 km/h 8.4 km/h 230° 1013.5 hPa 0.000 mm
2020-04-02 09:56:00 8.7°C 74% 6.8 km/h 9.5 km/h 239° 1013.5 hPa 0.000 mm
2020-04-02 09:55:00 8.2°C 74% 5.4 km/h 7.9 km/h 213° 1013.5 hPa 0.000 mm
2020-04-02 09:54:00 8.4°C 75% 3.4 km/h 4.2 km/h 190° 1013.5 hPa 0.000 mm
2020-04-02 09:53:00 8.4°C 75% 4.1 km/h 5.8 km/h 214° 1013.5 hPa 0.000 mm
2020-04-02 09:52:00 8.6°C 75% 5.5 km/h 7.9 km/h 239° 1013.5 hPa 0.000 mm
2020-04-02 09:51:00 8.8°C 75% 5.0 km/h 6.3 km/h 231° 1013.5 hPa 0.000 mm
2020-04-02 09:50:00 8.8°C 75% 1.3 km/h 2.6 km/h 191° 1013.5 hPa 0.000 mm
2020-04-02 09:49:00 8.7°C 76% 2.0 km/h 3.2 km/h 217° 1013.5 hPa 0.000 mm
2020-04-02 09:48:00 8.7°C 76% 2.1 km/h 2.6 km/h 263° 1013.5 hPa 0.000 mm
2020-04-02 09:47:00 8.5°C 76% 2.1 km/h 3.7 km/h 34° 1013.5 hPa 0.000 mm
2020-04-02 09:46:00 8.3°C 76% 2.4 km/h 3.2 km/h 252° 1013.5 hPa 0.000 mm
2020-04-02 09:45:00 8.4°C 76% 4.3 km/h 6.3 km/h 192° 1013.5 hPa 0.000 mm
2020-04-02 09:44:00 8.4°C 78% 3.0 km/h 5.8 km/h 169° 1013.5 hPa 0.000 mm
2020-04-02 09:43:00 8.1°C 78% 1.7 km/h 4.8 km/h 131° 1013.5 hPa 0.000 mm
2020-04-02 09:42:00 8.0°C 78% 1.5 km/h 2.1 km/h 50° 1013.5 hPa 0.000 mm
2020-04-02 09:41:00 8.0°C 78% 3.6 km/h 6.9 km/h 213° 1013.6 hPa 0.000 mm
2020-04-02 09:40:00 8.1°C 78% 3.1 km/h 7.4 km/h 171° 1013.5 hPa 0.000 mm
2020-04-02 09:39:00 8.1°C 79% 4.1 km/h 6.9 km/h 110° 1013.5 hPa 0.000 mm
2020-04-02 09:38:00 7.8°C 79% 6.0 km/h 9.5 km/h 205° 1013.5 hPa 0.000 mm
2020-04-02 09:37:00 8.0°C 79% 6.2 km/h 8.4 km/h 169° 1013.5 hPa 0.000 mm
2020-04-02 09:36:00 7.9°C 79% 5.3 km/h 7.9 km/h 177° 1013.5 hPa 0.000 mm
2020-04-02 09:35:00 7.8°C 79% 3.8 km/h 5.8 km/h 191° 1013.5 hPa 0.000 mm
2020-04-02 09:34:00 7.7°C 80% 6.0 km/h 9.0 km/h 198° 1013.5 hPa 0.000 mm
2020-04-02 09:33:00 7.6°C 80% 4.4 km/h 5.8 km/h 162° 1013.5 hPa 0.000 mm
2020-04-02 09:32:00 7.6°C 80% 4.8 km/h 6.9 km/h 136° 1013.5 hPa 0.000 mm
2020-04-02 09:31:00 7.6°C 80% 1.0 km/h 2.6 km/h 111° 1013.5 hPa 0.000 mm
2020-04-02 09:30:00 7.3°C 80% 1.8 km/h 2.6 km/h 64° 1013.5 hPa 0.000 mm
2020-04-02 09:29:00 7.1°C 81% 1.2 km/h 2.6 km/h 39° 1013.5 hPa 0.000 mm
2020-04-02 09:28:00 7.1°C 81% 2.4 km/h 3.2 km/h 65° 1013.5 hPa 0.000 mm
2020-04-02 09:27:00 7.1°C 81% 2.9 km/h 3.7 km/h 98° 1013.5 hPa 0.000 mm
2020-04-02 09:26:00 7.2°C 81% 3.0 km/h 3.7 km/h 222° 1013.5 hPa 0.000 mm
2020-04-02 09:25:00 7.1°C 81% 3.3 km/h 4.2 km/h 225° 1013.5 hPa 0.000 mm
2020-04-02 09:24:00 7.2°C 82% 2.3 km/h 3.2 km/h 17° 1013.5 hPa 0.000 mm
2020-04-02 09:23:00 7.3°C 82% 3.0 km/h 4.2 km/h 115° 1013.5 hPa 0.000 mm
2020-04-02 09:22:00 7.4°C 82% 2.8 km/h 3.2 km/h 174° 1013.5 hPa 0.000 mm
2020-04-02 09:21:00 7.0°C 82% 2.8 km/h 3.2 km/h 212° 1013.5 hPa 0.000 mm
2020-04-02 09:20:00 6.8°C 82% 3.1 km/h 5.3 km/h 65° 1013.5 hPa 0.000 mm
2020-04-02 09:19:00 6.8°C 83% 2.2 km/h 3.2 km/h 52° 1013.5 hPa 0.000 mm
2020-04-02 09:18:00 6.9°C 83% 1.9 km/h 3.2 km/h 44° 1013.6 hPa 0.000 mm
2020-04-02 09:17:00 7.0°C 83% 2.0 km/h 2.6 km/h 24° 1013.5 hPa 0.000 mm
2020-04-02 09:16:00 6.8°C 83% 1.7 km/h 3.2 km/h 46° 1013.5 hPa 0.000 mm
2020-04-02 09:15:00 6.7°C 83% 1.9 km/h 3.2 km/h 50° 1013.5 hPa 0.000 mm
2020-04-02 09:14:00 6.6°C 84% 3.1 km/h 4.2 km/h 47° 1013.5 hPa 0.000 mm
2020-04-02 09:13:00 6.6°C 84% 3.5 km/h 4.8 km/h 41° 1013.5 hPa 0.000 mm
2020-04-02 09:12:00 6.5°C 84% 4.4 km/h 5.3 km/h 38° 1013.5 hPa 0.000 mm
2020-04-02 09:11:00 6.3°C 84% 3.0 km/h 5.3 km/h 30° 1013.5 hPa 0.000 mm
2020-04-02 09:10:00 6.4°C 84% 1.3 km/h 2.6 km/h 57° 1013.5 hPa 0.000 mm
2020-04-02 09:09:00 6.4°C 85% 2.3 km/h 3.2 km/h 30° 1013.5 hPa 0.000 mm
2020-04-02 09:08:00 6.4°C 85% 2.8 km/h 3.7 km/h 25° 1013.5 hPa 0.000 mm
2020-04-02 09:07:00 6.5°C 85% 3.3 km/h 3.7 km/h 26° 1013.5 hPa 0.000 mm
2020-04-02 09:06:00 6.5°C 85% 2.3 km/h 3.2 km/h 46° 1013.5 hPa 0.000 mm
2020-04-02 09:05:00 6.5°C 85% 2.7 km/h 3.2 km/h 36° 1013.4 hPa 0.000 mm
2020-04-02 09:04:00 6.4°C 86% 3.3 km/h 4.2 km/h 1013.4 hPa 0.000 mm
2020-04-02 09:03:00 6.4°C 86% 3.2 km/h 3.7 km/h 17° 1013.4 hPa 0.000 mm
2020-04-02 09:02:00 6.4°C 86% 2.7 km/h 3.7 km/h 36° 1013.4 hPa 0.000 mm
2020-04-02 09:01:00 6.4°C 86% 1.4 km/h 2.1 km/h 108° 1013.4 hPa 0.000 mm
2020-04-02 09:00:00 6.6°C 86% 2.0 km/h 2.1 km/h 113° 1013.4 hPa 0.000 mm
2020-04-02 08:59:00 6.4°C 87% 1.6 km/h 2.1 km/h 1013.4 hPa 0.000 mm
2020-04-02 08:58:00 6.5°C 87% 2.1 km/h 2.6 km/h 1013.4 hPa 0.000 mm
2020-04-02 08:57:00 6.7°C 87% 1.2 km/h 2.1 km/h 1013.4 hPa 0.000 mm
2020-04-02 08:56:00 6.8°C 87% 0.8 km/h 1.6 km/h 1013.4 hPa 0.000 mm
2020-04-02 08:55:00 6.7°C 87% 0.5 km/h 1.6 km/h 128° 1013.4 hPa 0.000 mm
2020-04-02 08:54:00 6.5°C 88% 0.6 km/h 1.1 km/h 169° 1013.4 hPa 0.000 mm
2020-04-02 08:53:00 6.4°C 88% 0.1 km/h 1.1 km/h 136° 1013.4 hPa 0.000 mm
2020-04-02 08:52:00 6.3°C 88% 0.3 km/h 1.1 km/h 89° 1013.4 hPa 0.000 mm
2020-04-02 08:51:00 6.1°C 88% 1.0 km/h 1.6 km/h 68° 1013.4 hPa 0.000 mm
2020-04-02 08:50:00 5.9°C 88% 0.7 km/h 1.1 km/h 84° 1013.4 hPa 0.000 mm
2020-04-02 08:49:00 5.5°C 87% 1.0 km/h 1.6 km/h 106° 1013.4 hPa 0.000 mm
2020-04-02 08:48:00 5.4°C 87% 0.9 km/h 1.1 km/h 115° 1013.4 hPa 0.000 mm
2020-04-02 08:47:00 5.2°C 87% 0.9 km/h 1.6 km/h 135° 1013.4 hPa 0.000 mm
2020-04-02 08:46:00 5.1°C 87% 1.0 km/h 1.6 km/h 126° 1013.4 hPa 0.000 mm
2020-04-02 08:45:00 5.0°C 87% 1.2 km/h 1.6 km/h 135° 1013.4 hPa 0.000 mm
2020-04-02 08:44:00 4.9°C 88% 0.8 km/h 1.1 km/h 153° 1013.4 hPa 0.000 mm
2020-04-02 08:43:00 4.8°C 88% 1.1 km/h 1.6 km/h 135° 1013.4 hPa 0.000 mm
2020-04-02 08:42:00 4.7°C 88% 0.5 km/h 1.6 km/h 162° 1013.4 hPa 0.000 mm
2020-04-02 08:41:00 4.7°C 88% 0.0 km/h 0.5 km/h 135° 1013.4 hPa 0.000 mm
2020-04-02 08:40:00 4.5°C 88% 0.6 km/h 1.1 km/h 135° 1013.4 hPa 0.000 mm
2020-04-02 08:39:00 4.5°C 89% 0.8 km/h 1.6 km/h 171° 1013.5 hPa 0.000 mm
2020-04-02 08:38:00 4.3°C 89% 0.0 km/h 0.0 km/h 144° 1013.4 hPa 0.000 mm
2020-04-02 08:37:00 4.2°C 89% 0.2 km/h 1.1 km/h 153° 1013.4 hPa 0.000 mm
2020-04-02 08:36:00 4.1°C 89% 1.0 km/h 1.6 km/h 122° 1013.4 hPa 0.000 mm
2020-04-02 08:35:00 4.1°C 89% 1.1 km/h 1.6 km/h 203° 1013.4 hPa 0.000 mm
2020-04-02 08:34:00 4.1°C 90% 1.2 km/h 2.1 km/h 191° 1013.4 hPa 0.000 mm
2020-04-02 08:33:00 4.0°C 90% 0.8 km/h 1.1 km/h 169° 1013.4 hPa 0.000 mm
2020-04-02 08:32:00 4.0°C 90% 1.1 km/h 1.6 km/h 135° 1013.4 hPa 0.000 mm
2020-04-02 08:31:00 3.9°C 90% 1.3 km/h 1.6 km/h 147° 1013.4 hPa 0.000 mm
2020-04-02 08:30:00 4.0°C 90% 0.8 km/h 1.1 km/h 167° 1013.4 hPa 0.000 mm
2020-04-02 08:29:00 3.9°C 91% 0.9 km/h 1.1 km/h 203° 1013.4 hPa 0.000 mm
2020-04-02 08:28:00 3.9°C 91% 1.1 km/h 1.6 km/h 158° 1013.4 hPa 0.000 mm
2020-04-02 08:27:00 3.8°C 91% 0.8 km/h 1.6 km/h 113° 1013.4 hPa 0.000 mm
2020-04-02 08:26:00 3.8°C 91% 0.9 km/h 1.1 km/h 137° 1013.4 hPa 0.000 mm
2020-04-02 08:25:00 3.7°C 91% 0.8 km/h 1.1 km/h 144° 1013.4 hPa 0.000 mm
2020-04-02 08:24:00 3.6°C 91% 0.9 km/h 1.6 km/h 171° 1013.4 hPa 0.000 mm
2020-04-02 08:23:00 3.5°C 91% 1.2 km/h 1.6 km/h 153° 1013.4 hPa 0.000 mm
2020-04-02 08:22:00 3.3°C 91% 1.1 km/h 1.6 km/h 135° 1013.4 hPa 0.000 mm
2020-04-02 08:21:00 3.2°C 91% 1.3 km/h 2.1 km/h 162° 1013.4 hPa 0.000 mm
2020-04-02 08:20:00 3.2°C 91% 2.2 km/h 2.6 km/h 144° 1013.4 hPa 0.000 mm
2020-04-02 08:19:00 3.3°C 93% 1.4 km/h 2.1 km/h 146° 1013.4 hPa 0.000 mm
2020-04-02 08:18:00 3.3°C 93% 0.0 km/h 0.5 km/h 144° 1013.4 hPa 0.000 mm
2020-04-02 08:17:00 3.4°C 93% 0.9 km/h 1.1 km/h 146° 1013.3 hPa 0.000 mm
2020-04-02 08:16:00 3.4°C 93% 0.1 km/h 0.5 km/h 209° 1013.3 hPa 0.000 mm
2020-04-02 08:15:00 3.2°C 93% 0.8 km/h 1.1 km/h 241° 1013.3 hPa 0.000 mm
2020-04-02 08:14:00 2.9°C 94% 0.9 km/h 1.6 km/h 189° 1013.3 hPa 0.000 mm
2020-04-02 08:13:00 2.7°C 94% 1.4 km/h 2.1 km/h 243° 1013.3 hPa 0.000 mm
2020-04-02 08:12:00 2.7°C 94% 1.3 km/h 2.1 km/h 212° 1013.3 hPa 0.000 mm
2020-04-02 08:11:00 2.6°C 94% 0.5 km/h 1.1 km/h 135° 1013.3 hPa 0.000 mm
2020-04-02 08:10:00 2.8°C 94% 1.7 km/h 2.6 km/h 195° 1013.3 hPa 0.000 mm
2020-04-02 08:09:00 3.3°C 94% 0.8 km/h 1.6 km/h 158° 1013.3 hPa 0.000 mm
2020-04-02 08:08:00 3.5°C 94% 1.3 km/h 1.6 km/h 266° 1013.3 hPa 0.000 mm
2020-04-02 08:07:00 3.5°C 94% 0.7 km/h 1.6 km/h 36° 1013.2 hPa 0.000 mm
2020-04-02 08:06:00 3.3°C 94% 2.1 km/h 2.6 km/h 36° 1013.2 hPa 0.000 mm
2020-04-02 08:05:00 3.1°C 94% 1.0 km/h 2.1 km/h 41° 1013.2 hPa 0.000 mm
2020-04-02 08:04:00 2.9°C 95% 0.0 km/h 0.0 km/h 146° 1013.3 hPa 0.000 mm
2020-04-02 08:03:00 2.8°C 95% 0.5 km/h 1.1 km/h 126° 1013.3 hPa 0.000 mm
2020-04-02 08:02:00 2.6°C 95% 1.3 km/h 1.6 km/h 144° 1013.3 hPa 0.000 mm
2020-04-02 08:01:00 2.7°C 95% 1.2 km/h 2.1 km/h 153° 1013.3 hPa 0.000 mm
2020-04-02 08:00:00 2.9°C 95% 0.0 km/h 0.0 km/h 144° 1013.3 hPa 0.000 mm
2020-04-02 07:59:00 3.2°C 95% 0.2 km/h 0.5 km/h 117° 1013.3 hPa 0.000 mm
2020-04-02 07:58:00 3.0°C 95% 0.7 km/h 1.1 km/h 50° 1013.3 hPa 0.000 mm
2020-04-02 07:57:00 3.0°C 95% 0.8 km/h 1.1 km/h 43° 1013.3 hPa 0.000 mm
2020-04-02 07:56:00 2.9°C 95% 1.1 km/h 1.6 km/h 56° 1013.3 hPa 0.000 mm
2020-04-02 07:55:00 2.8°C 95% 0.5 km/h 1.1 km/h 110° 1013.3 hPa 0.000 mm
2020-04-02 07:54:00 2.7°C 96% 0.0 km/h 0.0 km/h 108° 1013.3 hPa 0.000 mm
2020-04-02 07:53:00 2.6°C 96% 0.1 km/h 0.5 km/h 124° 1013.3 hPa 0.000 mm
2020-04-02 07:52:00 2.8°C 96% 1.1 km/h 2.1 km/h 1013.3 hPa 0.000 mm
2020-04-02 07:51:00 2.9°C 96% 1.5 km/h 2.1 km/h 29° 1013.3 hPa 0.000 mm
2020-04-02 07:50:00 2.7°C 96% 0.6 km/h 1.6 km/h 70° 1013.3 hPa 0.000 mm
2020-04-02 07:49:00 2.6°C 96% 0.8 km/h 1.1 km/h 70° 1013.2 hPa 0.000 mm
2020-04-02 07:48:00 2.5°C 96% 0.1 km/h 1.1 km/h 77° 1013.2 hPa 0.000 mm
2020-04-02 07:47:00 2.5°C 96% 0.0 km/h 0.0 km/h 90° 1013.3 hPa 0.000 mm
2020-04-02 07:46:00 2.3°C 96% 0.0 km/h 0.0 km/h 90° 1013.2 hPa 0.000 mm
2020-04-02 07:45:00 2.3°C 96% 0.5 km/h 1.6 km/h 149° 1013.3 hPa 0.000 mm
2020-04-02 07:44:00 2.1°C 96% 0.8 km/h 1.1 km/h 145° 1013.3 hPa 0.000 mm
2020-04-02 07:43:00 2.4°C 96% 0.9 km/h 1.6 km/h 180° 1013.2 hPa 0.000 mm
2020-04-02 07:42:00 2.3°C 96% 1.2 km/h 1.6 km/h 173° 1013.2 hPa 0.000 mm
2020-04-02 07:41:00 2.3°C 96% 0.9 km/h 1.6 km/h 144° 1013.2 hPa 0.000 mm
2020-04-02 07:40:00 2.4°C 96% 0.6 km/h 1.1 km/h 137° 1013.2 hPa 0.000 mm
2020-04-02 07:39:00 2.5°C 96% 0.1 km/h 0.5 km/h 106° 1013.2 hPa 0.000 mm
2020-04-02 07:38:00 2.5°C 96% 0.3 km/h 0.5 km/h 117° 1013.2 hPa 0.000 mm
2020-04-02 07:37:00 2.5°C 96% 0.4 km/h 1.1 km/h 135° 1013.2 hPa 0.000 mm
2020-04-02 07:36:00 2.4°C 96% 0.6 km/h 1.1 km/h 119° 1013.2 hPa 0.000 mm
2020-04-02 07:35:00 2.3°C 96% 0.2 km/h 1.1 km/h 162° 1013.1 hPa 0.000 mm
2020-04-02 07:34:00 2.4°C 97% 0.6 km/h 1.1 km/h 129° 1013.1 hPa 0.000 mm
2020-04-02 07:33:00 2.5°C 97% 0.8 km/h 1.6 km/h 136° 1013.1 hPa 0.000 mm
2020-04-02 07:32:00 2.3°C 97% 1.4 km/h 2.1 km/h 101° 1013.1 hPa 0.000 mm
2020-04-02 07:31:00 2.4°C 97% 1.7 km/h 2.6 km/h 81° 1013.1 hPa 0.000 mm
2020-04-02 07:30:00 2.1°C 97% 2.3 km/h 2.6 km/h 68° 1013.1 hPa 0.000 mm
2020-04-02 07:29:00 2.0°C 97% 1.4 km/h 2.6 km/h 66° 1013.1 hPa 0.000 mm
2020-04-02 07:28:00 1.7°C 97% 1.0 km/h 2.1 km/h 106° 1013.1 hPa 0.000 mm
2020-04-02 07:27:00 1.7°C 97% 1.3 km/h 2.1 km/h 162° 1013.1 hPa 0.000 mm
2020-04-02 07:26:00 1.9°C 97% 1.5 km/h 2.6 km/h 153° 1013.1 hPa 0.000 mm
2020-04-02 07:25:00 1.9°C 97% 0.2 km/h 0.5 km/h 50° 1013.1 hPa 0.000 mm
2020-04-02 07:24:00 2.3°C 97% 0.1 km/h 0.5 km/h 115° 1013.1 hPa 0.000 mm
2020-04-02 07:23:00 2.4°C 97% 0.6 km/h 1.1 km/h 79° 1013.1 hPa 0.000 mm
2020-04-02 07:22:00 2.1°C 97% 0.8 km/h 1.6 km/h 102° 1013.1 hPa 0.000 mm
2020-04-02 07:21:00 2.0°C 97% 0.2 km/h 1.1 km/h 127° 1013.1 hPa 0.000 mm
2020-04-02 07:20:00 1.8°C 97% 0.5 km/h 1.1 km/h 135° 1013.1 hPa 0.000 mm
2020-04-02 07:19:00 2.2°C 97% 0.3 km/h 0.5 km/h 99° 1013.1 hPa 0.000 mm
2020-04-02 07:18:00 2.3°C 97% 0.9 km/h 1.6 km/h 56° 1013.0 hPa 0.000 mm
2020-04-02 07:17:00 2.3°C 97% 0.8 km/h 1.6 km/h 90° 1013.1 hPa 0.000 mm
2020-04-02 07:16:00 2.4°C 97% 0.3 km/h 0.5 km/h 122° 1013.0 hPa 0.000 mm
2020-04-02 07:15:00 2.4°C 97% 1.1 km/h 1.6 km/h 99° 1013.0 hPa 0.000 mm
2020-04-02 07:14:00 2.4°C 98% 2.2 km/h 2.6 km/h 86° 1013.1 hPa 0.000 mm
2020-04-02 07:13:00 2.4°C 98% 2.0 km/h 2.6 km/h 108° 1013.1 hPa 0.000 mm
2020-04-02 07:12:00 2.4°C 98% 1.8 km/h 2.1 km/h 99° 1013.0 hPa 0.000 mm
2020-04-02 07:11:00 2.4°C 98% 1.7 km/h 2.1 km/h 93° 1013.0 hPa 0.000 mm
2020-04-02 07:10:00 2.4°C 98% 1.2 km/h 2.1 km/h 117° 1013.0 hPa 0.000 mm
2020-04-02 07:09:00 2.3°C 98% 0.2 km/h 1.1 km/h 158° 1013.0 hPa 0.000 mm
2020-04-02 07:08:00 2.3°C 98% 0.7 km/h 1.6 km/h 144° 1013.0 hPa 0.000 mm
2020-04-02 07:07:00 2.4°C 98% 1.1 km/h 1.6 km/h 180° 1013.0 hPa 0.000 mm
2020-04-02 07:06:00 2.4°C 98% 0.3 km/h 1.6 km/h 131° 1013.0 hPa 0.000 mm
2020-04-02 07:05:00 2.2°C 98% 0.0 km/h 0.0 km/h 128° 1013.0 hPa 0.000 mm
2020-04-02 07:04:00 2.2°C 98% 0.1 km/h 0.5 km/h 128° 1013.0 hPa 0.000 mm
2020-04-02 07:03:00 2.3°C 98% 0.8 km/h 1.1 km/h 120° 1013.0 hPa 0.000 mm
2020-04-02 07:02:00 2.4°C 98% 1.4 km/h 1.6 km/h 92° 1013.0 hPa 0.000 mm
2020-04-02 07:01:00 2.5°C 98% 1.0 km/h 1.6 km/h 122° 1013.0 hPa 0.000 mm
2020-04-02 07:00:00 2.5°C 98% 0.7 km/h 1.1 km/h 101° 1013.0 hPa 0.000 mm
2020-04-02 06:59:00 2.6°C 98% 0.3 km/h 1.1 km/h 128° 1013.0 hPa 0.000 mm
2020-04-02 06:58:00 2.9°C 98% 0.6 km/h 1.1 km/h 140° 1013.0 hPa 0.000 mm
2020-04-02 06:57:00 2.7°C 98% 0.1 km/h 1.1 km/h 131° 1013.0 hPa 0.000 mm
2020-04-02 06:56:00 2.7°C 98% 1.0 km/h 1.6 km/h 115° 1013.0 hPa 0.000 mm
2020-04-02 06:55:00 2.8°C 98% 2.0 km/h 2.6 km/h 127° 1013.0 hPa 0.000 mm
2020-04-02 06:54:00 2.8°C 98% 1.9 km/h 2.6 km/h 127° 1013.0 hPa 0.000 mm
2020-04-02 06:53:00 2.7°C 98% 1.7 km/h 2.1 km/h 113° 1013.0 hPa 0.000 mm
2020-04-02 06:52:00 2.6°C 98% 1.7 km/h 2.6 km/h 115° 1013.0 hPa 0.000 mm
2020-04-02 06:51:00 2.5°C 98% 1.6 km/h 2.1 km/h 108° 1013.0 hPa 0.000 mm
2020-04-02 06:50:00 2.4°C 98% 1.2 km/h 2.1 km/h 122° 1013.0 hPa 0.000 mm
2020-04-02 06:49:00 2.6°C 98% 2.2 km/h 3.2 km/h 122° 1013.0 hPa 0.000 mm
2020-04-02 06:48:00 2.4°C 98% 2.5 km/h 3.2 km/h 101° 1013.0 hPa 0.000 mm
2020-04-02 06:47:00 2.4°C 98% 0.0 km/h 0.5 km/h 131° 1013.0 hPa 0.000 mm
2020-04-02 06:46:00 2.5°C 98% 0.6 km/h 1.6 km/h 144° 1013.1 hPa 0.000 mm
2020-04-02 06:45:00 2.8°C 98% 0.5 km/h 1.6 km/h 119° 1013.0 hPa 0.000 mm
2020-04-02 06:44:00 2.8°C 98% 0.2 km/h 1.1 km/h 122° 1013.0 hPa 0.000 mm
2020-04-02 06:43:00 2.9°C 98% 1.5 km/h 2.6 km/h 135° 1013.0 hPa 0.000 mm
2020-04-02 06:42:00 2.6°C 98% 2.4 km/h 3.2 km/h 122° 1013.0 hPa 0.000 mm
2020-04-02 06:41:00 2.9°C 98% 1.9 km/h 2.6 km/h 115° 1013.0 hPa 0.000 mm
2020-04-02 06:40:00 2.9°C 98% 1.5 km/h 2.1 km/h 134° 1013.0 hPa 0.000 mm
2020-04-02 06:39:00 2.8°C 98% 1.8 km/h 3.2 km/h 133° 1013.1 hPa 0.000 mm
2020-04-02 06:38:00 2.8°C 98% 1.9 km/h 2.1 km/h 115° 1013.0 hPa 0.000 mm
2020-04-02 06:37:00 2.8°C 98% 1.0 km/h 1.6 km/h 140° 1013.0 hPa 0.000 mm
2020-04-02 06:36:00 2.8°C 98% 1.6 km/h 2.1 km/h 122° 1013.0 hPa 0.000 mm
2020-04-02 06:35:00 2.8°C 98% 1.1 km/h 1.6 km/h 108° 1013.0 hPa 0.000 mm
2020-04-02 06:34:00 2.7°C 97% 1.7 km/h 2.1 km/h 135° 1013.1 hPa 0.000 mm
2020-04-02 06:33:00 2.6°C 97% 2.4 km/h 3.2 km/h 124° 1013.0 hPa 0.000 mm
2020-04-02 06:32:00 2.6°C 97% 2.0 km/h 3.2 km/h 122° 1013.0 hPa 0.000 mm
2020-04-02 06:31:00 2.5°C 97% 0.9 km/h 1.6 km/h 122° 1013.0 hPa 0.000 mm
2020-04-02 06:30:00 2.4°C 97% 1.4 km/h 1.6 km/h 122° 1013.0 hPa 0.000 mm
2020-04-02 06:29:00 2.3°C 97% 1.7 km/h 2.1 km/h 122° 1013.0 hPa 0.000 mm
2020-04-02 06:28:00 2.2°C 97% 1.2 km/h 1.6 km/h 101° 1013.0 hPa 0.000 mm
2020-04-02 06:27:00 2.6°C 97% 1.1 km/h 1.6 km/h 99° 1013.0 hPa 0.000 mm
2020-04-02 06:26:00 2.6°C 97% 1.2 km/h 2.1 km/h 128° 1013.1 hPa 0.000 mm
2020-04-02 06:25:00 2.5°C 97% 2.4 km/h 3.2 km/h 107° 1013.1 hPa 0.000 mm
2020-04-02 06:24:00 2.5°C 97% 2.4 km/h 3.2 km/h 115° 1013.1 hPa 0.000 mm
2020-04-02 06:23:00 2.4°C 97% 2.8 km/h 3.7 km/h 128° 1013.1 hPa 0.000 mm
2020-04-02 06:22:00 2.2°C 97% 1.7 km/h 3.2 km/h 122° 1013.1 hPa 0.000 mm
2020-04-02 06:21:00 2.2°C 97% 0.5 km/h 1.1 km/h 131° 1013.1 hPa 0.000 mm
2020-04-02 06:20:00 2.9°C 97% 1.0 km/h 1.6 km/h 147° 1013.1 hPa 0.000 mm
2020-04-02 06:19:00 2.9°C 97% 2.0 km/h 2.6 km/h 128° 1013.1 hPa 0.000 mm
2020-04-02 06:18:00 2.8°C 97% 2.4 km/h 3.2 km/h 128° 1013.1 hPa 0.000 mm
2020-04-02 06:17:00 2.7°C 97% 2.7 km/h 3.2 km/h 128° 1013.1 hPa 0.000 mm
2020-04-02 06:16:00 2.4°C 97% 2.8 km/h 3.2 km/h 115° 1013.1 hPa 0.000 mm
2020-04-02 06:15:00 2.2°C 97% 2.6 km/h 3.2 km/h 108° 1013.1 hPa 0.000 mm
2020-04-02 06:14:00 2.2°C 97% 1.7 km/h 2.1 km/h 115° 1013.1 hPa 0.000 mm
2020-04-02 06:13:00 2.1°C 97% 1.8 km/h 2.6 km/h 108° 1013.1 hPa 0.000 mm
2020-04-02 06:12:00 2.0°C 97% 2.0 km/h 2.6 km/h 122° 1013.1 hPa 0.000 mm
2020-04-02 06:11:00 2.2°C 97% 1.8 km/h 2.6 km/h 122° 1013.1 hPa 0.000 mm
2020-04-02 06:10:00 2.0°C 97% 0.8 km/h 1.6 km/h 135° 1013.1 hPa 0.000 mm
2020-04-02 06:09:00 2.1°C 97% 1.3 km/h 2.1 km/h 108° 1013.1 hPa 0.000 mm
2020-04-02 06:08:00 1.5°C 97% 1.2 km/h 1.6 km/h 122° 1013.1 hPa 0.000 mm
2020-04-02 06:07:00 1.4°C 97% 0.9 km/h 1.6 km/h 108° 1013.1 hPa 0.000 mm
2020-04-02 06:06:00 1.3°C 97% 0.0 km/h 0.5 km/h 142° 1013.1 hPa 0.000 mm
2020-04-02 06:05:00 1.2°C 97% 0.3 km/h 1.1 km/h 135° 1013.1 hPa 0.000 mm
2020-04-02 06:04:00 0.9°C 97% 0.0 km/h 0.5 km/h 144° 1013.1 hPa 0.000 mm
2020-04-02 06:03:00 0.8°C 97% 0.3 km/h 0.5 km/h 171° 1013.1 hPa 0.000 mm
2020-04-02 06:02:00 1.1°C 97% 1.6 km/h 2.6 km/h 176° 1013.1 hPa 0.000 mm
2020-04-02 06:01:00 1.4°C 97% 1.4 km/h 2.1 km/h 134° 1013.1 hPa 0.000 mm
2020-04-02 06:00:00 1.7°C 97% 0.7 km/h 1.6 km/h 144° 1013.1 hPa 0.000 mm
2020-04-02 05:59:00 1.7°C 96% 0.9 km/h 1.6 km/h 153° 1013.1 hPa 0.000 mm
2020-04-02 05:58:00 1.7°C 96% 1.0 km/h 1.6 km/h 137° 1013.1 hPa 0.000 mm
2020-04-02 05:57:00 1.7°C 96% 1.4 km/h 2.1 km/h 151° 1013.1 hPa 0.000 mm
2020-04-02 05:56:00 1.6°C 96% 1.8 km/h 2.1 km/h 126° 1013.1 hPa 0.000 mm
2020-04-02 05:55:00 1.3°C 96% 0.9 km/h 1.6 km/h 135° 1013.1 hPa 0.000 mm
2020-04-02 05:54:00 1.3°C 96% 0.9 km/h 1.6 km/h 126° 1013.1 hPa 0.000 mm
2020-04-02 05:53:00 1.5°C 96% 1.4 km/h 2.1 km/h 153° 1013.1 hPa 0.000 mm
2020-04-02 05:52:00 1.8°C 96% 0.8 km/h 1.1 km/h 144° 1013.1 hPa 0.000 mm
2020-04-02 05:51:00 2.1°C 96% 1.1 km/h 1.6 km/h 164° 1013.1 hPa 0.000 mm
2020-04-02 05:50:00 2.1°C 96% 1.3 km/h 1.6 km/h 117° 1013.1 hPa 0.000 mm
2020-04-02 05:49:00 2.0°C 96% 0.9 km/h 1.1 km/h 171° 1013.1 hPa 0.000 mm
2020-04-02 05:48:00 2.1°C 96% 0.0 km/h 0.0 km/h 162° 1013.1 hPa 0.000 mm
2020-04-02 05:47:00 2.0°C 96% 0.0 km/h 0.0 km/h 171° 1013.1 hPa 0.000 mm
2020-04-02 05:46:00 2.0°C 96% 0.1 km/h 1.1 km/h 171° 1013.1 hPa 0.000 mm
2020-04-02 05:45:00 2.1°C 96% 0.2 km/h 1.1 km/h 126° 1013.1 hPa 0.000 mm
2020-04-02 05:44:00 2.1°C 96% 0.3 km/h 0.5 km/h 117° 1013.1 hPa 0.000 mm
2020-04-02 05:43:00 2.2°C 96% 0.8 km/h 1.1 km/h 117° 1013.1 hPa 0.000 mm
2020-04-02 05:42:00 2.2°C 96% 1.6 km/h 2.1 km/h 116° 1013.1 hPa 0.000 mm
2020-04-02 05:41:00 2.4°C 96% 0.8 km/h 2.6 km/h 151° 1013.1 hPa 0.000 mm
2020-04-02 05:40:00 2.4°C 96% 0.3 km/h 1.1 km/h 122° 1013.1 hPa 0.000 mm
2020-04-02 05:39:00 2.5°C 96% 1.2 km/h 2.1 km/h 135° 1013.1 hPa 0.000 mm
2020-04-02 05:38:00 2.4°C 96% 1.6 km/h 2.6 km/h 115° 1013.1 hPa 0.000 mm
2020-04-02 05:37:00 2.1°C 96% 0.7 km/h 1.1 km/h 128° 1013.1 hPa 0.000 mm
2020-04-02 05:36:00 2.0°C 96% 1.4 km/h 2.6 km/h 151° 1013.1 hPa 0.000 mm
2020-04-02 05:35:00 1.9°C 96% 1.7 km/h 2.6 km/h 199° 1013.1 hPa 0.000 mm
2020-04-02 05:34:00 2.1°C 96% 2.4 km/h 3.2 km/h 185° 1013.1 hPa 0.000 mm
2020-04-02 05:33:00 2.4°C 96% 1.3 km/h 2.1 km/h 126° 1013.1 hPa 0.000 mm
2020-04-02 05:32:00 2.3°C 96% 2.4 km/h 3.2 km/h 128° 1013.1 hPa 0.000 mm
2020-04-02 05:31:00 2.2°C 96% 1.2 km/h 2.6 km/h 115° 1013.1 hPa 0.000 mm
2020-04-02 05:30:00 2.1°C 96% 2.3 km/h 2.6 km/h 124° 1013.2 hPa 0.000 mm
2020-04-02 05:29:00 2.1°C 96% 1.2 km/h 3.2 km/h 195° 1013.2 hPa 0.000 mm
2020-04-02 05:28:00 2.1°C 96% 1.1 km/h 2.1 km/h 115° 1013.2 hPa 0.000 mm
2020-04-02 05:27:00 2.1°C 96% 0.0 km/h 0.5 km/h 140° 1013.2 hPa 0.000 mm
2020-04-02 05:26:00 2.1°C 96% 0.6 km/h 1.6 km/h 126° 1013.2 hPa 0.000 mm
2020-04-02 05:25:00 2.3°C 96% 2.1 km/h 2.6 km/h 164° 1013.2 hPa 0.000 mm
2020-04-02 05:24:00 2.5°C 95% 1.7 km/h 2.6 km/h 122° 1013.2 hPa 0.000 mm
2020-04-02 05:23:00 2.3°C 95% 0.3 km/h 1.6 km/h 153° 1013.3 hPa 0.000 mm
2020-04-02 05:22:00 2.8°C 95% 0.0 km/h 0.0 km/h 117° 1013.3 hPa 0.000 mm
2020-04-02 05:21:00 2.5°C 95% 0.0 km/h 0.0 km/h 162° 1013.3 hPa 0.000 mm
2020-04-02 05:20:00 2.5°C 95% 0.0 km/h 0.0 km/h 162° 1013.3 hPa 0.000 mm
2020-04-02 05:19:00 2.5°C 95% 0.3 km/h 1.1 km/h 180° 1013.3 hPa 0.000 mm
2020-04-02 05:18:00 2.6°C 95% 0.6 km/h 1.1 km/h 137° 1013.3 hPa 0.000 mm
2020-04-02 05:17:00 2.6°C 95% 1.4 km/h 2.1 km/h 165° 1013.3 hPa 0.000 mm
2020-04-02 05:16:00 2.8°C 95% 1.8 km/h 2.6 km/h 186° 1013.3 hPa 0.000 mm
2020-04-02 05:15:00 2.9°C 95% 0.8 km/h 1.6 km/h 162° 1013.3 hPa 0.000 mm
2020-04-02 05:14:00 3.0°C 95% 0.3 km/h 1.1 km/h 43° 1013.2 hPa 0.000 mm
2020-04-02 05:13:00 3.0°C 95% 0.2 km/h 1.1 km/h 88° 1013.3 hPa 0.000 mm
2020-04-02 05:12:00 2.9°C 95% 0.0 km/h 0.0 km/h 128° 1013.2 hPa 0.000 mm
2020-04-02 05:11:00 3.1°C 95% 0.0 km/h 0.5 km/h 128° 1013.2 hPa 0.000 mm
2020-04-02 05:10:00 3.1°C 95% 0.7 km/h 1.1 km/h 115° 1013.2 hPa 0.000 mm
2020-04-02 05:09:00 2.9°C 95% 0.6 km/h 1.1 km/h 97° 1013.2 hPa 0.000 mm
2020-04-02 05:08:00 2.9°C 95% 0.1 km/h 0.5 km/h 144° 1013.2 hPa 0.000 mm
2020-04-02 05:07:00 2.8°C 95% 1.4 km/h 2.6 km/h 153° 1013.2 hPa 0.000 mm
2020-04-02 05:06:00 3.0°C 95% 3.1 km/h 3.7 km/h 153° 1013.2 hPa 0.000 mm
2020-04-02 05:05:00 3.3°C 95% 0.4 km/h 2.1 km/h 135° 1013.2 hPa 0.000 mm
2020-04-02 05:04:00 3.5°C 95% 0.6 km/h 1.1 km/h 34° 1013.1 hPa 0.000 mm
2020-04-02 05:03:00 3.5°C 95% 0.3 km/h 1.1 km/h 38° 1013.2 hPa 0.000 mm
2020-04-02 05:02:00 3.5°C 95% 0.1 km/h 1.1 km/h 36° 1013.2 hPa 0.000 mm
2020-04-02 05:01:00 3.4°C 95% 0.8 km/h 1.6 km/h 41° 1013.2 hPa 0.000 mm
2020-04-02 05:00:00 3.2°C 95% 0.9 km/h 1.6 km/h 59° 1013.2 hPa 0.000 mm
2020-04-02 04:59:00 3.2°C 95% 0.2 km/h 1.6 km/h 122° 1013.2 hPa 0.000 mm
2020-04-02 04:58:00 3.2°C 95% 1.1 km/h 1.6 km/h 126° 1013.2 hPa 0.000 mm
2020-04-02 04:57:00 3.3°C 95% 0.5 km/h 1.6 km/h 142° 1013.2 hPa 0.000 mm
2020-04-02 04:56:00 3.4°C 95% 0.2 km/h 0.5 km/h 99° 1013.2 hPa 0.000 mm
2020-04-02 04:55:00 3.5°C 95% 1.1 km/h 1.6 km/h 86° 1013.2 hPa 0.000 mm
2020-04-02 04:54:00 3.4°C 95% 1.0 km/h 1.6 km/h 57° 1013.1 hPa 0.000 mm
2020-04-02 04:53:00 3.7°C 95% 0.4 km/h 1.1 km/h 72° 1013.1 hPa 0.000 mm
2020-04-02 04:52:00 3.8°C 95% 1.3 km/h 2.1 km/h 70° 1013.2 hPa 0.000 mm
2020-04-02 04:51:00 3.8°C 95% 1.9 km/h 2.6 km/h 70° 1013.1 hPa 0.000 mm
2020-04-02 04:50:00 3.9°C 95% 1.9 km/h 2.6 km/h 46° 1013.1 hPa 0.000 mm
2020-04-02 04:49:00 4.0°C 95% 1.0 km/h 1.6 km/h 86° 1013.2 hPa 0.000 mm
2020-04-02 04:48:00 4.1°C 95% 1.2 km/h 1.6 km/h 88° 1013.2 hPa 0.000 mm
2020-04-02 04:47:00 4.3°C 95% 2.1 km/h 3.7 km/h 56° 1013.1 hPa 0.000 mm
2020-04-02 04:46:00 4.4°C 95% 4.1 km/h 5.8 km/h 50° 1013.1 hPa 0.000 mm
2020-04-02 04:45:00 4.2°C 95% 2.3 km/h 2.6 km/h 37° 1013.1 hPa 0.000 mm
2020-04-02 04:44:00 4.3°C 95% 0.4 km/h 1.1 km/h 59° 1013.1 hPa 0.000 mm
2020-04-02 04:43:00 4.6°C 95% 1.9 km/h 3.2 km/h 36° 1013.1 hPa 0.000 mm
2020-04-02 04:42:00 4.7°C 95% 3.1 km/h 3.7 km/h 38° 1013.1 hPa 0.000 mm
2020-04-02 04:41:00 4.7°C 95% 3.1 km/h 4.8 km/h 43° 1013.1 hPa 0.000 mm
2020-04-02 04:40:00 4.4°C 95% 5.4 km/h 7.4 km/h 38° 1013.1 hPa 0.000 mm
2020-04-02 04:39:00 4.0°C 94% 4.0 km/h 5.3 km/h 65° 1013.1 hPa 0.000 mm
2020-04-02 04:38:00 4.1°C 94% 1.9 km/h 3.2 km/h 89° 1013.1 hPa 0.000 mm
2020-04-02 04:37:00 4.2°C 94% 0.2 km/h 0.5 km/h 101° 1013.1 hPa 0.000 mm
2020-04-02 04:36:00 4.2°C 94% 1.7 km/h 2.1 km/h 127° 1013.1 hPa 0.000 mm
2020-04-02 04:35:00 4.2°C 94% 2.0 km/h 2.6 km/h 115° 1013.1 hPa 0.000 mm
2020-04-02 04:34:00 4.3°C 94% 2.6 km/h 4.2 km/h 55° 1013.1 hPa 0.000 mm
2020-04-02 04:33:00 4.3°C 94% 2.4 km/h 3.7 km/h 57° 1013.1 hPa 0.000 mm
2020-04-02 04:32:00 4.3°C 94% 1.9 km/h 3.2 km/h 71° 1013.1 hPa 0.000 mm
2020-04-02 04:31:00 4.3°C 94% 3.0 km/h 4.8 km/h 77° 1013.1 hPa 0.000 mm
2020-04-02 04:30:00 4.3°C 94% 2.6 km/h 3.7 km/h 98° 1013.1 hPa 0.000 mm
2020-04-02 04:29:00 4.3°C 94% 1.8 km/h 2.6 km/h 132° 1013.1 hPa 0.000 mm
2020-04-02 04:28:00 4.4°C 94% 1.2 km/h 1.6 km/h 82° 1013.1 hPa 0.000 mm
2020-04-02 04:27:00 4.3°C 94% 1.9 km/h 3.2 km/h 110° 1013.1 hPa 0.000 mm
2020-04-02 04:26:00 4.4°C 94% 1.8 km/h 3.2 km/h 116° 1013.1 hPa 0.000 mm
2020-04-02 04:25:00 4.4°C 94% 1.7 km/h 3.2 km/h 109° 1013.2 hPa 0.000 mm
2020-04-02 04:24:00 4.5°C 94% 1.4 km/h 2.1 km/h 118° 1013.2 hPa 0.000 mm
2020-04-02 04:23:00 4.6°C 94% 2.2 km/h 2.6 km/h 82° 1013.2 hPa 0.000 mm
2020-04-02 04:22:00 4.7°C 94% 2.0 km/h 2.6 km/h 96° 1013.2 hPa 0.000 mm
2020-04-02 04:21:00 4.9°C 94% 1.7 km/h 3.2 km/h 146° 1013.2 hPa 0.000 mm
2020-04-02 04:20:00 4.8°C 94% 1.9 km/h 2.6 km/h 104° 1013.2 hPa 0.000 mm
2020-04-02 04:19:00 4.7°C 94% 2.5 km/h 3.7 km/h 119° 1013.2 hPa 0.000 mm
2020-04-02 04:18:00 4.9°C 94% 2.2 km/h 3.2 km/h 107° 1013.2 hPa 0.000 mm
2020-04-02 04:17:00 4.9°C 94% 3.3 km/h 4.2 km/h 91° 1013.2 hPa 0.000 mm
2020-04-02 04:16:00 4.9°C 94% 1.9 km/h 3.2 km/h 70° 1013.2 hPa 0.000 mm
2020-04-02 04:15:00 5.0°C 94% 2.0 km/h 3.2 km/h 110° 1013.2 hPa 0.000 mm
2020-04-02 04:14:00 5.0°C 94% 3.0 km/h 4.8 km/h 117° 1013.2 hPa 0.000 mm
2020-04-02 04:13:00 5.0°C 94% 1.2 km/h 1.6 km/h 78° 1013.2 hPa 0.000 mm
2020-04-02 04:12:00 5.0°C 94% 1.7 km/h 3.2 km/h 140° 1013.2 hPa 0.000 mm
2020-04-02 04:11:00 5.0°C 94% 1.6 km/h 2.1 km/h 116° 1013.2 hPa 0.000 mm
2020-04-02 04:10:00 5.0°C 94% 2.0 km/h 2.6 km/h 106° 1013.2 hPa 0.000 mm
2020-04-02 04:09:00 5.0°C 94% 2.1 km/h 3.7 km/h 105° 1013.2 hPa 0.000 mm
2020-04-02 04:08:00 5.1°C 94% 2.7 km/h 3.7 km/h 129° 1013.2 hPa 0.000 mm
2020-04-02 04:07:00 5.2°C 94% 2.0 km/h 4.8 km/h 101° 1013.2 hPa 0.000 mm
2020-04-02 04:06:00 5.2°C 94% 2.2 km/h 3.2 km/h 134° 1013.2 hPa 0.000 mm
2020-04-02 04:05:00 5.0°C 94% 2.3 km/h 3.7 km/h 113° 1013.2 hPa 0.000 mm
2020-04-02 04:04:00 5.2°C 94% 1.5 km/h 3.2 km/h 146° 1013.2 hPa 0.000 mm
2020-04-02 04:03:00 5.1°C 94% 2.1 km/h 3.2 km/h 205° 1013.2 hPa 0.000 mm
2020-04-02 04:02:00 4.9°C 94% 3.1 km/h 4.8 km/h 149° 1013.2 hPa 0.000 mm
2020-04-02 04:01:00 4.9°C 94% 3.4 km/h 5.3 km/h 137° 1013.2 hPa 0.000 mm
2020-04-02 04:00:00 4.9°C 94% 0.9 km/h 4.8 km/h 116° 1013.2 hPa 0.000 mm
2020-04-02 03:59:00 5.0°C 94% 1.3 km/h 2.1 km/h 97° 1013.2 hPa 0.000 mm
2020-04-02 03:58:00 5.0°C 94% 1.1 km/h 1.6 km/h 126° 1013.2 hPa 0.000 mm
2020-04-02 03:57:00 5.1°C 94% 0.4 km/h 1.1 km/h 111° 1013.2 hPa 0.000 mm
2020-04-02 03:56:00 5.1°C 94% 0.7 km/h 1.6 km/h 142° 1013.2 hPa 0.000 mm
2020-04-02 03:55:00 5.2°C 94% 0.7 km/h 1.1 km/h 128° 1013.2 hPa 0.000 mm
2020-04-02 03:54:00 5.2°C 94% 1.1 km/h 1.6 km/h 120° 1013.2 hPa 0.000 mm
2020-04-02 03:53:00 5.1°C 94% 2.6 km/h 5.3 km/h 128° 1013.3 hPa 0.000 mm
2020-04-02 03:52:00 4.8°C 94% 1.7 km/h 4.2 km/h 113° 1013.3 hPa 0.000 mm
2020-04-02 03:51:00 4.9°C 94% 0.2 km/h 1.1 km/h 95° 1013.3 hPa 0.000 mm
2020-04-02 03:50:00 5.1°C 94% 1.5 km/h 2.6 km/h 41° 1013.3 hPa 0.000 mm
2020-04-02 03:49:00 5.1°C 94% 2.4 km/h 3.2 km/h 36° 1013.3 hPa 0.000 mm
2020-04-02 03:48:00 5.1°C 94% 1.5 km/h 2.1 km/h 27° 1013.3 hPa 0.000 mm
2020-04-02 03:47:00 5.2°C 94% 1.2 km/h 2.6 km/h 79° 1013.3 hPa 0.000 mm
2020-04-02 03:46:00 5.1°C 94% 1.6 km/h 2.6 km/h 192° 1013.4 hPa 0.000 mm
2020-04-02 03:45:00 5.1°C 94% 2.1 km/h 3.2 km/h 168° 1013.4 hPa 0.000 mm
2020-04-02 03:44:00 5.0°C 94% 1.2 km/h 2.6 km/h 65° 1013.4 hPa 0.000 mm
2020-04-02 03:43:00 5.2°C 94% 1.0 km/h 2.1 km/h 34° 1013.4 hPa 0.000 mm
2020-04-02 03:42:00 5.1°C 94% 1.9 km/h 2.6 km/h 39° 1013.4 hPa 0.000 mm
2020-04-02 03:41:00 5.1°C 94% 1.6 km/h 2.6 km/h 39° 1013.4 hPa 0.000 mm
2020-04-02 03:40:00 5.0°C 94% 1.4 km/h 2.6 km/h 21° 1013.4 hPa 0.000 mm
2020-04-02 03:39:00 5.1°C 93% 2.1 km/h 3.2 km/h 38° 1013.4 hPa 0.000 mm
2020-04-02 03:38:00 5.1°C 93% 1.7 km/h 2.1 km/h 36° 1013.4 hPa 0.000 mm
2020-04-02 03:37:00 5.0°C 93% 2.6 km/h 3.7 km/h 30° 1013.4 hPa 0.000 mm
2020-04-02 03:36:00 5.1°C 93% 2.0 km/h 3.7 km/h 86° 1013.5 hPa 0.000 mm
2020-04-02 03:35:00 5.0°C 93% 2.4 km/h 3.2 km/h 90° 1013.4 hPa 0.000 mm
2020-04-02 03:34:00 5.0°C 93% 3.0 km/h 3.7 km/h 25° 1013.4 hPa 0.000 mm
2020-04-02 03:33:00 5.1°C 93% 2.5 km/h 4.2 km/h 42° 1013.5 hPa 0.000 mm
2020-04-02 03:32:00 5.2°C 93% 2.3 km/h 3.7 km/h 38° 1013.4 hPa 0.000 mm
2020-04-02 03:31:00 5.2°C 93% 3.5 km/h 4.8 km/h 36° 1013.4 hPa 0.000 mm
2020-04-02 03:30:00 5.3°C 93% 3.5 km/h 4.8 km/h 20° 1013.4 hPa 0.000 mm
2020-04-02 03:29:00 5.4°C 93% 2.9 km/h 3.7 km/h 1013.4 hPa 0.000 mm
2020-04-02 03:28:00 5.4°C 93% 1.8 km/h 3.2 km/h 154° 1013.4 hPa 0.000 mm
2020-04-02 03:27:00 5.4°C 93% 1.4 km/h 2.6 km/h 136° 1013.4 hPa 0.000 mm
2020-04-02 03:26:00 5.3°C 93% 0.7 km/h 1.6 km/h 90° 1013.4 hPa 0.000 mm
2020-04-02 03:25:00 5.1°C 93% 0.0 km/h 0.5 km/h 122° 1013.4 hPa 0.000 mm
2020-04-02 03:24:00 5.0°C 93% 0.0 km/h 0.0 km/h 77° 1013.4 hPa 0.000 mm
2020-04-02 03:23:00 5.1°C 93% 1.4 km/h 2.6 km/h 17° 1013.4 hPa 0.000 mm
2020-04-02 03:22:00 5.1°C 93% 1.7 km/h 3.2 km/h 205° 1013.4 hPa 0.000 mm
2020-04-02 03:21:00 5.3°C 93% 1.3 km/h 2.1 km/h 81° 1013.4 hPa 0.000 mm
2020-04-02 03:20:00 5.5°C 93% 1.0 km/h 2.1 km/h 44° 1013.4 hPa 0.000 mm
2020-04-02 03:19:00 5.3°C 93% 1.2 km/h 2.6 km/h 51° 1013.4 hPa 0.000 mm
2020-04-02 03:18:00 5.3°C 93% 0.7 km/h 1.1 km/h 159° 1013.4 hPa 0.000 mm
2020-04-02 03:17:00 5.2°C 93% 1.7 km/h 2.6 km/h 36° 1013.5 hPa 0.000 mm
2020-04-02 03:16:00 5.1°C 93% 1.6 km/h 2.6 km/h 214° 1013.5 hPa 0.000 mm
2020-04-02 03:15:00 5.2°C 93% 2.0 km/h 3.7 km/h 160° 1013.5 hPa 0.000 mm
2020-04-02 03:14:00 5.2°C 93% 3.2 km/h 4.8 km/h 16° 1013.5 hPa 0.000 mm
2020-04-02 03:13:00 5.2°C 93% 3.0 km/h 3.7 km/h 1013.5 hPa 0.000 mm
2020-04-02 03:12:00 5.3°C 93% 2.0 km/h 3.2 km/h 1013.5 hPa 0.000 mm
2020-04-02 03:11:00 5.3°C 93% 1.6 km/h 2.6 km/h 21° 1013.5 hPa 0.000 mm
2020-04-02 03:10:00 5.3°C 93% 1.9 km/h 2.6 km/h 16° 1013.5 hPa 0.000 mm
2020-04-02 03:09:00 5.3°C 93% 2.6 km/h 3.2 km/h 29° 1013.5 hPa 0.000 mm
2020-04-02 03:08:00 5.2°C 93% 3.2 km/h 4.2 km/h 43° 1013.4 hPa 0.000 mm
2020-04-02 03:07:00 5.3°C 93% 3.1 km/h 3.7 km/h 38° 1013.5 hPa 0.000 mm
2020-04-02 03:06:00 5.3°C 93% 3.2 km/h 4.2 km/h 45° 1013.5 hPa 0.000 mm
2020-04-02 03:05:00 5.3°C 93% 2.3 km/h 3.7 km/h 32° 1013.5 hPa 0.000 mm
2020-04-02 03:04:00 5.4°C 92% 2.0 km/h 3.2 km/h 17° 1013.5 hPa 0.000 mm
2020-04-02 03:03:00 5.4°C 92% 2.7 km/h 3.7 km/h 32° 1013.5 hPa 0.000 mm
2020-04-02 03:02:00 5.4°C 92% 2.2 km/h 3.2 km/h 46° 1013.5 hPa 0.000 mm
2020-04-02 03:01:00 5.5°C 92% 3.2 km/h 4.8 km/h 54° 1013.5 hPa 0.000 mm
2020-04-02 03:00:00 5.4°C 92% 1.2 km/h 1.6 km/h 70° 1013.5 hPa 0.000 mm
2020-04-02 02:59:00 5.5°C 92% 0.9 km/h 1.1 km/h 132° 1013.5 hPa 0.000 mm
2020-04-02 02:58:00 5.5°C 92% 1.1 km/h 2.1 km/h 125° 1013.5 hPa 0.000 mm
2020-04-02 02:57:00 5.5°C 92% 0.8 km/h 1.6 km/h 170° 1013.5 hPa 0.000 mm
2020-04-02 02:56:00 5.6°C 92% 1.8 km/h 2.6 km/h 189° 1013.5 hPa 0.000 mm
2020-04-02 02:55:00 5.7°C 92% 1.2 km/h 2.1 km/h 72° 1013.5 hPa 0.000 mm
2020-04-02 02:54:00 5.7°C 92% 2.6 km/h 3.7 km/h 12° 1013.5 hPa 0.000 mm
2020-04-02 02:53:00 5.8°C 92% 2.1 km/h 2.6 km/h 36° 1013.5 hPa 0.000 mm
2020-04-02 02:52:00 5.9°C 92% 1.8 km/h 3.2 km/h 138° 1013.5 hPa 0.000 mm
2020-04-02 02:51:00 5.8°C 92% 2.5 km/h 4.8 km/h 160° 1013.5 hPa 0.000 mm
2020-04-02 02:50:00 5.7°C 92% 2.1 km/h 3.2 km/h 88° 1013.5 hPa 0.000 mm
2020-04-02 02:49:00 5.6°C 92% 0.6 km/h 2.1 km/h 134° 1013.5 hPa 0.000 mm
2020-04-02 02:48:00 5.6°C 92% 1.2 km/h 1.6 km/h 29° 1013.5 hPa 0.000 mm
2020-04-02 02:47:00 5.6°C 92% 1.1 km/h 1.6 km/h 38° 1013.5 hPa 0.000 mm
2020-04-02 02:46:00 5.6°C 92% 1.2 km/h 1.6 km/h 41° 1013.5 hPa 0.000 mm
2020-04-02 02:45:00 5.5°C 92% 0.8 km/h 1.6 km/h 54° 1013.5 hPa 0.000 mm
2020-04-02 02:44:00 5.5°C 92% 0.2 km/h 0.5 km/h 267° 1013.6 hPa 0.000 mm
2020-04-02 02:43:00 5.5°C 92% 0.4 km/h 1.1 km/h 104° 1013.5 hPa 0.000 mm
2020-04-02 02:42:00 5.5°C 92% 0.0 km/h 0.0 km/h 92° 1013.6 hPa 0.000 mm
2020-04-02 02:41:00 5.6°C 92% 0.0 km/h 0.0 km/h 45° 1013.6 hPa 0.000 mm
2020-04-02 02:40:00 5.8°C 92% 0.3 km/h 1.1 km/h 43° 1013.6 hPa 0.000 mm
2020-04-02 02:39:00 5.9°C 92% 1.3 km/h 2.1 km/h 89° 1013.6 hPa 0.000 mm
2020-04-02 02:38:00 5.9°C 92% 1.0 km/h 2.6 km/h 135° 1013.6 hPa 0.000 mm
2020-04-02 02:37:00 6.2°C 92% 3.6 km/h 5.8 km/h 137° 1013.6 hPa 0.000 mm
2020-04-02 02:36:00 6.0°C 92% 1.4 km/h 3.2 km/h 153° 1013.6 hPa 0.000 mm
2020-04-02 02:35:00 6.1°C 92% 1.2 km/h 2.6 km/h 73° 1013.6 hPa 0.000 mm
2020-04-02 02:34:00 6.1°C 91% 1.3 km/h 2.1 km/h 110° 1013.6 hPa 0.000 mm
2020-04-02 02:33:00 6.1°C 91% 1.4 km/h 2.1 km/h 89° 1013.6 hPa 0.000 mm
2020-04-02 02:32:00 6.2°C 91% 1.4 km/h 2.1 km/h 180° 1013.6 hPa 0.000 mm
2020-04-02 02:31:00 6.2°C 91% 0.8 km/h 1.6 km/h 98° 1013.6 hPa 0.000 mm
2020-04-02 02:30:00 6.2°C 91% 2.0 km/h 2.6 km/h 48° 1013.7 hPa 0.000 mm
2020-04-02 02:29:00 6.3°C 91% 1.1 km/h 2.1 km/h 125° 1013.6 hPa 0.000 mm
2020-04-02 02:28:00 6.2°C 91% 2.4 km/h 3.2 km/h 116° 1013.6 hPa 0.000 mm
2020-04-02 02:27:00 6.4°C 91% 2.2 km/h 3.2 km/h 92° 1013.6 hPa 0.000 mm
2020-04-02 02:26:00 6.4°C 91% 1.7 km/h 2.6 km/h 86° 1013.6 hPa 0.000 mm
2020-04-02 02:25:00 6.2°C 91% 2.2 km/h 4.2 km/h 80° 1013.6 hPa 0.000 mm
2020-04-02 02:24:00 6.4°C 91% 3.8 km/h 6.3 km/h 129° 1013.6 hPa 0.000 mm
2020-04-02 02:23:00 6.3°C 91% 1.7 km/h 2.1 km/h 182° 1013.6 hPa 0.000 mm
2020-04-02 02:22:00 6.4°C 91% 3.2 km/h 5.8 km/h 212° 1013.6 hPa 0.000 mm
2020-04-02 02:21:00 6.4°C 91% 3.8 km/h 6.9 km/h 137° 1013.6 hPa 0.000 mm
2020-04-02 02:20:00 6.3°C 91% 1.5 km/h 2.6 km/h 108° 1013.6 hPa 0.000 mm
2020-04-02 02:19:00 6.3°C 91% 1.1 km/h 2.1 km/h 114° 1013.6 hPa 0.000 mm
2020-04-02 02:18:00 6.4°C 91% 2.4 km/h 3.7 km/h 161° 1013.6 hPa 0.000 mm
2020-04-02 02:17:00 6.4°C 91% 1.7 km/h 2.6 km/h 126° 1013.6 hPa 0.000 mm
2020-04-02 02:16:00 6.5°C 91% 2.2 km/h 4.2 km/h 125° 1013.6 hPa 0.000 mm
2020-04-02 02:15:00 6.5°C 91% 3.4 km/h 5.8 km/h 136° 1013.6 hPa 0.000 mm
2020-04-02 02:14:00 6.5°C 91% 3.1 km/h 4.2 km/h 172° 1013.6 hPa 0.000 mm
2020-04-02 02:13:00 6.5°C 91% 1.3 km/h 3.2 km/h 143° 1013.6 hPa 0.000 mm
2020-04-02 02:12:00 6.5°C 91% 2.7 km/h 3.7 km/h 159° 1013.6 hPa 0.000 mm
2020-04-02 02:11:00 6.5°C 91% 5.3 km/h 9.5 km/h 185° 1013.6 hPa 0.000 mm
2020-04-02 02:10:00 6.5°C 91% 6.2 km/h 9.5 km/h 178° 1013.6 hPa 0.000 mm
2020-04-02 02:09:00 6.4°C 91% 1.9 km/h 3.2 km/h 179° 1013.6 hPa 0.000 mm
2020-04-02 02:08:00 6.4°C 91% 4.4 km/h 6.3 km/h 153° 1013.6 hPa 0.000 mm
2020-04-02 02:07:00 6.4°C 91% 3.4 km/h 5.3 km/h 159° 1013.6 hPa 0.000 mm
2020-04-02 02:06:00 6.4°C 91% 3.3 km/h 5.3 km/h 154° 1013.6 hPa 0.000 mm
2020-04-02 02:05:00 6.5°C 91% 6.9 km/h 10.0 km/h 204° 1013.6 hPa 0.000 mm
2020-04-02 02:04:00 6.5°C 90% 5.7 km/h 7.4 km/h 194° 1013.6 hPa 0.000 mm
2020-04-02 02:03:00 6.5°C 90% 4.3 km/h 7.4 km/h 176° 1013.6 hPa 0.000 mm
2020-04-02 02:02:00 6.6°C 90% 3.5 km/h 5.8 km/h 210° 1013.6 hPa 0.000 mm
2020-04-02 02:01:00 6.6°C 90% 3.6 km/h 5.3 km/h 144° 1013.6 hPa 0.000 mm
2020-04-02 02:00:00 6.6°C 90% 5.0 km/h 9.0 km/h 153° 1013.6 hPa 0.000 mm
2020-04-02 01:59:00 6.6°C 90% 3.9 km/h 6.3 km/h 147° 1013.6 hPa 0.000 mm
2020-04-02 01:58:00 6.6°C 90% 5.4 km/h 10.6 km/h 178° 1013.6 hPa 0.000 mm
2020-04-02 01:57:00 6.6°C 90% 4.2 km/h 7.4 km/h 201° 1013.6 hPa 0.000 mm
2020-04-02 01:56:00 6.6°C 90% 2.5 km/h 3.7 km/h 196° 1013.7 hPa 0.000 mm
2020-04-02 01:55:00 6.6°C 90% 8.1 km/h 13.2 km/h 203° 1013.7 hPa 0.000 mm
2020-04-02 01:54:00 6.6°C 90% 6.7 km/h 10.6 km/h 145° 1013.7 hPa 0.000 mm
2020-04-02 01:53:00 6.5°C 90% 5.0 km/h 6.3 km/h 185° 1013.6 hPa 0.000 mm
2020-04-02 01:52:00 6.6°C 90% 4.0 km/h 4.8 km/h 205° 1013.6 hPa 0.000 mm
2020-04-02 01:51:00 6.7°C 90% 5.2 km/h 7.9 km/h 141° 1013.6 hPa 0.000 mm
2020-04-02 01:50:00 6.8°C 90% 4.0 km/h 5.8 km/h 200° 1013.6 hPa 0.000 mm
2020-04-02 01:49:00 6.8°C 90% 8.2 km/h 13.2 km/h 182° 1013.6 hPa 0.000 mm
2020-04-02 01:48:00 6.8°C 90% 6.9 km/h 9.0 km/h 183° 1013.6 hPa 0.000 mm
2020-04-02 01:47:00 6.8°C 90% 6.7 km/h 10.0 km/h 158° 1013.6 hPa 0.000 mm
2020-04-02 01:46:00 6.8°C 90% 5.4 km/h 7.4 km/h 152° 1013.6 hPa 0.000 mm
2020-04-02 01:45:00 6.7°C 90% 7.3 km/h 9.5 km/h 214° 1013.6 hPa 0.000 mm
2020-04-02 01:44:00 6.7°C 90% 4.7 km/h 6.9 km/h 200° 1013.6 hPa 0.000 mm
2020-04-02 01:43:00 6.7°C 90% 3.0 km/h 4.8 km/h 141° 1013.6 hPa 0.000 mm
2020-04-02 01:42:00 6.8°C 90% 5.4 km/h 6.9 km/h 218° 1013.6 hPa 0.000 mm
2020-04-02 01:41:00 6.9°C 90% 7.2 km/h 11.1 km/h 172° 1013.6 hPa 0.000 mm
2020-04-02 01:40:00 6.8°C 90% 4.6 km/h 11.6 km/h 146° 1013.6 hPa 0.000 mm
2020-04-02 01:39:00 6.9°C 89% 4.6 km/h 6.9 km/h 141° 1013.6 hPa 0.000 mm
2020-04-02 01:38:00 6.8°C 89% 5.3 km/h 10.0 km/h 199° 1013.6 hPa 0.000 mm
2020-04-02 01:37:00 6.8°C 89% 6.2 km/h 8.4 km/h 203° 1013.6 hPa 0.000 mm
2020-04-02 01:36:00 6.8°C 89% 6.9 km/h 10.0 km/h 195° 1013.6 hPa 0.000 mm
2020-04-02 01:35:00 6.7°C 89% 7.0 km/h 10.6 km/h 159° 1013.6 hPa 0.000 mm
2020-04-02 01:34:00 6.8°C 89% 6.5 km/h 7.9 km/h 198° 1013.6 hPa 0.000 mm
2020-04-02 01:33:00 6.9°C 89% 7.1 km/h 11.1 km/h 159° 1013.6 hPa 0.000 mm
2020-04-02 01:32:00 6.8°C 89% 7.4 km/h 9.5 km/h 206° 1013.6 hPa 0.000 mm
2020-04-02 01:31:00 6.8°C 89% 7.0 km/h 9.0 km/h 176° 1013.7 hPa 0.000 mm
2020-04-02 01:30:00 6.8°C 89% 8.0 km/h 10.0 km/h 172° 1013.6 hPa 0.000 mm
2020-04-02 01:29:00 6.6°C 89% 9.4 km/h 11.6 km/h 159° 1013.7 hPa 0.000 mm
2020-04-02 01:28:00 6.6°C 89% 6.2 km/h 9.0 km/h 180° 1013.6 hPa 0.000 mm
2020-04-02 01:27:00 6.7°C 89% 5.8 km/h 7.4 km/h 171° 1013.6 hPa 0.000 mm
2020-04-02 01:26:00 6.9°C 89% 5.2 km/h 7.9 km/h 169° 1013.7 hPa 0.000 mm
2020-04-02 01:25:00 6.8°C 89% 7.1 km/h 10.0 km/h 162° 1013.6 hPa 0.000 mm
2020-04-02 01:24:00 6.8°C 88% 6.9 km/h 9.5 km/h 164° 1013.6 hPa 0.000 mm
2020-04-02 01:23:00 6.8°C 88% 5.2 km/h 7.9 km/h 201° 1013.7 hPa 0.000 mm
2020-04-02 01:22:00 6.9°C 88% 6.0 km/h 7.9 km/h 163° 1013.7 hPa 0.000 mm
2020-04-02 01:21:00 6.9°C 88% 5.2 km/h 7.4 km/h 128° 1013.7 hPa 0.000 mm
2020-04-02 01:20:00 6.7°C 88% 6.6 km/h 9.0 km/h 173° 1013.7 hPa 0.000 mm
2020-04-02 01:19:00 6.7°C 88% 7.7 km/h 10.0 km/h 179° 1013.7 hPa 0.000 mm
2020-04-02 01:18:00 6.7°C 88% 5.7 km/h 9.0 km/h 201° 1013.7 hPa 0.000 mm
2020-04-02 01:17:00 6.8°C 88% 5.4 km/h 7.4 km/h 205° 1013.8 hPa 0.000 mm
2020-04-02 01:16:00 6.7°C 88% 4.3 km/h 6.3 km/h 186° 1013.8 hPa 0.000 mm
2020-04-02 01:15:00 6.7°C 88% 4.5 km/h 6.3 km/h 156° 1013.8 hPa 0.000 mm
2020-04-02 01:14:00 6.9°C 88% 5.4 km/h 7.9 km/h 143° 1013.8 hPa 0.000 mm
2020-04-02 01:13:00 6.9°C 88% 5.5 km/h 7.9 km/h 158° 1013.8 hPa 0.000 mm
2020-04-02 01:12:00 6.9°C 88% 7.1 km/h 10.0 km/h 180° 1013.8 hPa 0.000 mm
2020-04-02 01:11:00 7.0°C 88% 5.8 km/h 7.4 km/h 135° 1013.8 hPa 0.000 mm
2020-04-02 01:10:00 6.9°C 88% 5.0 km/h 7.4 km/h 174° 1013.9 hPa 0.000 mm
2020-04-02 01:09:00 7.0°C 88% 4.4 km/h 6.3 km/h 190° 1013.9 hPa 0.000 mm
2020-04-02 01:08:00 6.8°C 88% 5.5 km/h 6.9 km/h 189° 1013.9 hPa 0.000 mm
2020-04-02 01:07:00 6.9°C 88% 5.7 km/h 7.4 km/h 200° 1013.9 hPa 0.000 mm
2020-04-02 01:06:00 6.9°C 88% 6.8 km/h 8.4 km/h 155° 1013.9 hPa 0.000 mm
2020-04-02 01:05:00 6.9°C 88% 4.0 km/h 6.9 km/h 117° 1013.9 hPa 0.000 mm
2020-04-02 01:04:00 7.0°C 87% 4.0 km/h 6.3 km/h 183° 1013.9 hPa 0.000 mm
2020-04-02 01:03:00 6.8°C 87% 5.1 km/h 7.9 km/h 150° 1013.9 hPa 0.000 mm
2020-04-02 01:02:00 6.8°C 87% 5.5 km/h 7.4 km/h 178° 1013.9 hPa 0.000 mm
2020-04-02 01:01:00 6.9°C 87% 5.1 km/h 6.3 km/h 169° 1013.8 hPa 0.000 mm
2020-04-02 01:00:00 6.9°C 87% 4.9 km/h 8.4 km/h 140° 1013.9 hPa 0.000 mm
2020-04-02 00:59:00 6.9°C 87% 5.1 km/h 6.9 km/h 216° 1013.9 hPa 0.000 mm
2020-04-02 00:58:00 6.8°C 87% 4.6 km/h 5.8 km/h 192° 1013.9 hPa 0.000 mm
2020-04-02 00:57:00 7.0°C 87% 4.9 km/h 8.4 km/h 188° 1013.9 hPa 0.000 mm
2020-04-02 00:56:00 7.0°C 87% 6.7 km/h 9.5 km/h 206° 1013.9 hPa 0.000 mm
2020-04-02 00:55:00 7.1°C 87% 5.4 km/h 6.9 km/h 190° 1013.9 hPa 0.000 mm
2020-04-02 00:54:00 7.0°C 87% 5.4 km/h 7.9 km/h 187° 1013.9 hPa 0.000 mm
2020-04-02 00:53:00 7.1°C 87% 7.0 km/h 12.1 km/h 190° 1013.9 hPa 0.000 mm
2020-04-02 00:52:00 7.1°C 87% 6.4 km/h 10.0 km/h 197° 1013.9 hPa 0.000 mm
2020-04-02 00:51:00 7.2°C 87% 6.6 km/h 9.0 km/h 162° 1013.9 hPa 0.000 mm
2020-04-02 00:50:00 7.1°C 87% 6.5 km/h 8.4 km/h 200° 1013.9 hPa 0.000 mm
2020-04-02 00:49:00 7.1°C 87% 6.5 km/h 8.4 km/h 178° 1013.9 hPa 0.000 mm
2020-04-02 00:48:00 7.1°C 87% 8.4 km/h 12.1 km/h 181° 1013.9 hPa 0.000 mm
2020-04-02 00:47:00 7.1°C 87% 7.2 km/h 12.1 km/h 161° 1014.0 hPa 0.000 mm
2020-04-02 00:46:00 7.2°C 87% 6.2 km/h 8.4 km/h 161° 1014.0 hPa 0.000 mm
2020-04-02 00:45:00 6.9°C 87% 6.9 km/h 9.5 km/h 215° 1014.0 hPa 0.000 mm
2020-04-02 00:44:00 7.0°C 86% 6.8 km/h 8.4 km/h 179° 1014.0 hPa 0.000 mm
2020-04-02 00:43:00 7.0°C 86% 7.0 km/h 9.0 km/h 216° 1014.0 hPa 0.000 mm
2020-04-02 00:42:00 6.9°C 86% 7.1 km/h 8.4 km/h 171° 1014.0 hPa 0.000 mm
2020-04-02 00:41:00 6.8°C 86% 7.4 km/h 9.5 km/h 160° 1014.0 hPa 0.000 mm
2020-04-02 00:40:00 6.8°C 86% 7.4 km/h 9.5 km/h 183° 1014.0 hPa 0.000 mm
2020-04-02 00:39:00 6.9°C 86% 5.5 km/h 8.4 km/h 135° 1014.0 hPa 0.000 mm
2020-04-02 00:38:00 7.0°C 86% 5.4 km/h 7.9 km/h 209° 1014.1 hPa 0.000 mm
2020-04-02 00:37:00 7.0°C 86% 5.9 km/h 7.9 km/h 196° 1014.1 hPa 0.000 mm
2020-04-02 00:36:00 6.9°C 86% 6.7 km/h 7.9 km/h 180° 1014.1 hPa 0.000 mm
2020-04-02 00:35:00 6.8°C 86% 6.5 km/h 7.9 km/h 150° 1014.1 hPa 0.000 mm
2020-04-02 00:34:00 6.9°C 86% 5.8 km/h 8.4 km/h 173° 1014.1 hPa 0.000 mm
2020-04-02 00:33:00 6.8°C 86% 6.3 km/h 7.9 km/h 214° 1014.1 hPa 0.000 mm
2020-04-02 00:32:00 6.9°C 86% 4.7 km/h 5.8 km/h 196° 1014.1 hPa 0.000 mm
2020-04-02 00:31:00 6.8°C 86% 6.7 km/h 8.4 km/h 207° 1014.1 hPa 0.000 mm
2020-04-02 00:30:00 7.0°C 86% 4.5 km/h 5.8 km/h 146° 1014.1 hPa 0.000 mm
2020-04-02 00:29:00 6.8°C 85% 4.7 km/h 5.8 km/h 201° 1014.1 hPa 0.000 mm
2020-04-02 00:28:00 6.7°C 85% 4.1 km/h 5.3 km/h 153° 1014.1 hPa 0.000 mm
2020-04-02 00:27:00 6.8°C 85% 5.2 km/h 7.4 km/h 133° 1014.1 hPa 0.000 mm
2020-04-02 00:26:00 6.8°C 85% 4.3 km/h 5.3 km/h 186° 1014.1 hPa 0.000 mm
2020-04-02 00:25:00 6.2°C 85% 4.4 km/h 5.8 km/h 161° 1014.1 hPa 0.000 mm
2020-04-02 00:24:00 6.2°C 85% 4.8 km/h 6.3 km/h 180° 1014.1 hPa 0.000 mm
2020-04-02 00:23:00 6.1°C 85% 4.2 km/h 5.3 km/h 165° 1014.1 hPa 0.000 mm
2020-04-02 00:22:00 6.0°C 85% 4.9 km/h 6.3 km/h 194° 1014.1 hPa 0.000 mm
2020-04-02 00:21:00 5.5°C 85% 2.5 km/h 3.7 km/h 133° 1014.1 hPa 0.000 mm
2020-04-02 00:20:00 5.5°C 85% 1.9 km/h 3.2 km/h 164° 1014.1 hPa 0.000 mm
2020-04-02 00:19:00 5.4°C 85% 2.0 km/h 4.2 km/h 192° 1014.1 hPa 0.000 mm
2020-04-02 00:18:00 5.3°C 85% 1.5 km/h 2.1 km/h 146° 1014.1 hPa 0.000 mm
2020-04-02 00:17:00 5.3°C 85% 1.7 km/h 2.6 km/h 205° 1014.1 hPa 0.000 mm
2020-04-02 00:16:00 5.2°C 85% 2.2 km/h 2.6 km/h 191° 1014.1 hPa 0.000 mm
2020-04-02 00:15:00 5.4°C 85% 1.8 km/h 2.1 km/h 191° 1014.1 hPa 0.000 mm
2020-04-02 00:14:00 5.6°C 84% 1.8 km/h 2.1 km/h 203° 1014.1 hPa 0.000 mm
2020-04-02 00:13:00 5.4°C 84% 1.8 km/h 2.1 km/h 191° 1014.2 hPa 0.000 mm
2020-04-02 00:12:00 5.2°C 84% 2.0 km/h 2.1 km/h 180° 1014.1 hPa 0.000 mm
2020-04-02 00:11:00 5.1°C 84% 1.7 km/h 2.1 km/h 191° 1014.2 hPa 0.000 mm
2020-04-02 00:10:00 5.0°C 84% 1.8 km/h 2.1 km/h 169° 1014.2 hPa 0.000 mm
2020-04-02 00:09:00 4.9°C 84% 1.9 km/h 2.1 km/h 180° 1014.2 hPa 0.000 mm
2020-04-02 00:08:00 4.8°C 84% 1.8 km/h 2.1 km/h 158° 1014.2 hPa 0.000 mm
2020-04-02 00:07:00 4.8°C 84% 1.8 km/h 2.1 km/h 203° 1014.2 hPa 0.000 mm
2020-04-02 00:06:00 5.0°C 84% 1.9 km/h 2.1 km/h 191° 1014.2 hPa 0.000 mm
2020-04-02 00:05:00 5.1°C 84% 1.7 km/h 2.1 km/h 180° 1014.2 hPa 0.000 mm
2020-04-02 00:04:00 5.3°C 84% 1.7 km/h 2.1 km/h 169° 1014.2 hPa 0.000 mm
2020-04-02 00:03:00 5.5°C 84% 1.5 km/h 1.6 km/h 146° 1014.2 hPa 0.000 mm
2020-04-02 00:02:00 5.5°C 84% 1.6 km/h 2.1 km/h 180° 1014.2 hPa 0.000 mm
2020-04-02 00:01:00 5.5°C 84% 1.6 km/h 2.1 km/h 169° 1014.2 hPa 0.000 mm
2020-04-02 00:00:00 5.6°C 84% 1.7 km/h 2.1 km/h 146° 1014.2 hPa 0.000 mm
2020-04-01 23:59:00 5.7°C 83% 1.8 km/h 2.1 km/h 214° 1014.2 hPa 0.000 mm
2020-04-01 23:58:00 5.8°C 83% 1.8 km/h 2.1 km/h 203° 1014.2 hPa 0.000 mm
2020-04-01 23:57:00 5.9°C 83% 1.8 km/h 2.1 km/h 170° 1014.2 hPa 0.000 mm
2020-04-01 23:56:00 5.8°C 83% 1.7 km/h 2.1 km/h 169° 1014.2 hPa 0.000 mm
2020-04-01 23:55:00 5.8°C 83% 1.4 km/h 1.6 km/h 209° 1014.1 hPa 0.000 mm
2020-04-01 23:54:00 5.7°C 83% 1.2 km/h 2.1 km/h 228° 1014.2 hPa 0.000 mm
2020-04-01 23:53:00 5.6°C 83% 1.3 km/h 2.1 km/h 234° 1014.2 hPa 0.000 mm
2020-04-01 23:52:00 5.6°C 83% 2.4 km/h 2.6 km/h 231° 1014.2 hPa 0.000 mm
2020-04-01 23:51:00 5.7°C 83% 2.8 km/h 4.2 km/h 246° 1014.2 hPa 0.000 mm
2020-04-01 23:50:00 5.7°C 83% 2.2 km/h 3.2 km/h 273° 1014.2 hPa 0.000 mm
2020-04-01 23:49:00 5.7°C 82% 2.7 km/h 3.2 km/h 259° 1014.2 hPa 0.000 mm
2020-04-01 23:48:00 5.6°C 82% 1.6 km/h 2.1 km/h 216° 1014.2 hPa 0.000 mm
2020-04-01 23:47:00 5.6°C 82% 2.1 km/h 3.2 km/h 249° 1014.2 hPa 0.000 mm
2020-04-01 23:46:00 5.7°C 82% 2.0 km/h 2.6 km/h 235° 1014.2 hPa 0.000 mm
2020-04-01 23:45:00 5.8°C 82% 1.6 km/h 2.6 km/h 218° 1014.2 hPa 0.000 mm
2020-04-01 23:44:00 5.8°C 82% 2.2 km/h 3.2 km/h 242° 1014.2 hPa 0.000 mm
2020-04-01 23:43:00 5.7°C 82% 2.6 km/h 3.7 km/h 209° 1014.2 hPa 0.000 mm
2020-04-01 23:42:00 5.7°C 82% 1.7 km/h 2.1 km/h 264° 1014.1 hPa 0.000 mm
2020-04-01 23:41:00 5.6°C 82% 1.4 km/h 1.6 km/h 208° 1014.2 hPa 0.000 mm
2020-04-01 23:40:00 5.5°C 82% 2.0 km/h 2.6 km/h 195° 1014.1 hPa 0.000 mm
2020-04-01 23:39:00 5.4°C 82% 1.8 km/h 2.1 km/h 215° 1014.1 hPa 0.000 mm
2020-04-01 23:38:00 5.4°C 82% 1.6 km/h 2.1 km/h 236° 1014.1 hPa 0.000 mm
2020-04-01 23:37:00 5.3°C 82% 2.1 km/h 3.2 km/h 232° 1014.2 hPa 0.000 mm
2020-04-01 23:36:00 5.5°C 82% 2.3 km/h 3.2 km/h 215° 1014.1 hPa 0.000 mm
2020-04-01 23:35:00 5.9°C 82% 2.5 km/h 3.2 km/h 205° 1014.1 hPa 0.000 mm
2020-04-01 23:34:00 6.4°C 81% 2.8 km/h 4.2 km/h 241° 1014.1 hPa 0.000 mm
2020-04-01 23:33:00 6.6°C 81% 2.5 km/h 3.2 km/h 258° 1014.1 hPa 0.000 mm
2020-04-01 23:32:00 6.7°C 81% 2.9 km/h 3.7 km/h 248° 1014.1 hPa 0.000 mm
2020-04-01 23:31:00 7.1°C 81% 2.9 km/h 3.7 km/h 206° 1014.1 hPa 0.000 mm
2020-04-01 23:30:00 7.5°C 81% 3.5 km/h 4.8 km/h 246° 1014.1 hPa 0.000 mm
2020-04-01 23:29:00 7.5°C 81% 4.2 km/h 4.8 km/h 221° 1014.1 hPa 0.000 mm
2020-04-01 23:28:00 7.4°C 81% 4.3 km/h 4.8 km/h 255° 1014.1 hPa 0.000 mm
2020-04-01 23:27:00 7.5°C 81% 4.7 km/h 5.3 km/h 240° 1014.1 hPa 0.000 mm
2020-04-01 23:26:00 7.5°C 81% 4.6 km/h 5.3 km/h 225° 1014.1 hPa 0.000 mm
2020-04-01 23:25:00 7.6°C 81% 5.3 km/h 6.3 km/h 99° 1014.1 hPa 0.000 mm
2020-04-01 23:24:00 7.6°C 80% 4.9 km/h 5.8 km/h 83° 1014.1 hPa 0.000 mm
2020-04-01 23:23:00 7.6°C 80% 3.2 km/h 5.3 km/h 115° 1014.1 hPa 0.000 mm
2020-04-01 23:22:00 7.7°C 80% 3.3 km/h 4.8 km/h 35° 1014.1 hPa 0.000 mm
2020-04-01 23:21:00 7.5°C 80% 4.8 km/h 5.8 km/h 1014.1 hPa 0.000 mm
2020-04-01 23:20:00 7.9°C 80% 4.2 km/h 5.3 km/h 17° 1014.0 hPa 0.000 mm
2020-04-01 23:19:00 8.2°C 80% 3.6 km/h 6.3 km/h 36° 1014.1 hPa 0.000 mm
2020-04-01 23:18:00 8.6°C 80% 3.2 km/h 4.8 km/h 105° 1014.0 hPa 0.000 mm
2020-04-01 23:17:00 8.7°C 80% 3.0 km/h 5.3 km/h 236° 1014.0 hPa 0.000 mm
2020-04-01 23:16:00 8.6°C 80% 4.7 km/h 6.3 km/h 182° 1014.0 hPa 0.000 mm
2020-04-01 23:15:00 8.6°C 80% 3.2 km/h 5.3 km/h 183° 1014.0 hPa 0.000 mm
2020-04-01 23:14:00 8.6°C 79% 4.7 km/h 6.3 km/h 212° 1013.9 hPa 0.000 mm
2020-04-01 23:13:00 8.6°C 79% 5.4 km/h 8.4 km/h 206° 1013.9 hPa 0.000 mm
2020-04-01 23:12:00 8.8°C 79% 4.7 km/h 6.3 km/h 164° 1013.9 hPa 0.000 mm
2020-04-01 23:11:00 8.7°C 79% 4.1 km/h 6.3 km/h 131° 1013.9 hPa 0.000 mm
2020-04-01 23:10:00 8.7°C 79% 5.1 km/h 7.4 km/h 170° 1013.9 hPa 0.000 mm
2020-04-01 23:09:00 8.5°C 79% 3.8 km/h 4.8 km/h 176° 1013.9 hPa 0.000 mm
2020-04-01 23:08:00 8.7°C 79% 6.7 km/h 8.4 km/h 173° 1013.9 hPa 0.000 mm
2020-04-01 23:07:00 8.7°C 79% 5.8 km/h 8.4 km/h 149° 1013.9 hPa 0.000 mm
2020-04-01 23:06:00 8.7°C 79% 6.2 km/h 8.4 km/h 186° 1013.8 hPa 0.000 mm
2020-04-01 23:05:00 8.7°C 79% 4.8 km/h 7.4 km/h 176° 1013.8 hPa 0.000 mm
2020-04-01 23:04:00 8.7°C 78% 5.9 km/h 7.4 km/h 179° 1013.8 hPa 0.000 mm
2020-04-01 23:03:00 8.8°C 78% 5.2 km/h 6.9 km/h 165° 1013.8 hPa 0.000 mm
2020-04-01 23:02:00 8.8°C 78% 7.3 km/h 9.0 km/h 153° 1013.8 hPa 0.000 mm
2020-04-01 23:01:00 8.9°C 78% 8.0 km/h 10.0 km/h 137° 1013.7 hPa 0.000 mm
2020-04-01 23:00:00 8.8°C 78% 6.4 km/h 9.0 km/h 188° 1013.8 hPa 0.000 mm
2020-04-01 22:59:00 8.7°C 77% 5.1 km/h 7.9 km/h 199° 1013.7 hPa 0.000 mm
2020-04-01 22:58:00 8.8°C 77% 5.9 km/h 7.9 km/h 178° 1013.7 hPa 0.000 mm
2020-04-01 22:57:00 8.8°C 77% 6.6 km/h 10.0 km/h 189° 1013.7 hPa 0.000 mm
2020-04-01 22:56:00 8.5°C 77% 5.0 km/h 6.9 km/h 168° 1013.7 hPa 0.000 mm
2020-04-01 22:55:00 9.0°C 77% 5.3 km/h 7.4 km/h 178° 1013.7 hPa 0.000 mm
2020-04-01 22:54:00 8.9°C 77% 5.1 km/h 8.4 km/h 140° 1013.7 hPa 0.000 mm
2020-04-01 22:53:00 9.0°C 77% 6.8 km/h 9.5 km/h 187° 1013.7 hPa 0.000 mm
2020-04-01 22:52:00 8.7°C 77% 6.3 km/h 11.6 km/h 214° 1013.7 hPa 0.000 mm
2020-04-01 22:51:00 8.7°C 77% 4.3 km/h 5.8 km/h 199° 1013.7 hPa 0.000 mm
2020-04-01 22:50:00 8.8°C 77% 6.0 km/h 7.9 km/h 189° 1013.7 hPa 0.000 mm
2020-04-01 22:49:00 8.8°C 76% 6.2 km/h 9.5 km/h 176° 1013.7 hPa 0.000 mm
2020-04-01 22:48:00 9.1°C 76% 5.4 km/h 7.9 km/h 195° 1013.7 hPa 0.000 mm
2020-04-01 22:47:00 9.0°C 76% 5.4 km/h 7.4 km/h 161° 1013.7 hPa 0.000 mm
2020-04-01 22:46:00 9.0°C 76% 5.5 km/h 7.9 km/h 179° 1013.7 hPa 0.000 mm
2020-04-01 22:45:00 9.0°C 76% 6.1 km/h 6.9 km/h 215° 1013.7 hPa 0.000 mm
2020-04-01 22:44:00 8.8°C 76% 4.9 km/h 6.9 km/h 164° 1013.7 hPa 0.000 mm
2020-04-01 22:43:00 8.7°C 76% 5.4 km/h 6.9 km/h 178° 1013.7 hPa 0.000 mm
2020-04-01 22:42:00 8.8°C 76% 6.8 km/h 9.5 km/h 165° 1013.7 hPa 0.000 mm
2020-04-01 22:41:00 8.8°C 76% 5.2 km/h 7.4 km/h 176° 1013.7 hPa 0.000 mm
2020-04-01 22:40:00 8.6°C 76% 5.6 km/h 6.9 km/h 144° 1013.7 hPa 0.000 mm
2020-04-01 22:39:00 8.9°C 75% 6.0 km/h 7.4 km/h 185° 1013.7 hPa 0.000 mm
2020-04-01 22:38:00 9.0°C 75% 6.3 km/h 7.9 km/h 187° 1013.7 hPa 0.000 mm
2020-04-01 22:37:00 8.9°C 75% 6.1 km/h 8.4 km/h 144° 1013.7 hPa 0.000 mm
2020-04-01 22:36:00 8.8°C 75% 6.1 km/h 7.4 km/h 137° 1013.7 hPa 0.000 mm
2020-04-01 22:35:00 8.9°C 75% 3.8 km/h 4.8 km/h 188° 1013.7 hPa 0.000 mm
2020-04-01 22:34:00 9.0°C 74% 6.5 km/h 8.4 km/h 207° 1013.7 hPa 0.000 mm
2020-04-01 22:33:00 8.9°C 74% 5.9 km/h 7.9 km/h 177° 1013.7 hPa 0.000 mm
2020-04-01 22:32:00 9.0°C 74% 5.0 km/h 6.9 km/h 182° 1013.7 hPa 0.000 mm
2020-04-01 22:31:00 9.0°C 74% 5.7 km/h 7.4 km/h 147° 1013.8 hPa 0.000 mm
2020-04-01 22:30:00 8.9°C 74% 5.5 km/h 6.9 km/h 165° 1013.7 hPa 0.000 mm
2020-04-01 22:29:00 8.9°C 74% 3.6 km/h 5.3 km/h 186° 1013.7 hPa 0.000 mm
2020-04-01 22:28:00 8.9°C 74% 4.4 km/h 5.8 km/h 188° 1013.7 hPa 0.000 mm
2020-04-01 22:27:00 9.1°C 74% 4.9 km/h 6.9 km/h 171° 1013.7 hPa 0.000 mm
2020-04-01 22:26:00 9.0°C 74% 5.0 km/h 6.3 km/h 132° 1013.7 hPa 0.000 mm
2020-04-01 22:25:00 9.0°C 74% 4.2 km/h 5.3 km/h 200° 1013.7 hPa 0.000 mm
2020-04-01 22:24:00 9.3°C 73% 3.9 km/h 4.8 km/h 136° 1013.7 hPa 0.000 mm
2020-04-01 22:23:00 9.4°C 73% 5.8 km/h 6.9 km/h 185° 1013.7 hPa 0.000 mm
2020-04-01 22:22:00 9.5°C 73% 5.4 km/h 7.4 km/h 163° 1013.7 hPa 0.000 mm
2020-04-01 22:21:00 9.3°C 73% 4.8 km/h 6.3 km/h 128° 1013.7 hPa 0.000 mm
2020-04-01 22:20:00 9.0°C 73% 5.4 km/h 7.4 km/h 135° 1013.7 hPa 0.000 mm
2020-04-01 22:19:00 8.7°C 72% 6.0 km/h 7.9 km/h 189° 1013.7 hPa 0.000 mm
2020-04-01 22:18:00 8.7°C 72% 5.1 km/h 6.9 km/h 180° 1013.8 hPa 0.000 mm
2020-04-01 22:17:00 8.8°C 72% 5.8 km/h 6.9 km/h 178° 1013.7 hPa 0.000 mm
2020-04-01 22:16:00 8.6°C 72% 5.7 km/h 6.9 km/h 179° 1013.7 hPa 0.000 mm
2020-04-01 22:15:00 8.9°C 72% 5.0 km/h 6.9 km/h 172° 1013.7 hPa 0.000 mm
2020-04-01 22:14:00 8.8°C 71% 4.6 km/h 6.3 km/h 160° 1013.7 hPa 0.000 mm
2020-04-01 22:13:00 9.1°C 71% 5.1 km/h 5.8 km/h 144° 1013.7 hPa 0.000 mm
2020-04-01 22:12:00 8.8°C 71% 4.3 km/h 5.3 km/h 141° 1013.7 hPa 0.000 mm
2020-04-01 22:11:00 8.6°C 71% 4.1 km/h 5.3 km/h 145° 1013.7 hPa 0.000 mm
2020-04-01 22:10:00 8.6°C 71% 3.9 km/h 4.8 km/h 186° 1013.7 hPa 0.000 mm
2020-04-01 22:09:00 8.3°C 71% 4.7 km/h 5.8 km/h 164° 1013.7 hPa 0.000 mm
2020-04-01 22:08:00 7.8°C 71% 3.8 km/h 5.3 km/h 152° 1013.7 hPa 0.000 mm
2020-04-01 22:07:00 7.9°C 71% 4.1 km/h 5.3 km/h 195° 1013.7 hPa 0.000 mm
2020-04-01 22:06:00 8.1°C 71% 4.6 km/h 6.3 km/h 154° 1013.7 hPa 0.000 mm
2020-04-01 22:05:00 8.1°C 71% 4.3 km/h 5.3 km/h 163° 1013.7 hPa 0.000 mm
2020-04-01 22:04:00 7.9°C 70% 4.2 km/h 5.3 km/h 160° 1013.7 hPa 0.000 mm
2020-04-01 22:03:00 7.7°C 70% 4.1 km/h 4.8 km/h 170° 1013.7 hPa 0.000 mm
2020-04-01 22:02:00 7.3°C 70% 4.0 km/h 4.8 km/h 191° 1013.7 hPa 0.000 mm
2020-04-01 22:01:00 6.7°C 70% 4.0 km/h 5.3 km/h 171° 1013.7 hPa 0.000 mm
2020-04-01 22:00:00 6.7°C 70% 3.3 km/h 3.7 km/h 178° 1013.7 hPa 0.000 mm
2020-04-01 21:59:00 6.3°C 69% 3.8 km/h 4.8 km/h 173° 1013.7 hPa 0.000 mm
2020-04-01 21:58:00 6.2°C 69% 3.3 km/h 4.2 km/h 217° 1013.7 hPa 0.000 mm
2020-04-01 21:57:00 6.4°C 69% 3.4 km/h 4.8 km/h 151° 1013.7 hPa 0.000 mm
2020-04-01 21:56:00 6.7°C 69% 2.8 km/h 4.2 km/h 155° 1013.7 hPa 0.000 mm
2020-04-01 21:55:00 6.6°C 69% 3.3 km/h 5.8 km/h 138° 1013.7 hPa 0.000 mm
2020-04-01 21:54:00 6.9°C 68% 2.7 km/h 5.8 km/h 154° 1013.7 hPa 0.000 mm
2020-04-01 21:53:00 6.8°C 68% 2.9 km/h 3.7 km/h 187° 1013.7 hPa 0.000 mm
2020-04-01 21:52:00 6.2°C 68% 3.9 km/h 4.8 km/h 189° 1013.7 hPa 0.000 mm
2020-04-01 21:51:00 5.9°C 68% 3.1 km/h 4.8 km/h 180° 1013.8 hPa 0.000 mm
2020-04-01 21:50:00 5.7°C 68% 3.4 km/h 4.2 km/h 180° 1013.8 hPa 0.000 mm
2020-04-01 21:49:00 5.8°C 68% 3.4 km/h 4.2 km/h 191° 1013.8 hPa 0.000 mm
2020-04-01 21:48:00 5.3°C 68% 4.1 km/h 4.8 km/h 205° 1013.8 hPa 0.000 mm
2020-04-01 21:47:00 5.5°C 68% 4.3 km/h 4.8 km/h 226° 1013.8 hPa 0.000 mm
2020-04-01 21:46:00 5.2°C 68% 4.6 km/h 5.3 km/h 215° 1013.8 hPa 0.000 mm
2020-04-01 21:45:00 5.3°C 68% 4.6 km/h 5.3 km/h 200° 1013.8 hPa 0.000 mm
2020-04-01 21:44:00 5.3°C 67% 4.2 km/h 4.8 km/h 210° 1013.8 hPa 0.000 mm
2020-04-01 21:43:00 6.1°C 67% 4.5 km/h 5.3 km/h 222° 1013.8 hPa 0.000 mm
2020-04-01 21:42:00 6.7°C 67% 4.3 km/h 5.8 km/h 191° 1013.8 hPa 0.000 mm
2020-04-01 21:41:00 7.2°C 67% 5.7 km/h 6.3 km/h 230° 1013.9 hPa 0.000 mm
2020-04-01 21:40:00 6.5°C 67% 5.0 km/h 5.8 km/h 172° 1013.9 hPa 0.000 mm
2020-04-01 21:39:00 6.1°C 66% 4.2 km/h 4.8 km/h 180° 1013.9 hPa 0.000 mm
2020-04-01 21:38:00 6.1°C 66% 4.5 km/h 5.3 km/h 169° 1013.9 hPa 0.000 mm
2020-04-01 21:37:00 6.1°C 66% 4.1 km/h 4.8 km/h 147° 1013.9 hPa 0.000 mm
2020-04-01 21:36:00 6.0°C 66% 4.5 km/h 5.3 km/h 158° 1013.9 hPa 0.000 mm
2020-04-01 21:35:00 5.5°C 66% 5.1 km/h 6.3 km/h 125° 1013.9 hPa 0.000 mm
2020-04-01 21:34:00 5.2°C 65% 5.3 km/h 6.9 km/h 180° 1013.9 hPa 0.000 mm
2020-04-01 21:33:00 5.1°C 65% 4.9 km/h 5.8 km/h 180° 1013.9 hPa 0.000 mm
2020-04-01 21:32:00 5.0°C 65% 4.4 km/h 5.3 km/h 158° 1013.9 hPa 0.000 mm
2020-04-01 21:31:00 4.8°C 65% 4.7 km/h 5.8 km/h 169° 1013.9 hPa 0.000 mm
2020-04-01 21:30:00 4.9°C 65% 4.1 km/h 5.3 km/h 179° 1013.9 hPa 0.000 mm
2020-04-01 21:29:00 5.0°C 64% 3.2 km/h 3.7 km/h 185° 1013.9 hPa 0.000 mm
2020-04-01 21:28:00 5.1°C 64% 2.9 km/h 3.7 km/h 171° 1013.8 hPa 0.000 mm
2020-04-01 21:27:00 5.2°C 64% 2.5 km/h 3.2 km/h 176° 1013.8 hPa 0.000 mm
2020-04-01 21:26:00 5.5°C 64% 2.4 km/h 2.6 km/h 181° 1013.8 hPa 0.000 mm
2020-04-01 21:25:00 5.7°C 64% 2.3 km/h 2.6 km/h 128° 1013.8 hPa 0.000 mm
2020-04-01 21:24:00 6.0°C 64% 2.5 km/h 3.2 km/h 186° 1013.8 hPa 0.000 mm
2020-04-01 21:23:00 6.1°C 64% 2.5 km/h 3.7 km/h 205° 1013.8 hPa 0.000 mm
2020-04-01 21:22:00 5.7°C 64% 3.2 km/h 4.2 km/h 182° 1013.8 hPa 0.000 mm
2020-04-01 21:21:00 6.1°C 64% 2.9 km/h 3.7 km/h 179° 1013.8 hPa 0.000 mm
2020-04-01 21:20:00 6.2°C 64% 3.3 km/h 3.7 km/h 159° 1013.8 hPa 0.000 mm
2020-04-01 21:19:00 6.3°C 63% 3.4 km/h 4.2 km/h 206° 1013.7 hPa 0.000 mm
2020-04-01 21:18:00 6.4°C 63% 3.6 km/h 4.8 km/h 132° 1013.7 hPa 0.000 mm
2020-04-01 21:17:00 6.6°C 63% 3.7 km/h 4.2 km/h 125° 1013.7 hPa 0.000 mm
2020-04-01 21:16:00 6.3°C 63% 4.4 km/h 5.3 km/h 185° 1013.7 hPa 0.000 mm
2020-04-01 21:15:00 5.9°C 63% 4.9 km/h 5.8 km/h 141° 1013.7 hPa 0.000 mm
2020-04-01 21:14:00 6.0°C 62% 4.0 km/h 4.8 km/h 158° 1013.7 hPa 0.000 mm
2020-04-01 21:13:00 5.8°C 62% 4.1 km/h 4.8 km/h 164° 1013.7 hPa 0.000 mm
2020-04-01 21:12:00 6.0°C 62% 3.8 km/h 4.2 km/h 118° 1013.7 hPa 0.000 mm
2020-04-01 21:11:00 6.6°C 62% 3.4 km/h 4.2 km/h 158° 1013.7 hPa 0.000 mm
2020-04-01 21:10:00 6.8°C 62% 3.2 km/h 3.7 km/h 162° 1013.6 hPa 0.000 mm
2020-04-01 21:09:00 6.6°C 61% 3.0 km/h 3.2 km/h 135° 1013.6 hPa 0.000 mm
2020-04-01 21:08:00 6.6°C 61% 2.8 km/h 3.2 km/h 154° 1013.6 hPa 0.000 mm
2020-04-01 21:07:00 6.6°C 61% 3.2 km/h 4.2 km/h 177° 1013.6 hPa 0.000 mm
2020-04-01 21:06:00 6.7°C 61% 2.7 km/h 3.7 km/h 162° 1013.6 hPa 0.000 mm
2020-04-01 21:05:00 6.7°C 61% 2.6 km/h 3.7 km/h 164° 1013.6 hPa 0.000 mm
2020-04-01 21:04:00 6.4°C 61% 2.8 km/h 3.7 km/h 145° 1013.6 hPa 0.000 mm
2020-04-01 21:03:00 6.5°C 61% 2.6 km/h 3.2 km/h 163° 1013.6 hPa 0.000 mm
2020-04-01 21:02:00 6.2°C 61% 3.1 km/h 4.2 km/h 181° 1013.6 hPa 0.000 mm
2020-04-01 21:01:00 6.3°C 61% 3.1 km/h 3.7 km/h 183° 1013.6 hPa 0.000 mm
2020-04-01 21:00:00 6.3°C 61% 3.2 km/h 3.7 km/h 173° 1013.6 hPa 0.000 mm
2020-04-01 20:59:00 6.1°C 60% 3.1 km/h 4.2 km/h 160° 1013.5 hPa 0.000 mm
2020-04-01 20:58:00 6.0°C 60% 2.9 km/h 3.7 km/h 163° 1013.5 hPa 0.000 mm
2020-04-01 20:57:00 5.5°C 60% 3.0 km/h 3.7 km/h 135° 1013.5 hPa 0.000 mm
2020-04-01 20:56:00 5.5°C 60% 2.9 km/h 3.2 km/h 153° 1013.5 hPa 0.000 mm
2020-04-01 20:55:00 5.6°C 60% 2.9 km/h 3.2 km/h 152° 1013.5 hPa 0.000 mm
2020-04-01 20:54:00 5.9°C 59% 2.9 km/h 3.2 km/h 192° 1013.5 hPa 0.000 mm
2020-04-01 20:53:00 6.0°C 59% 2.7 km/h 4.2 km/h 178° 1013.5 hPa 0.000 mm
2020-04-01 20:52:00 6.2°C 59% 2.7 km/h 3.2 km/h 214° 1013.5 hPa 0.000 mm
2020-04-01 20:51:00 6.2°C 59% 2.1 km/h 2.6 km/h 197° 1013.5 hPa 0.000 mm
2020-04-01 20:50:00 6.4°C 59% 2.1 km/h 2.6 km/h 165° 1013.5 hPa 0.000 mm
2020-04-01 20:49:00 6.7°C 59% 2.6 km/h 3.2 km/h 158° 1013.5 hPa 0.000 mm
2020-04-01 20:48:00 7.3°C 59% 2.0 km/h 2.6 km/h 146° 1013.5 hPa 0.000 mm
2020-04-01 20:47:00 7.7°C 59% 1.8 km/h 2.6 km/h 162° 1013.5 hPa 0.000 mm
2020-04-01 20:46:00 8.1°C 59% 1.7 km/h 2.1 km/h 153° 1013.4 hPa 0.000 mm
2020-04-01 20:45:00 8.2°C 59% 2.1 km/h 2.6 km/h 144° 1013.4 hPa 0.000 mm
2020-04-01 20:44:00 8.2°C 58% 2.1 km/h 2.6 km/h 144° 1013.4 hPa 0.000 mm
2020-04-01 20:43:00 8.3°C 58% 1.4 km/h 2.1 km/h 171° 1013.4 hPa 0.000 mm
2020-04-01 20:42:00 8.2°C 58% 0.9 km/h 1.6 km/h 144° 1013.4 hPa 0.000 mm
2020-04-01 20:41:00 8.2°C 58% 1.1 km/h 1.6 km/h 162° 1013.4 hPa 0.000 mm
2020-04-01 20:40:00 8.2°C 58% 1.3 km/h 1.6 km/h 162° 1013.4 hPa 0.000 mm
2020-04-01 20:39:00 8.4°C 58% 1.1 km/h 1.6 km/h 142° 1013.4 hPa 0.000 mm
2020-04-01 20:38:00 8.5°C 58% 1.0 km/h 1.6 km/h 108° 1013.4 hPa 0.000 mm
2020-04-01 20:37:00 8.5°C 58% 1.4 km/h 1.6 km/h 162° 1013.4 hPa 0.000 mm
2020-04-01 20:36:00 8.4°C 58% 1.1 km/h 1.6 km/h 108° 1013.4 hPa 0.000 mm
2020-04-01 20:35:00 8.4°C 58% 1.1 km/h 1.6 km/h 153° 1013.3 hPa 0.000 mm
2020-04-01 20:34:00 8.5°C 57% 1.1 km/h 1.6 km/h 144° 1013.3 hPa 0.000 mm
2020-04-01 20:33:00 8.4°C 57% 1.4 km/h 1.6 km/h 153° 1013.3 hPa 0.000 mm
2020-04-01 20:32:00 8.6°C 57% 0.7 km/h 1.6 km/h 90° 1013.3 hPa 0.000 mm
2020-04-01 20:31:00 8.8°C 57% 0.4 km/h 0.5 km/h 180° 1013.3 hPa 0.000 mm
2020-04-01 20:30:00 9.1°C 57% 0.8 km/h 1.1 km/h 144° 1013.2 hPa 0.000 mm
2020-04-01 20:29:00 9.1°C 57% 1.0 km/h 1.6 km/h 117° 1013.2 hPa 0.000 mm
2020-04-01 20:28:00 9.5°C 57% 0.8 km/h 1.1 km/h 162° 1013.2 hPa 0.000 mm
2020-04-01 20:27:00 9.6°C 57% 0.0 km/h 0.0 km/h 135° 1013.2 hPa 0.000 mm
2020-04-01 20:26:00 9.7°C 57% 0.0 km/h 0.0 km/h 180° 1013.2 hPa 0.000 mm
2020-04-01 20:25:00 9.7°C 57% 0.0 km/h 0.5 km/h 135° 1013.2 hPa 0.000 mm
2020-04-01 20:24:00 9.8°C 57% 0.0 km/h 0.0 km/h 117° 1013.2 hPa 0.000 mm
2020-04-01 20:23:00 9.8°C 57% 0.0 km/h 0.0 km/h 135° 1013.2 hPa 0.000 mm
2020-04-01 20:22:00 9.7°C 57% 0.1 km/h 0.5 km/h 135° 1013.2 hPa 0.000 mm
2020-04-01 20:21:00 9.6°C 57% 0.1 km/h 0.5 km/h 171° 1013.2 hPa 0.000 mm
2020-04-01 20:20:00 9.7°C 57% 0.0 km/h 0.0 km/h 153° 1013.2 hPa 0.000 mm
2020-04-01 20:19:00 9.7°C 56% 0.1 km/h 0.5 km/h 144° 1013.1 hPa 0.000 mm
2020-04-01 20:18:00 9.7°C 56% 0.8 km/h 1.1 km/h 131° 1013.1 hPa 0.000 mm
2020-04-01 20:17:00 9.9°C 56% 0.8 km/h 1.6 km/h 135° 1013.1 hPa 0.000 mm
2020-04-01 20:16:00 10.2°C 56% 0.0 km/h 0.0 km/h 171° 1013.1 hPa 0.000 mm
2020-04-01 20:15:00 10.4°C 56% 0.0 km/h 0.0 km/h 108° 1013.1 hPa 0.000 mm
2020-04-01 20:14:00 10.5°C 55% 0.0 km/h 0.0 km/h 144° 1013.1 hPa 0.000 mm
2020-04-01 20:13:00 10.6°C 55% 0.4 km/h 1.1 km/h 153° 1013.1 hPa 0.000 mm
2020-04-01 20:12:00 10.4°C 55% 1.0 km/h 1.6 km/h 135° 1013.1 hPa 0.000 mm
2020-04-01 20:11:00 10.6°C 55% 0.9 km/h 1.1 km/h 144° 1013.1 hPa 0.000 mm
2020-04-01 20:10:00 10.6°C 55% 1.1 km/h 1.6 km/h 153° 1013.1 hPa 0.000 mm
2020-04-01 20:09:00 10.7°C 55% 1.0 km/h 1.6 km/h 135° 1013.1 hPa 0.000 mm
2020-04-01 20:08:00 11.0°C 55% 1.1 km/h 1.6 km/h 162° 1013.1 hPa 0.000 mm
2020-04-01 20:07:00 11.0°C 55% 0.9 km/h 1.1 km/h 180° 1013.1 hPa 0.000 mm
2020-04-01 20:06:00 11.1°C 55% 0.6 km/h 1.6 km/h 180° 1013.1 hPa 0.000 mm
2020-04-01 20:05:00 11.2°C 55% 0.0 km/h 0.5 km/h 83° 1013.0 hPa 0.000 mm
2020-04-01 20:04:00 11.2°C 54% 0.4 km/h 1.1 km/h 1013.0 hPa 0.000 mm
2020-04-01 20:03:00 11.2°C 54% 0.4 km/h 1.1 km/h 1013.1 hPa 0.000 mm
2020-04-01 20:02:00 11.3°C 54% 1.1 km/h 2.1 km/h 51° 1013.0 hPa 0.000 mm
2020-04-01 20:01:00 11.4°C 54% 0.3 km/h 1.6 km/h 83° 1013.0 hPa 0.000 mm
2020-04-01 20:00:00 11.5°C 54% 0.0 km/h 0.0 km/h 56° 1013.0 hPa 0.000 mm
2020-04-01 19:59:00 11.6°C 54% 0.0 km/h 0.0 km/h 41° 1013.0 hPa 0.000 mm
2020-04-01 19:58:00 11.8°C 54% 0.0 km/h 0.0 km/h 43° 1013.0 hPa 0.000 mm
2020-04-01 19:57:00 11.9°C 54% 0.7 km/h 1.1 km/h 36° 1013.0 hPa 0.000 mm
2020-04-01 19:56:00 12.1°C 54% 0.6 km/h 1.1 km/h 36° 1013.0 hPa 0.000 mm
2020-04-01 19:55:00 12.2°C 54% 1.2 km/h 1.6 km/h 34° 1013.0 hPa 0.000 mm
2020-04-01 19:54:00 12.3°C 54% 1.4 km/h 1.6 km/h 1013.1 hPa 0.000 mm
2020-04-01 19:53:00 12.4°C 54% 1.4 km/h 2.1 km/h 17° 1013.1 hPa 0.000 mm
2020-04-01 19:52:00 12.5°C 54% 1.7 km/h 2.1 km/h 15° 1013.0 hPa 0.000 mm
2020-04-01 19:51:00 12.5°C 54% 1.9 km/h 2.6 km/h 1013.0 hPa 0.000 mm
2020-04-01 19:50:00 12.7°C 54% 1.4 km/h 1.6 km/h 33° 1013.0 hPa 0.000 mm
2020-04-01 19:49:00 12.7°C 53% 1.2 km/h 2.1 km/h 20° 1013.1 hPa 0.000 mm
2020-04-01 19:48:00 12.8°C 53% 0.9 km/h 1.1 km/h 34° 1013.1 hPa 0.000 mm
2020-04-01 19:47:00 13.0°C 53% 1.1 km/h 1.6 km/h 36° 1013.1 hPa 0.000 mm
2020-04-01 19:46:00 13.1°C 53% 1.6 km/h 2.1 km/h 38° 1013.1 hPa 0.000 mm
2020-04-01 19:45:00 13.1°C 53% 1.8 km/h 2.1 km/h 28° 1013.1 hPa 0.000 mm
2020-04-01 19:44:00 13.1°C 53% 1.3 km/h 1.6 km/h 36° 1013.1 hPa 0.000 mm
2020-04-01 19:43:00 13.3°C 53% 0.9 km/h 1.6 km/h 45° 1013.0 hPa 0.000 mm
2020-04-01 19:42:00 13.2°C 53% 0.9 km/h 1.1 km/h 41° 1013.1 hPa 0.000 mm
2020-04-01 19:41:00 13.2°C 53% 0.8 km/h 1.6 km/h 38° 1013.1 hPa 0.000 mm
2020-04-01 19:40:00 13.2°C 53% 1.2 km/h 1.6 km/h 41° 1013.1 hPa 0.000 mm
2020-04-01 19:39:00 13.2°C 52% 1.8 km/h 2.6 km/h 34° 1013.1 hPa 0.000 mm
2020-04-01 19:38:00 13.2°C 52% 2.1 km/h 2.6 km/h 37° 1013.1 hPa 0.000 mm
2020-04-01 19:37:00 13.1°C 52% 2.2 km/h 3.2 km/h 41° 1013.1 hPa 0.000 mm
2020-04-01 19:36:00 13.1°C 52% 2.5 km/h 3.2 km/h 37° 1013.1 hPa 0.000 mm
2020-04-01 19:35:00 13.0°C 52% 2.5 km/h 3.2 km/h 43° 1013.1 hPa 0.000 mm
2020-04-01 19:34:00 13.1°C 51% 2.0 km/h 2.6 km/h 42° 1013.1 hPa 0.000 mm
2020-04-01 19:33:00 13.0°C 51% 2.1 km/h 2.6 km/h 32° 1013.1 hPa 0.000 mm
2020-04-01 19:32:00 13.0°C 51% 1.6 km/h 2.6 km/h 32° 1013.1 hPa 0.000 mm
2020-04-01 19:31:00 13.0°C 51% 1.1 km/h 2.1 km/h 38° 1013.1 hPa 0.000 mm
2020-04-01 19:30:00 13.4°C 51% 2.3 km/h 3.2 km/h 12° 1013.1 hPa 0.000 mm
2020-04-01 19:29:00 13.2°C 51% 1.8 km/h 2.6 km/h 35° 1013.1 hPa 0.000 mm
2020-04-01 19:28:00 13.0°C 51% 2.6 km/h 3.7 km/h 26° 1013.1 hPa 0.000 mm
2020-04-01 19:27:00 13.2°C 51% 3.0 km/h 3.7 km/h 29° 1013.1 hPa 0.000 mm
2020-04-01 19:26:00 13.3°C 51% 2.4 km/h 3.7 km/h 32° 1013.2 hPa 0.000 mm
2020-04-01 19:25:00 13.3°C 51% 1.8 km/h 3.2 km/h 32° 1013.2 hPa 0.000 mm
2020-04-01 19:24:00 13.3°C 50% 1.5 km/h 2.1 km/h 1013.1 hPa 0.000 mm
2020-04-01 19:23:00 13.3°C 50% 1.7 km/h 2.6 km/h 1013.1 hPa 0.000 mm
2020-04-01 19:22:00 13.4°C 50% 1.6 km/h 2.1 km/h 47° 1013.1 hPa 0.000 mm
2020-04-01 19:21:00 13.4°C 50% 2.2 km/h 2.6 km/h 146° 1013.2 hPa 0.000 mm
2020-04-01 19:20:00 13.5°C 50% 2.4 km/h 3.2 km/h 145° 1013.2 hPa 0.000 mm
2020-04-01 19:19:00 13.5°C 50% 1.7 km/h 2.1 km/h 241° 1013.2 hPa 0.000 mm
2020-04-01 19:18:00 13.5°C 50% 2.2 km/h 2.6 km/h 217° 1013.2 hPa 0.000 mm
2020-04-01 19:17:00 13.6°C 50% 1.8 km/h 2.6 km/h 127° 1013.2 hPa 0.000 mm
2020-04-01 19:16:00 13.6°C 50% 1.1 km/h 2.1 km/h 80° 1013.2 hPa 0.000 mm
2020-04-01 19:15:00 13.6°C 50% 1.7 km/h 2.6 km/h 104° 1013.2 hPa 0.000 mm
2020-04-01 19:14:00 13.6°C 49% 1.6 km/h 2.1 km/h 37° 1013.2 hPa 0.000 mm
2020-04-01 19:13:00 13.7°C 49% 2.1 km/h 2.6 km/h 131° 1013.2 hPa 0.000 mm
2020-04-01 19:12:00 13.7°C 49% 2.0 km/h 2.6 km/h 48° 1013.2 hPa 0.000 mm
2020-04-01 19:11:00 13.7°C 49% 1.9 km/h 2.1 km/h 128° 1013.2 hPa 0.000 mm
2020-04-01 19:10:00 13.7°C 49% 2.6 km/h 4.2 km/h 43° 1013.2 hPa 0.000 mm
2020-04-01 19:09:00 13.7°C 49% 3.8 km/h 4.8 km/h 258° 1013.2 hPa 0.000 mm
2020-04-01 19:08:00 13.7°C 49% 3.6 km/h 4.8 km/h 189° 1013.2 hPa 0.000 mm
2020-04-01 19:07:00 13.7°C 49% 3.1 km/h 4.2 km/h 209° 1013.2 hPa 0.000 mm
2020-04-01 19:06:00 13.7°C 49% 2.8 km/h 3.7 km/h 221° 1013.2 hPa 0.000 mm
2020-04-01 19:05:00 13.6°C 49% 2.7 km/h 3.2 km/h 268° 1013.2 hPa 0.000 mm
2020-04-01 19:04:00 13.6°C 48% 2.9 km/h 3.7 km/h 216° 1013.2 hPa 0.000 mm
2020-04-01 19:03:00 13.7°C 48% 1.9 km/h 2.6 km/h 251° 1013.2 hPa 0.000 mm
2020-04-01 19:02:00 13.6°C 48% 1.4 km/h 2.1 km/h 246° 1013.1 hPa 0.000 mm
2020-04-01 19:01:00 13.5°C 48% 1.7 km/h 2.6 km/h 241° 1013.1 hPa 0.000 mm
2020-04-01 19:00:00 13.5°C 48% 1.7 km/h 2.1 km/h 198° 1013.1 hPa 0.000 mm
2020-04-01 18:59:00 13.8°C 48% 2.0 km/h 2.6 km/h 191° 1013.2 hPa 0.000 mm
2020-04-01 18:58:00 13.6°C 48% 1.7 km/h 2.1 km/h 158° 1013.2 hPa 0.000 mm
2020-04-01 18:57:00 13.6°C 48% 1.8 km/h 3.2 km/h 198° 1013.2 hPa 0.000 mm
2020-04-01 18:56:00 13.6°C 48% 1.8 km/h 2.6 km/h 180° 1013.2 hPa 0.000 mm
2020-04-01 18:55:00 13.6°C 48% 2.0 km/h 3.2 km/h 222° 1013.2 hPa 0.000 mm
2020-04-01 18:54:00 13.6°C 47% 2.2 km/h 2.6 km/h 210° 1013.2 hPa 0.000 mm
2020-04-01 18:53:00 13.8°C 47% 3.1 km/h 3.7 km/h 201° 1013.2 hPa 0.000 mm
2020-04-01 18:52:00 13.8°C 47% 1.5 km/h 3.2 km/h 194° 1013.2 hPa 0.000 mm
2020-04-01 18:51:00 13.8°C 47% 1.6 km/h 2.6 km/h 226° 1013.2 hPa 0.000 mm
2020-04-01 18:50:00 13.9°C 47% 3.0 km/h 4.2 km/h 263° 1013.2 hPa 0.000 mm
2020-04-01 18:49:00 14.0°C 46% 2.6 km/h 3.7 km/h 192° 1013.2 hPa 0.000 mm
2020-04-01 18:48:00 14.1°C 46% 2.7 km/h 4.2 km/h 172° 1013.2 hPa 0.000 mm
2020-04-01 18:47:00 14.2°C 46% 2.6 km/h 3.7 km/h 190° 1013.2 hPa 0.000 mm
2020-04-01 18:46:00 14.2°C 46% 2.6 km/h 3.7 km/h 250° 1013.2 hPa 0.000 mm
2020-04-01 18:45:00 14.1°C 46% 2.0 km/h 3.2 km/h 244° 1013.2 hPa 0.000 mm
2020-04-01 18:44:00 14.1°C 46% 2.6 km/h 4.2 km/h 242° 1013.2 hPa 0.000 mm
2020-04-01 18:43:00 14.2°C 46% 2.5 km/h 3.7 km/h 200° 1013.2 hPa 0.000 mm
2020-04-01 18:42:00 14.3°C 46% 1.0 km/h 2.1 km/h 163° 1013.2 hPa 0.000 mm
2020-04-01 18:41:00 14.2°C 46% 2.4 km/h 3.2 km/h 232° 1013.3 hPa 0.000 mm
2020-04-01 18:40:00 14.2°C 46% 2.9 km/h 3.2 km/h 257° 1013.2 hPa 0.000 mm
2020-04-01 18:39:00 14.3°C 45% 2.2 km/h 3.2 km/h 241° 1013.2 hPa 0.000 mm
2020-04-01 18:38:00 14.2°C 45% 1.3 km/h 1.6 km/h 199° 1013.3 hPa 0.000 mm
2020-04-01 18:37:00 14.2°C 45% 1.5 km/h 2.1 km/h 272° 1013.2 hPa 0.000 mm
2020-04-01 18:36:00 14.2°C 45% 1.6 km/h 2.1 km/h 268° 1013.2 hPa 0.000 mm
2020-04-01 18:35:00 14.3°C 45% 2.6 km/h 3.2 km/h 241° 1013.2 hPa 0.000 mm
2020-04-01 18:34:00 13.9°C 45% 2.7 km/h 3.7 km/h 255° 1013.3 hPa 0.000 mm
2020-04-01 18:33:00 14.3°C 45% 3.0 km/h 4.8 km/h 61° 1013.3 hPa 0.000 mm
2020-04-01 18:32:00 14.3°C 45% 4.1 km/h 4.8 km/h 177° 1013.3 hPa 0.000 mm
2020-04-01 18:31:00 14.0°C 45% 3.8 km/h 4.8 km/h 203° 1013.3 hPa 0.000 mm
2020-04-01 18:30:00 14.0°C 45% 0.8 km/h 3.7 km/h 212° 1013.3 hPa 0.000 mm
2020-04-01 18:29:00 14.1°C 44% 1.3 km/h 2.1 km/h 142° 1013.3 hPa 0.000 mm
2020-04-01 18:28:00 14.2°C 44% 1.8 km/h 2.6 km/h 97° 1013.3 hPa 0.000 mm
2020-04-01 18:27:00 14.5°C 44% 2.0 km/h 2.6 km/h 174° 1013.3 hPa 0.000 mm
2020-04-01 18:26:00 14.4°C 44% 2.2 km/h 3.2 km/h 222° 1013.3 hPa 0.000 mm
2020-04-01 18:25:00 14.2°C 44% 2.5 km/h 3.2 km/h 239° 1013.3 hPa 0.000 mm
2020-04-01 18:24:00 14.2°C 44% 1.3 km/h 2.1 km/h 208° 1013.3 hPa 0.000 mm
2020-04-01 18:23:00 14.0°C 44% 2.5 km/h 3.2 km/h 189° 1013.3 hPa 0.000 mm
2020-04-01 18:22:00 14.0°C 44% 0.8 km/h 2.1 km/h 78° 1013.3 hPa 0.000 mm
2020-04-01 18:21:00 14.0°C 44% 1.4 km/h 2.1 km/h 53° 1013.3 hPa 0.000 mm
2020-04-01 18:20:00 14.2°C 44% 1.9 km/h 3.2 km/h 30° 1013.3 hPa 0.000 mm
2020-04-01 18:19:00 14.4°C 43% 2.5 km/h 3.7 km/h 1013.3 hPa 0.000 mm
2020-04-01 18:18:00 14.4°C 43% 1.6 km/h 2.6 km/h 101° 1013.3 hPa 0.000 mm
2020-04-01 18:17:00 14.4°C 43% 3.1 km/h 4.2 km/h 209° 1013.3 hPa 0.000 mm
2020-04-01 18:16:00 14.2°C 43% 3.0 km/h 4.2 km/h 255° 1013.3 hPa 0.000 mm
2020-04-01 18:15:00 14.1°C 43% 0.9 km/h 2.1 km/h 173° 1013.3 hPa 0.000 mm
2020-04-01 18:14:00 14.2°C 43% 0.2 km/h 0.5 km/h 82° 1013.3 hPa 0.000 mm
2020-04-01 18:13:00 14.2°C 43% 1.4 km/h 2.1 km/h 36° 1013.3 hPa 0.000 mm